<?xml version="1.0" encoding="UTF-8"?>
<gpx xmlns="http://www.topografix.com/GPX/1/1" xmlns:gpsies="http://www.gpsies.com/GPX/1/0" creator="GPSies http://www.gpsies.com - GBI Toscana 2018 Day 3 Track 1 final (Florence-San Gimignano)" version="1.1" xmlns:xsi="http://www.w3.org/2001/XMLSchema-instance" xsi:schemaLocation="http://www.topografix.com/GPX/1/1 http://www.topografix.com/GPX/1/1/gpx.xsd http://www.gpsies.com/GPX/1/0 http://www.gpsies.com/gpsies.xsd">
  <metadata>
    <name>GBIIT21 D3 T1</name>
    <author>
      <name>TOAO</name>
      <link href="http://www.gpsies.com/mapUser.do?username=TOAO">
        <text>TOAO on GPSies.com</text>
        <type>GPSiesUserOnWeb</type>
      </link>
    </author>
    <link href="http://www.gpsies.com/map.do?fileId=fsufredzdfgvobtg">
      <text>GBIIT21 D3 T1</text>
      <type>trackOnWeb</type>
    </link>
    <time>2018-03-27T17:49:11Z</time>
    <extensions>
      <gpsies:property>one-way trip</gpsies:property>
      <gpsies:trackLengthMeter>76722.49327595695</gpsies:trackLengthMeter>
      <gpsies:totalAscentMeter>1574.0</gpsies:totalAscentMeter>
      <gpsies:totalDescentMeter>1632.0</gpsies:totalDescentMeter>
      <gpsies:minHeightMeter>104.0</gpsies:minHeightMeter>
      <gpsies:maxHeightMeter>580.0</gpsies:maxHeightMeter>
    </extensions>
  </metadata>
  <wpt lat="43.73818159" lon="11.34996056">
    <ele>281.00000</ele>
    <name>short gravel section (200 m)</name>
    <sym>attention</sym>
    <type>Attention</type>
  </wpt>
  <wpt lat="43.42210757" lon="11.12036347">
    <ele>211.00000</ele>
    <name>Colle di Val d'Elsa</name>
    <sym>sightseeing</sym>
    <type>Sightseeing</type>
  </wpt>
  <wpt lat="43.47135922" lon="11.27583503">
    <ele>567.00000</ele>
    <name>Steep descent!</name>
    <sym>attention</sym>
    <type>Attention</type>
  </wpt>
  <wpt lat="43.58250481" lon="11.31678700">
    <ele>237.00000</ele>
    <name>Greve</name>
    <sym>sightseeing</sym>
    <type>Sightseeing</type>
  </wpt>
  <wpt lat="43.45891573" lon="11.05349063">
    <ele>220.00000</ele>
    <name>Albergo Le Colline</name>
    <sym>hostel</sym>
    <type>Hostel</type>
  </wpt>
  <wpt lat="43.46799552" lon="11.04237556">
    <ele>336.00000</ele>
    <name>San Gimignano</name>
    <sym>sightseeing</sym>
    <type>Sightseeing</type>
  </wpt>
  <wpt lat="43.45871325" lon="11.24422788">
    <ele>307.00000</ele>
    <name>Steep descent!</name>
    <sym>attention</sym>
    <type>Attention</type>
  </wpt>
  <wpt lat="43.42340110" lon="11.12561523">
    <ele>146.00000</ele>
    <name>Rough surface</name>
    <sym>attention</sym>
    <type>Attention</type>
  </wpt>
  <wpt lat="43.42317513" lon="11.12328708">
    <ele>187.00000</ele>
    <name>Walk the bike</name>
    <sym>attention</sym>
    <type>Attention</type>
  </wpt>
  <trk>
    <name>GBIIT21 D3 T1</name>
    <link href="http://www.gpsies.com/map.do?fileId=fsufredzdfgvobtg">
      <type>trackOnWeb</type>
    </link>
    <link href="http://www.gpsies.com/charts/fs/map/fsufredzdfgvobtg_map.png">
      <type>elevationChartUrlMap</type>
    </link>
    <link href="http://www.gpsies.com/charts/fs/mapThumb/fsufredzdfgvobtg_mapThumb.png">
      <type>elevationChartUrlMapThumb</type>
    </link>
    <link href="http://www.gpsies.com/charts/fs/tab/fsufredzdfgvobtg_tab.png">
      <type>elevationChartUrlTab</type>
    </link>
    <trkseg>
      <trkpt lat="43.73861950" lon="11.34990150">
        <ele>275.00000</ele>
        <time>2010-01-01T00:00:00Z</time>
      </trkpt>
      <trkpt lat="43.73826680" lon="11.35004630">
        <ele>282.00000</ele>
        <time>2010-01-01T00:00:14Z</time>
      </trkpt>
      <trkpt lat="43.73780950" lon="11.34913440">
        <ele>274.00000</ele>
        <time>2010-01-01T00:00:46Z</time>
      </trkpt>
      <trkpt lat="43.73749160" lon="11.34909680">
        <ele>276.00000</ele>
        <time>2010-01-01T00:00:59Z</time>
      </trkpt>
      <trkpt lat="43.73729010" lon="11.34900560">
        <ele>276.00000</ele>
        <time>2010-01-01T00:01:08Z</time>
      </trkpt>
      <trkpt lat="43.73710020" lon="11.34873740">
        <ele>273.00000</ele>
        <time>2010-01-01T00:01:18Z</time>
      </trkpt>
      <trkpt lat="43.73697610" lon="11.34866770">
        <ele>272.00000</ele>
        <time>2010-01-01T00:01:24Z</time>
      </trkpt>
      <trkpt lat="43.73680950" lon="11.34873740">
        <ele>274.00000</ele>
        <time>2010-01-01T00:01:31Z</time>
      </trkpt>
      <trkpt lat="43.73655370" lon="11.34898420">
        <ele>278.00000</ele>
        <time>2010-01-01T00:01:43Z</time>
      </trkpt>
      <trkpt lat="43.73624750" lon="11.34905390">
        <ele>281.00000</ele>
        <time>2010-01-01T00:01:56Z</time>
      </trkpt>
      <trkpt lat="43.73586760" lon="11.34898420">
        <ele>283.00000</ele>
        <time>2010-01-01T00:02:11Z</time>
      </trkpt>
      <trkpt lat="43.73517770" lon="11.34900030">
        <ele>287.00000</ele>
        <time>2010-01-01T00:02:39Z</time>
      </trkpt>
      <trkpt lat="43.73470090" lon="11.34826540">
        <ele>282.00000</ele>
        <time>2010-01-01T00:03:07Z</time>
      </trkpt>
      <trkpt lat="43.73456920" lon="11.34790590">
        <ele>281.00000</ele>
        <time>2010-01-01T00:03:19Z</time>
      </trkpt>
      <trkpt lat="43.73443350" lon="11.34717100">
        <ele>275.00000</ele>
        <time>2010-01-01T00:03:41Z</time>
      </trkpt>
      <trkpt lat="43.73427460" lon="11.34681160">
        <ele>270.00000</ele>
        <time>2010-01-01T00:03:53Z</time>
      </trkpt>
      <trkpt lat="43.73389080" lon="11.34644150">
        <ele>263.00000</ele>
        <time>2010-01-01T00:04:12Z</time>
      </trkpt>
      <trkpt lat="43.73370090" lon="11.34604990">
        <ele>256.00000</ele>
        <time>2010-01-01T00:04:25Z</time>
      </trkpt>
      <trkpt lat="43.73320480" lon="11.34552410">
        <ele>244.00000</ele>
        <time>2010-01-01T00:04:50Z</time>
      </trkpt>
      <trkpt lat="43.73311950" lon="11.34525590">
        <ele>242.00000</ele>
        <time>2010-01-01T00:04:59Z</time>
      </trkpt>
      <trkpt lat="43.73255750" lon="11.34440830">
        <ele>231.00000</ele>
        <time>2010-01-01T00:05:32Z</time>
      </trkpt>
      <trkpt lat="43.73244890" lon="11.34381290">
        <ele>225.00000</ele>
        <time>2010-01-01T00:05:50Z</time>
      </trkpt>
      <trkpt lat="43.73216210" lon="11.34352860">
        <ele>221.00000</ele>
        <time>2010-01-01T00:06:04Z</time>
      </trkpt>
      <trkpt lat="43.73189070" lon="11.34352860">
        <ele>218.00000</ele>
        <time>2010-01-01T00:06:15Z</time>
      </trkpt>
      <trkpt lat="43.73183260" lon="11.34335690">
        <ele>218.00000</ele>
        <time>2010-01-01T00:06:20Z</time>
      </trkpt>
      <trkpt lat="43.73147990" lon="11.34398990">
        <ele>216.00000</ele>
        <time>2010-01-01T00:06:43Z</time>
      </trkpt>
      <trkpt lat="43.73071620" lon="11.34480530">
        <ele>225.00000</ele>
        <time>2010-01-01T00:07:22Z</time>
      </trkpt>
      <trkpt lat="43.73033640" lon="11.34550270">
        <ele>226.00000</ele>
        <time>2010-01-01T00:07:47Z</time>
      </trkpt>
      <trkpt lat="43.72997970" lon="11.34592650">
        <ele>226.00000</ele>
        <time>2010-01-01T00:08:06Z</time>
      </trkpt>
      <trkpt lat="43.72957660" lon="11.34621080">
        <ele>226.00000</ele>
        <time>2010-01-01T00:08:24Z</time>
      </trkpt>
      <trkpt lat="43.72936340" lon="11.34656480">
        <ele>225.00000</ele>
        <time>2010-01-01T00:08:38Z</time>
      </trkpt>
      <trkpt lat="43.72842140" lon="11.34500380">
        <ele>211.00000</ele>
        <time>2010-01-01T00:09:36Z</time>
      </trkpt>
      <trkpt lat="43.72832840" lon="11.34455320">
        <ele>208.00000</ele>
        <time>2010-01-01T00:09:50Z</time>
      </trkpt>
      <trkpt lat="43.72837490" lon="11.34404890">
        <ele>205.00000</ele>
        <time>2010-01-01T00:10:05Z</time>
      </trkpt>
      <trkpt lat="43.72834000" lon="11.34359830">
        <ele>203.00000</ele>
        <time>2010-01-01T00:10:18Z</time>
      </trkpt>
      <trkpt lat="43.72854160" lon="11.34272390">
        <ele>203.00000</ele>
        <time>2010-01-01T00:10:44Z</time>
      </trkpt>
      <trkpt lat="43.72875090" lon="11.34150620">
        <ele>195.00000</ele>
        <time>2010-01-01T00:11:21Z</time>
      </trkpt>
      <trkpt lat="43.72866560" lon="11.34121650">
        <ele>194.00000</ele>
        <time>2010-01-01T00:11:30Z</time>
      </trkpt>
      <trkpt lat="43.72806870" lon="11.34092680">
        <ele>198.00000</ele>
        <time>2010-01-01T00:11:55Z</time>
      </trkpt>
      <trkpt lat="43.72802600" lon="11.34071230">
        <ele>197.00000</ele>
        <time>2010-01-01T00:12:01Z</time>
      </trkpt>
      <trkpt lat="43.72808800" lon="11.33880250">
        <ele>188.00000</ele>
        <time>2010-01-01T00:12:57Z</time>
      </trkpt>
      <trkpt lat="43.72888270" lon="11.33586820">
        <ele>182.00000</ele>
        <time>2010-01-01T00:14:27Z</time>
      </trkpt>
      <trkpt lat="43.72891370" lon="11.33549270">
        <ele>181.00000</ele>
        <time>2010-01-01T00:14:38Z</time>
      </trkpt>
      <trkpt lat="43.72873150" lon="11.33321820">
        <ele>172.00000</ele>
        <time>2010-01-01T00:15:44Z</time>
      </trkpt>
      <trkpt lat="43.72875870" lon="11.33202190">
        <ele>166.00000</ele>
        <time>2010-01-01T00:16:19Z</time>
      </trkpt>
      <trkpt lat="43.72865010" lon="11.33164100">
        <ele>165.00000</ele>
        <time>2010-01-01T00:16:31Z</time>
      </trkpt>
      <trkpt lat="43.72856870" lon="11.33072370">
        <ele>163.00000</ele>
        <time>2010-01-01T00:16:58Z</time>
      </trkpt>
      <trkpt lat="43.72868500" lon="11.32969370">
        <ele>162.00000</ele>
        <time>2010-01-01T00:17:28Z</time>
      </trkpt>
      <trkpt lat="43.72892920" lon="11.32792350">
        <ele>155.00000</ele>
        <time>2010-01-01T00:18:20Z</time>
      </trkpt>
      <trkpt lat="43.72888270" lon="11.32698470">
        <ele>145.00000</ele>
        <time>2010-01-01T00:18:47Z</time>
      </trkpt>
      <trkpt lat="43.72875090" lon="11.32633030">
        <ele>142.00000</ele>
        <time>2010-01-01T00:19:07Z</time>
      </trkpt>
      <trkpt lat="43.72821210" lon="11.32515540">
        <ele>132.00000</ele>
        <time>2010-01-01T00:19:47Z</time>
      </trkpt>
      <trkpt lat="43.72696770" lon="11.32327250">
        <ele>118.00000</ele>
        <time>2010-01-01T00:21:01Z</time>
      </trkpt>
      <trkpt lat="43.72709180" lon="11.32251620">
        <ele>117.00000</ele>
        <time>2010-01-01T00:21:23Z</time>
      </trkpt>
      <trkpt lat="43.72783610" lon="11.32050990">
        <ele>114.00000</ele>
        <time>2010-01-01T00:22:29Z</time>
      </trkpt>
      <trkpt lat="43.72768490" lon="11.32050990">
        <ele>114.00000</ele>
        <time>2010-01-01T00:22:35Z</time>
      </trkpt>
      <trkpt lat="43.72659560" lon="11.32133060">
        <ele>112.00000</ele>
        <time>2010-01-01T00:23:24Z</time>
      </trkpt>
      <trkpt lat="43.72635130" lon="11.32205480">
        <ele>113.00000</ele>
        <time>2010-01-01T00:23:47Z</time>
      </trkpt>
      <trkpt lat="43.72565000" lon="11.32186000">
        <ele>116.00000</ele>
        <time>2010-01-01T00:24:16Z</time>
      </trkpt>
      <trkpt lat="43.72494000" lon="11.32162000">
        <ele>124.00000</ele>
        <time>2010-01-01T00:24:45Z</time>
      </trkpt>
      <trkpt lat="43.72378000" lon="11.32107000">
        <ele>139.00000</ele>
        <time>2010-01-01T00:25:34Z</time>
      </trkpt>
      <trkpt lat="43.72332000" lon="11.32103000">
        <ele>146.00000</ele>
        <time>2010-01-01T00:25:53Z</time>
      </trkpt>
      <trkpt lat="43.72271000" lon="11.32090000">
        <ele>147.00000</ele>
        <time>2010-01-01T00:26:17Z</time>
      </trkpt>
      <trkpt lat="43.72243000" lon="11.32090000">
        <ele>151.00000</ele>
        <time>2010-01-01T00:26:29Z</time>
      </trkpt>
      <trkpt lat="43.72166000" lon="11.32074000">
        <ele>154.00000</ele>
        <time>2010-01-01T00:27:00Z</time>
      </trkpt>
      <trkpt lat="43.72114000" lon="11.32069000">
        <ele>158.00000</ele>
        <time>2010-01-01T00:27:21Z</time>
      </trkpt>
      <trkpt lat="43.72083000" lon="11.32072000">
        <ele>160.00000</ele>
        <time>2010-01-01T00:27:33Z</time>
      </trkpt>
      <trkpt lat="43.72003000" lon="11.32106000">
        <ele>164.00000</ele>
        <time>2010-01-01T00:28:07Z</time>
      </trkpt>
      <trkpt lat="43.71967000" lon="11.32092000">
        <ele>168.00000</ele>
        <time>2010-01-01T00:28:22Z</time>
      </trkpt>
      <trkpt lat="43.71929000" lon="11.32047000">
        <ele>171.00000</ele>
        <time>2010-01-01T00:28:42Z</time>
      </trkpt>
      <trkpt lat="43.71827000" lon="11.31985000">
        <ele>169.00000</ele>
        <time>2010-01-01T00:29:26Z</time>
      </trkpt>
      <trkpt lat="43.71796000" lon="11.31956000">
        <ele>174.00000</ele>
        <time>2010-01-01T00:29:41Z</time>
      </trkpt>
      <trkpt lat="43.71736000" lon="11.31888000">
        <ele>187.00000</ele>
        <time>2010-01-01T00:30:12Z</time>
      </trkpt>
      <trkpt lat="43.71633000" lon="11.31820000">
        <ele>192.00000</ele>
        <time>2010-01-01T00:30:58Z</time>
      </trkpt>
      <trkpt lat="43.71570000" lon="11.31788000">
        <ele>192.00000</ele>
        <time>2010-01-01T00:31:25Z</time>
      </trkpt>
      <trkpt lat="43.71525000" lon="11.31775000">
        <ele>196.00000</ele>
        <time>2010-01-01T00:31:43Z</time>
      </trkpt>
      <trkpt lat="43.71449000" lon="11.31777000">
        <ele>196.00000</ele>
        <time>2010-01-01T00:32:14Z</time>
      </trkpt>
      <trkpt lat="43.71368000" lon="11.31702000">
        <ele>195.00000</ele>
        <time>2010-01-01T00:32:53Z</time>
      </trkpt>
      <trkpt lat="43.71335000" lon="11.31696000">
        <ele>193.00000</ele>
        <time>2010-01-01T00:33:06Z</time>
      </trkpt>
      <trkpt lat="43.71288000" lon="11.31720000">
        <ele>194.00000</ele>
        <time>2010-01-01T00:33:26Z</time>
      </trkpt>
      <trkpt lat="43.71159000" lon="11.31847000">
        <ele>192.00000</ele>
        <time>2010-01-01T00:34:29Z</time>
      </trkpt>
      <trkpt lat="43.71092830" lon="11.31861090">
        <ele>184.00000</ele>
        <time>2010-01-01T00:34:56Z</time>
      </trkpt>
      <trkpt lat="43.70979000" lon="11.31574000">
        <ele>185.00000</ele>
        <time>2010-01-01T00:36:31Z</time>
      </trkpt>
      <trkpt lat="43.70982000" lon="11.31359000">
        <ele>170.00000</ele>
        <time>2010-01-01T00:37:33Z</time>
      </trkpt>
      <trkpt lat="43.70976000" lon="11.31337000">
        <ele>169.00000</ele>
        <time>2010-01-01T00:37:40Z</time>
      </trkpt>
      <trkpt lat="43.70851000" lon="11.31095000">
        <ele>154.00000</ele>
        <time>2010-01-01T00:39:06Z</time>
      </trkpt>
      <trkpt lat="43.70827000" lon="11.31022000">
        <ele>151.00000</ele>
        <time>2010-01-01T00:39:29Z</time>
      </trkpt>
      <trkpt lat="43.70816000" lon="11.30979000">
        <ele>147.00000</ele>
        <time>2010-01-01T00:39:42Z</time>
      </trkpt>
      <trkpt lat="43.70793000" lon="11.30914000">
        <ele>144.00000</ele>
        <time>2010-01-01T00:40:03Z</time>
      </trkpt>
      <trkpt lat="43.70721000" lon="11.30776000">
        <ele>131.00000</ele>
        <time>2010-01-01T00:40:53Z</time>
      </trkpt>
      <trkpt lat="43.70691100" lon="11.30709880">
        <ele>126.00000</ele>
        <time>2010-01-01T00:41:15Z</time>
      </trkpt>
      <trkpt lat="43.70677000" lon="11.30708000">
        <ele>124.00000</ele>
        <time>2010-01-01T00:41:21Z</time>
      </trkpt>
      <trkpt lat="43.70669000" lon="11.30713000">
        <ele>124.00000</ele>
        <time>2010-01-01T00:41:24Z</time>
      </trkpt>
      <trkpt lat="43.70667000" lon="11.30725000">
        <ele>125.00000</ele>
        <time>2010-01-01T00:41:28Z</time>
      </trkpt>
      <trkpt lat="43.70668000" lon="11.30754000">
        <ele>126.00000</ele>
        <time>2010-01-01T00:41:36Z</time>
      </trkpt>
      <trkpt lat="43.70666000" lon="11.30769000">
        <ele>126.00000</ele>
        <time>2010-01-01T00:41:41Z</time>
      </trkpt>
      <trkpt lat="43.70660000" lon="11.30773000">
        <ele>125.00000</ele>
        <time>2010-01-01T00:41:43Z</time>
      </trkpt>
      <trkpt lat="43.70654000" lon="11.30771000">
        <ele>124.00000</ele>
        <time>2010-01-01T00:41:46Z</time>
      </trkpt>
      <trkpt lat="43.70646000" lon="11.30766000">
        <ele>122.00000</ele>
        <time>2010-01-01T00:41:49Z</time>
      </trkpt>
      <trkpt lat="43.70623000" lon="11.30717000">
        <ele>117.00000</ele>
        <time>2010-01-01T00:42:06Z</time>
      </trkpt>
      <trkpt lat="43.70619000" lon="11.30699000">
        <ele>116.00000</ele>
        <time>2010-01-01T00:42:12Z</time>
      </trkpt>
      <trkpt lat="43.70621000" lon="11.30676000">
        <ele>114.00000</ele>
        <time>2010-01-01T00:42:19Z</time>
      </trkpt>
      <trkpt lat="43.70646890" lon="11.30600450">
        <ele>110.00000</ele>
        <time>2010-01-01T00:42:43Z</time>
      </trkpt>
      <trkpt lat="43.70537000" lon="11.30703000">
        <ele>108.00000</ele>
        <time>2010-01-01T00:43:36Z</time>
      </trkpt>
      <trkpt lat="43.70459000" lon="11.30750000">
        <ele>105.00000</ele>
        <time>2010-01-01T00:44:10Z</time>
      </trkpt>
      <trkpt lat="43.70381000" lon="11.30743000">
        <ele>104.00000</ele>
        <time>2010-01-01T00:44:41Z</time>
      </trkpt>
      <trkpt lat="43.70356000" lon="11.30737000">
        <ele>104.00000</ele>
        <time>2010-01-01T00:44:51Z</time>
      </trkpt>
      <trkpt lat="43.70235000" lon="11.30731000">
        <ele>104.00000</ele>
        <time>2010-01-01T00:45:40Z</time>
      </trkpt>
      <trkpt lat="43.70207000" lon="11.30735000">
        <ele>104.00000</ele>
        <time>2010-01-01T00:45:51Z</time>
      </trkpt>
      <trkpt lat="43.70183000" lon="11.30752000">
        <ele>105.00000</ele>
        <time>2010-01-01T00:46:02Z</time>
      </trkpt>
      <trkpt lat="43.70149000" lon="11.30807000">
        <ele>105.00000</ele>
        <time>2010-01-01T00:46:23Z</time>
      </trkpt>
      <trkpt lat="43.70096000" lon="11.30867000">
        <ele>106.00000</ele>
        <time>2010-01-01T00:46:50Z</time>
      </trkpt>
      <trkpt lat="43.70047000" lon="11.30979000">
        <ele>110.00000</ele>
        <time>2010-01-01T00:47:28Z</time>
      </trkpt>
      <trkpt lat="43.69948000" lon="11.30979000">
        <ele>107.00000</ele>
        <time>2010-01-01T00:48:08Z</time>
      </trkpt>
      <trkpt lat="43.69932000" lon="11.30969000">
        <ele>107.00000</ele>
        <time>2010-01-01T00:48:15Z</time>
      </trkpt>
      <trkpt lat="43.69788000" lon="11.30833000">
        <ele>110.00000</ele>
        <time>2010-01-01T00:49:25Z</time>
      </trkpt>
      <trkpt lat="43.69716000" lon="11.30789000">
        <ele>111.00000</ele>
        <time>2010-01-01T00:49:56Z</time>
      </trkpt>
      <trkpt lat="43.69661000" lon="11.30792000">
        <ele>111.00000</ele>
        <time>2010-01-01T00:50:18Z</time>
      </trkpt>
      <trkpt lat="43.69563000" lon="11.30773000">
        <ele>113.00000</ele>
        <time>2010-01-01T00:50:58Z</time>
      </trkpt>
      <trkpt lat="43.69511000" lon="11.30739000">
        <ele>113.00000</ele>
        <time>2010-01-01T00:51:21Z</time>
      </trkpt>
      <trkpt lat="43.69471000" lon="11.30704000">
        <ele>111.00000</ele>
        <time>2010-01-01T00:51:40Z</time>
      </trkpt>
      <trkpt lat="43.69452000" lon="11.30697000">
        <ele>111.00000</ele>
        <time>2010-01-01T00:51:48Z</time>
      </trkpt>
      <trkpt lat="43.69431000" lon="11.30697000">
        <ele>111.00000</ele>
        <time>2010-01-01T00:51:56Z</time>
      </trkpt>
      <trkpt lat="43.69408000" lon="11.30704000">
        <ele>111.00000</ele>
        <time>2010-01-01T00:52:05Z</time>
      </trkpt>
      <trkpt lat="43.69276000" lon="11.30810000">
        <ele>115.00000</ele>
        <time>2010-01-01T00:53:06Z</time>
      </trkpt>
      <trkpt lat="43.69249000" lon="11.30825000">
        <ele>115.00000</ele>
        <time>2010-01-01T00:53:18Z</time>
      </trkpt>
      <trkpt lat="43.69186000" lon="11.30854000">
        <ele>114.00000</ele>
        <time>2010-01-01T00:53:45Z</time>
      </trkpt>
      <trkpt lat="43.69157000" lon="11.30890000">
        <ele>114.00000</ele>
        <time>2010-01-01T00:54:00Z</time>
      </trkpt>
      <trkpt lat="43.69134000" lon="11.30908000">
        <ele>115.00000</ele>
        <time>2010-01-01T00:54:11Z</time>
      </trkpt>
      <trkpt lat="43.69113000" lon="11.30918000">
        <ele>116.00000</ele>
        <time>2010-01-01T00:54:20Z</time>
      </trkpt>
      <trkpt lat="43.69088000" lon="11.30926000">
        <ele>118.00000</ele>
        <time>2010-01-01T00:54:30Z</time>
      </trkpt>
      <trkpt lat="43.69065000" lon="11.30943000">
        <ele>122.00000</ele>
        <time>2010-01-01T00:54:40Z</time>
      </trkpt>
      <trkpt lat="43.68992000" lon="11.31029000">
        <ele>137.00000</ele>
        <time>2010-01-01T00:55:19Z</time>
      </trkpt>
      <trkpt lat="43.68971000" lon="11.31036000">
        <ele>140.00000</ele>
        <time>2010-01-01T00:55:27Z</time>
      </trkpt>
      <trkpt lat="43.68803000" lon="11.31061000">
        <ele>154.00000</ele>
        <time>2010-01-01T00:56:35Z</time>
      </trkpt>
      <trkpt lat="43.68615000" lon="11.31126000">
        <ele>156.00000</ele>
        <time>2010-01-01T00:57:53Z</time>
      </trkpt>
      <trkpt lat="43.68569000" lon="11.31131000">
        <ele>156.00000</ele>
        <time>2010-01-01T00:58:11Z</time>
      </trkpt>
      <trkpt lat="43.68504000" lon="11.31132000">
        <ele>157.00000</ele>
        <time>2010-01-01T00:58:37Z</time>
      </trkpt>
      <trkpt lat="43.68201000" lon="11.31113000">
        <ele>173.00000</ele>
        <time>2010-01-01T01:00:39Z</time>
      </trkpt>
      <trkpt lat="43.68147000" lon="11.31121000">
        <ele>175.00000</ele>
        <time>2010-01-01T01:01:00Z</time>
      </trkpt>
      <trkpt lat="43.68098000" lon="11.31114000">
        <ele>179.00000</ele>
        <time>2010-01-01T01:01:20Z</time>
      </trkpt>
      <trkpt lat="43.67986070" lon="11.31058570">
        <ele>193.00000</ele>
        <time>2010-01-01T01:02:08Z</time>
      </trkpt>
      <trkpt lat="43.67846000" lon="11.31137000">
        <ele>194.00000</ele>
        <time>2010-01-01T01:03:08Z</time>
      </trkpt>
      <trkpt lat="43.67769000" lon="11.31175000">
        <ele>196.00000</ele>
        <time>2010-01-01T01:03:41Z</time>
      </trkpt>
      <trkpt lat="43.67677000" lon="11.31315000">
        <ele>195.00000</ele>
        <time>2010-01-01T01:04:36Z</time>
      </trkpt>
      <trkpt lat="43.67557000" lon="11.31419000">
        <ele>200.00000</ele>
        <time>2010-01-01T01:05:32Z</time>
      </trkpt>
      <trkpt lat="43.67469000" lon="11.31485000">
        <ele>202.00000</ele>
        <time>2010-01-01T01:06:12Z</time>
      </trkpt>
      <trkpt lat="43.67129000" lon="11.31812000">
        <ele>217.00000</ele>
        <time>2010-01-01T01:08:58Z</time>
      </trkpt>
      <trkpt lat="43.67090000" lon="11.31830000">
        <ele>214.00000</ele>
        <time>2010-01-01T01:09:15Z</time>
      </trkpt>
      <trkpt lat="43.67062000" lon="11.31828000">
        <ele>211.00000</ele>
        <time>2010-01-01T01:09:26Z</time>
      </trkpt>
      <trkpt lat="43.67023000" lon="11.31817000">
        <ele>208.00000</ele>
        <time>2010-01-01T01:09:42Z</time>
      </trkpt>
      <trkpt lat="43.66934000" lon="11.31782000">
        <ele>201.00000</ele>
        <time>2010-01-01T01:10:19Z</time>
      </trkpt>
      <trkpt lat="43.66927000" lon="11.31784000">
        <ele>200.00000</ele>
        <time>2010-01-01T01:10:22Z</time>
      </trkpt>
      <trkpt lat="43.66926000" lon="11.31792000">
        <ele>198.00000</ele>
        <time>2010-01-01T01:10:24Z</time>
      </trkpt>
      <trkpt lat="43.66945000" lon="11.31828000">
        <ele>196.00000</ele>
        <time>2010-01-01T01:10:37Z</time>
      </trkpt>
      <trkpt lat="43.66950000" lon="11.31843000">
        <ele>196.00000</ele>
        <time>2010-01-01T01:10:42Z</time>
      </trkpt>
      <trkpt lat="43.66948000" lon="11.31858000">
        <ele>194.00000</ele>
        <time>2010-01-01T01:10:46Z</time>
      </trkpt>
      <trkpt lat="43.66944000" lon="11.31866000">
        <ele>193.00000</ele>
        <time>2010-01-01T01:10:49Z</time>
      </trkpt>
      <trkpt lat="43.66855000" lon="11.31910000">
        <ele>181.00000</ele>
        <time>2010-01-01T01:11:27Z</time>
      </trkpt>
      <trkpt lat="43.66846000" lon="11.31927000">
        <ele>179.00000</ele>
        <time>2010-01-01T01:11:33Z</time>
      </trkpt>
      <trkpt lat="43.66847000" lon="11.31943000">
        <ele>178.00000</ele>
        <time>2010-01-01T01:11:38Z</time>
      </trkpt>
      <trkpt lat="43.66868000" lon="11.31982000">
        <ele>176.00000</ele>
        <time>2010-01-01T01:11:52Z</time>
      </trkpt>
      <trkpt lat="43.66869000" lon="11.31995000">
        <ele>175.00000</ele>
        <time>2010-01-01T01:11:55Z</time>
      </trkpt>
      <trkpt lat="43.66826000" lon="11.32020000">
        <ele>169.00000</ele>
        <time>2010-01-01T01:12:14Z</time>
      </trkpt>
      <trkpt lat="43.66814000" lon="11.32021000">
        <ele>167.00000</ele>
        <time>2010-01-01T01:12:19Z</time>
      </trkpt>
      <trkpt lat="43.66801000" lon="11.32014000">
        <ele>165.00000</ele>
        <time>2010-01-01T01:12:25Z</time>
      </trkpt>
      <trkpt lat="43.66775000" lon="11.31984000">
        <ele>162.00000</ele>
        <time>2010-01-01T01:12:38Z</time>
      </trkpt>
      <trkpt lat="43.66765000" lon="11.31980000">
        <ele>161.00000</ele>
        <time>2010-01-01T01:12:42Z</time>
      </trkpt>
      <trkpt lat="43.66760000" lon="11.31983000">
        <ele>160.00000</ele>
        <time>2010-01-01T01:12:44Z</time>
      </trkpt>
      <trkpt lat="43.66756000" lon="11.31996000">
        <ele>159.00000</ele>
        <time>2010-01-01T01:12:49Z</time>
      </trkpt>
      <trkpt lat="43.66747580" lon="11.32034890">
        <ele>159.00000</ele>
        <time>2010-01-01T01:13:00Z</time>
      </trkpt>
      <trkpt lat="43.66696000" lon="11.32070000">
        <ele>153.00000</ele>
        <time>2010-01-01T01:13:23Z</time>
      </trkpt>
      <trkpt lat="43.66687000" lon="11.32080000">
        <ele>152.00000</ele>
        <time>2010-01-01T01:13:28Z</time>
      </trkpt>
      <trkpt lat="43.66682000" lon="11.32170000">
        <ele>153.00000</ele>
        <time>2010-01-01T01:13:54Z</time>
      </trkpt>
      <trkpt lat="43.66614000" lon="11.31897000">
        <ele>148.00000</ele>
        <time>2010-01-01T01:15:18Z</time>
      </trkpt>
      <trkpt lat="43.66539000" lon="11.31571000">
        <ele>142.00000</ele>
        <time>2010-01-01T01:16:57Z</time>
      </trkpt>
      <trkpt lat="43.66500000" lon="11.31482000">
        <ele>141.00000</ele>
        <time>2010-01-01T01:17:27Z</time>
      </trkpt>
      <trkpt lat="43.66419000" lon="11.31456000">
        <ele>143.00000</ele>
        <time>2010-01-01T01:18:00Z</time>
      </trkpt>
      <trkpt lat="43.66386000" lon="11.31450000">
        <ele>144.00000</ele>
        <time>2010-01-01T01:18:13Z</time>
      </trkpt>
      <trkpt lat="43.66329000" lon="11.31482000">
        <ele>148.00000</ele>
        <time>2010-01-01T01:18:38Z</time>
      </trkpt>
      <trkpt lat="43.66295000" lon="11.31493000">
        <ele>150.00000</ele>
        <time>2010-01-01T01:18:52Z</time>
      </trkpt>
      <trkpt lat="43.66243000" lon="11.31469000">
        <ele>152.00000</ele>
        <time>2010-01-01T01:19:14Z</time>
      </trkpt>
      <trkpt lat="43.66185000" lon="11.31425000">
        <ele>154.00000</ele>
        <time>2010-01-01T01:19:40Z</time>
      </trkpt>
      <trkpt lat="43.66108000" lon="11.31392000">
        <ele>166.00000</ele>
        <time>2010-01-01T01:20:13Z</time>
      </trkpt>
      <trkpt lat="43.65996000" lon="11.31377000">
        <ele>167.00000</ele>
        <time>2010-01-01T01:20:58Z</time>
      </trkpt>
      <trkpt lat="43.65938000" lon="11.31338000">
        <ele>170.00000</ele>
        <time>2010-01-01T01:21:24Z</time>
      </trkpt>
      <trkpt lat="43.65900000" lon="11.31306000">
        <ele>172.00000</ele>
        <time>2010-01-01T01:21:41Z</time>
      </trkpt>
      <trkpt lat="43.65814000" lon="11.31186000">
        <ele>178.00000</ele>
        <time>2010-01-01T01:22:30Z</time>
      </trkpt>
      <trkpt lat="43.65787000" lon="11.31132000">
        <ele>181.00000</ele>
        <time>2010-01-01T01:22:49Z</time>
      </trkpt>
      <trkpt lat="43.65781000" lon="11.31072000">
        <ele>188.00000</ele>
        <time>2010-01-01T01:23:07Z</time>
      </trkpt>
      <trkpt lat="43.65772000" lon="11.31048000">
        <ele>190.00000</ele>
        <time>2010-01-01T01:23:15Z</time>
      </trkpt>
      <trkpt lat="43.65752000" lon="11.31035000">
        <ele>190.00000</ele>
        <time>2010-01-01T01:23:24Z</time>
      </trkpt>
      <trkpt lat="43.65699000" lon="11.31018000">
        <ele>190.00000</ele>
        <time>2010-01-01T01:23:45Z</time>
      </trkpt>
      <trkpt lat="43.65603000" lon="11.30933000">
        <ele>198.00000</ele>
        <time>2010-01-01T01:24:31Z</time>
      </trkpt>
      <trkpt lat="43.65539000" lon="11.30900000">
        <ele>201.00000</ele>
        <time>2010-01-01T01:24:58Z</time>
      </trkpt>
      <trkpt lat="43.65410000" lon="11.30845000">
        <ele>208.00000</ele>
        <time>2010-01-01T01:25:52Z</time>
      </trkpt>
      <trkpt lat="43.65335000" lon="11.30820000">
        <ele>215.00000</ele>
        <time>2010-01-01T01:26:23Z</time>
      </trkpt>
      <trkpt lat="43.65279000" lon="11.30811000">
        <ele>216.00000</ele>
        <time>2010-01-01T01:26:46Z</time>
      </trkpt>
      <trkpt lat="43.65256000" lon="11.30818000">
        <ele>216.00000</ele>
        <time>2010-01-01T01:26:55Z</time>
      </trkpt>
      <trkpt lat="43.65238000" lon="11.30814000">
        <ele>216.00000</ele>
        <time>2010-01-01T01:27:03Z</time>
      </trkpt>
      <trkpt lat="43.65211000" lon="11.30808000">
        <ele>215.00000</ele>
        <time>2010-01-01T01:27:14Z</time>
      </trkpt>
      <trkpt lat="43.65174000" lon="11.30878000">
        <ele>217.00000</ele>
        <time>2010-01-01T01:27:39Z</time>
      </trkpt>
      <trkpt lat="43.64947580" lon="11.31085390">
        <ele>228.00000</ele>
        <time>2010-01-01T01:29:27Z</time>
      </trkpt>
      <trkpt lat="43.64646360" lon="11.31164780">
        <ele>245.00000</ele>
        <time>2010-01-01T01:31:30Z</time>
      </trkpt>
      <trkpt lat="43.64540770" lon="11.31214140">
        <ele>247.00000</ele>
        <time>2010-01-01T01:32:15Z</time>
      </trkpt>
      <trkpt lat="43.64132390" lon="11.31278510">
        <ele>269.00000</ele>
        <time>2010-01-01T01:34:59Z</time>
      </trkpt>
      <trkpt lat="43.64039220" lon="11.31332150">
        <ele>276.00000</ele>
        <time>2010-01-01T01:35:40Z</time>
      </trkpt>
      <trkpt lat="43.63925860" lon="11.31345030">
        <ele>280.00000</ele>
        <time>2010-01-01T01:36:25Z</time>
      </trkpt>
      <trkpt lat="43.63817160" lon="11.31392240">
        <ele>282.00000</ele>
        <time>2010-01-01T01:37:11Z</time>
      </trkpt>
      <trkpt lat="43.63706900" lon="11.31409400">
        <ele>290.00000</ele>
        <time>2010-01-01T01:37:55Z</time>
      </trkpt>
      <trkpt lat="43.63624590" lon="11.31360050">
        <ele>299.00000</ele>
        <time>2010-01-01T01:38:31Z</time>
      </trkpt>
      <trkpt lat="43.63529860" lon="11.31345030">
        <ele>304.00000</ele>
        <time>2010-01-01T01:39:09Z</time>
      </trkpt>
      <trkpt lat="43.63425810" lon="11.31409400">
        <ele>304.00000</ele>
        <time>2010-01-01T01:39:55Z</time>
      </trkpt>
      <trkpt lat="43.63362140" lon="11.31377220">
        <ele>304.00000</ele>
        <time>2010-01-01T01:40:22Z</time>
      </trkpt>
      <trkpt lat="43.63286040" lon="11.31387940">
        <ele>313.00000</ele>
        <time>2010-01-01T01:40:53Z</time>
      </trkpt>
      <trkpt lat="43.63213040" lon="11.31334300">
        <ele>311.00000</ele>
        <time>2010-01-01T01:41:26Z</time>
      </trkpt>
      <trkpt lat="43.63138490" lon="11.31306400">
        <ele>318.00000</ele>
        <time>2010-01-01T01:41:57Z</time>
      </trkpt>
      <trkpt lat="43.63096560" lon="11.31259200">
        <ele>321.00000</ele>
        <time>2010-01-01T01:42:18Z</time>
      </trkpt>
      <trkpt lat="43.62983180" lon="11.31207700">
        <ele>331.00000</ele>
        <time>2010-01-01T01:43:06Z</time>
      </trkpt>
      <trkpt lat="43.62931930" lon="11.31160490">
        <ele>338.00000</ele>
        <time>2010-01-01T01:43:31Z</time>
      </trkpt>
      <trkpt lat="43.62823210" lon="11.31141180">
        <ele>343.00000</ele>
        <time>2010-01-01T01:44:15Z</time>
      </trkpt>
      <trkpt lat="43.62764190" lon="11.31091830">
        <ele>334.00000</ele>
        <time>2010-01-01T01:44:42Z</time>
      </trkpt>
      <trkpt lat="43.62714490" lon="11.31001710">
        <ele>326.00000</ele>
        <time>2010-01-01T01:45:15Z</time>
      </trkpt>
      <trkpt lat="43.62378980" lon="11.30868670">
        <ele>295.00000</ele>
        <time>2010-01-01T01:47:35Z</time>
      </trkpt>
      <trkpt lat="43.62289670" lon="11.30772110">
        <ele>286.00000</ele>
        <time>2010-01-01T01:48:20Z</time>
      </trkpt>
      <trkpt lat="43.62229870" lon="11.30632630">
        <ele>291.00000</ele>
        <time>2010-01-01T01:49:07Z</time>
      </trkpt>
      <trkpt lat="43.62184040" lon="11.30478140">
        <ele>291.00000</ele>
        <time>2010-01-01T01:49:56Z</time>
      </trkpt>
      <trkpt lat="43.62004630" lon="11.30315060">
        <ele>275.00000</ele>
        <time>2010-01-01T01:51:22Z</time>
      </trkpt>
      <trkpt lat="43.61901330" lon="11.30261420">
        <ele>268.00000</ele>
        <time>2010-01-01T01:52:06Z</time>
      </trkpt>
      <trkpt lat="43.61861720" lon="11.30213140">
        <ele>267.00000</ele>
        <time>2010-01-01T01:52:27Z</time>
      </trkpt>
      <trkpt lat="43.61785600" lon="11.30096190">
        <ele>268.00000</ele>
        <time>2010-01-01T01:53:12Z</time>
      </trkpt>
      <trkpt lat="43.61686180" lon="11.29993200">
        <ele>266.00000</ele>
        <time>2010-01-01T01:54:02Z</time>
      </trkpt>
      <trkpt lat="43.61404990" lon="11.29868740">
        <ele>250.00000</ele>
        <time>2010-01-01T01:56:00Z</time>
      </trkpt>
      <trkpt lat="43.61344400" lon="11.29770040">
        <ele>242.00000</ele>
        <time>2010-01-01T01:56:38Z</time>
      </trkpt>
      <trkpt lat="43.61308670" lon="11.29795780">
        <ele>246.00000</ele>
        <time>2010-01-01T01:56:54Z</time>
      </trkpt>
      <trkpt lat="43.61307900" lon="11.29845140">
        <ele>246.00000</ele>
        <time>2010-01-01T01:57:08Z</time>
      </trkpt>
      <trkpt lat="43.61359940" lon="11.29943840">
        <ele>241.00000</ele>
        <time>2010-01-01T01:57:44Z</time>
      </trkpt>
      <trkpt lat="43.61432960" lon="11.29999630">
        <ele>240.00000</ele>
        <time>2010-01-01T01:58:17Z</time>
      </trkpt>
      <trkpt lat="43.61422080" lon="11.30031820">
        <ele>235.00000</ele>
        <time>2010-01-01T01:58:27Z</time>
      </trkpt>
      <trkpt lat="43.61207690" lon="11.29922380">
        <ele>226.00000</ele>
        <time>2010-01-01T01:59:59Z</time>
      </trkpt>
      <trkpt lat="43.61137000" lon="11.29959940">
        <ele>219.00000</ele>
        <time>2010-01-01T02:00:29Z</time>
      </trkpt>
      <trkpt lat="43.61094280" lon="11.29937410">
        <ele>220.00000</ele>
        <time>2010-01-01T02:00:48Z</time>
      </trkpt>
      <trkpt lat="43.60977750" lon="11.29995340">
        <ele>211.00000</ele>
        <time>2010-01-01T02:01:37Z</time>
      </trkpt>
      <trkpt lat="43.60870550" lon="11.29967450">
        <ele>204.00000</ele>
        <time>2010-01-01T02:02:21Z</time>
      </trkpt>
      <trkpt lat="43.60803740" lon="11.30112290">
        <ele>206.00000</ele>
        <time>2010-01-01T02:03:11Z</time>
      </trkpt>
      <trkpt lat="43.60786650" lon="11.30239960">
        <ele>208.00000</ele>
        <time>2010-01-01T02:03:48Z</time>
      </trkpt>
      <trkpt lat="43.60681000" lon="11.30445950">
        <ele>213.00000</ele>
        <time>2010-01-01T02:05:01Z</time>
      </trkpt>
      <trkpt lat="43.60423070" lon="11.30673400">
        <ele>209.00000</ele>
        <time>2010-01-01T02:07:04Z</time>
      </trkpt>
      <trkpt lat="43.60413750" lon="11.30850430">
        <ele>216.00000</ele>
        <time>2010-01-01T02:07:55Z</time>
      </trkpt>
      <trkpt lat="43.60374130" lon="11.30922310">
        <ele>217.00000</ele>
        <time>2010-01-01T02:08:22Z</time>
      </trkpt>
      <trkpt lat="43.60095210" lon="11.31083250">
        <ele>215.00000</ele>
        <time>2010-01-01T02:10:23Z</time>
      </trkpt>
      <trkpt lat="43.59798420" lon="11.31613250">
        <ele>219.00000</ele>
        <time>2010-01-01T02:13:37Z</time>
      </trkpt>
      <trkpt lat="43.59650790" lon="11.31696930">
        <ele>220.00000</ele>
        <time>2010-01-01T02:14:41Z</time>
      </trkpt>
      <trkpt lat="43.59548220" lon="11.31664750">
        <ele>219.00000</ele>
        <time>2010-01-01T02:15:23Z</time>
      </trkpt>
      <trkpt lat="43.59453430" lon="11.31671190">
        <ele>224.00000</ele>
        <time>2010-01-01T02:16:01Z</time>
      </trkpt>
      <trkpt lat="43.59320560" lon="11.31576770">
        <ele>223.00000</ele>
        <time>2010-01-01T02:17:01Z</time>
      </trkpt>
      <trkpt lat="43.59244410" lon="11.31545660">
        <ele>224.00000</ele>
        <time>2010-01-01T02:17:32Z</time>
      </trkpt>
      <trkpt lat="43.59130180" lon="11.31464120">
        <ele>223.00000</ele>
        <time>2010-01-01T02:18:24Z</time>
      </trkpt>
      <trkpt lat="43.59060240" lon="11.31438370">
        <ele>223.00000</ele>
        <time>2010-01-01T02:18:53Z</time>
      </trkpt>
      <trkpt lat="43.58496060" lon="11.31540290">
        <ele>229.00000</ele>
        <time>2010-01-01T02:22:41Z</time>
      </trkpt>
      <trkpt lat="43.58418340" lon="11.31574630">
        <ele>231.00000</ele>
        <time>2010-01-01T02:23:13Z</time>
      </trkpt>
      <trkpt lat="43.58337520" lon="11.31737700">
        <ele>234.00000</ele>
        <time>2010-01-01T02:24:11Z</time>
      </trkpt>
      <trkpt lat="43.58216000" lon="11.31800000">
        <ele>235.00000</ele>
        <time>2010-01-01T02:25:02Z</time>
      </trkpt>
      <trkpt lat="43.58200000" lon="11.31798000">
        <ele>236.00000</ele>
        <time>2010-01-01T02:25:09Z</time>
      </trkpt>
      <trkpt lat="43.58162000" lon="11.31785000">
        <ele>239.00000</ele>
        <time>2010-01-01T02:25:25Z</time>
      </trkpt>
      <trkpt lat="43.58106000" lon="11.31789000">
        <ele>236.00000</ele>
        <time>2010-01-01T02:25:47Z</time>
      </trkpt>
      <trkpt lat="43.58099000" lon="11.31788000">
        <ele>236.00000</ele>
        <time>2010-01-01T02:25:50Z</time>
      </trkpt>
      <trkpt lat="43.58079000" lon="11.31775000">
        <ele>235.00000</ele>
        <time>2010-01-01T02:25:59Z</time>
      </trkpt>
      <trkpt lat="43.58037000" lon="11.31740000">
        <ele>237.00000</ele>
        <time>2010-01-01T02:26:18Z</time>
      </trkpt>
      <trkpt lat="43.58003000" lon="11.31704000">
        <ele>240.00000</ele>
        <time>2010-01-01T02:26:35Z</time>
      </trkpt>
      <trkpt lat="43.57994000" lon="11.31699000">
        <ele>240.00000</ele>
        <time>2010-01-01T02:26:39Z</time>
      </trkpt>
      <trkpt lat="43.57904000" lon="11.31668000">
        <ele>238.00000</ele>
        <time>2010-01-01T02:27:16Z</time>
      </trkpt>
      <trkpt lat="43.57876000" lon="11.31656000">
        <ele>239.00000</ele>
        <time>2010-01-01T02:27:28Z</time>
      </trkpt>
      <trkpt lat="43.57854000" lon="11.31653000">
        <ele>240.00000</ele>
        <time>2010-01-01T02:27:37Z</time>
      </trkpt>
      <trkpt lat="43.57822000" lon="11.31657000">
        <ele>242.00000</ele>
        <time>2010-01-01T02:27:50Z</time>
      </trkpt>
      <trkpt lat="43.57709000" lon="11.31694000">
        <ele>243.00000</ele>
        <time>2010-01-01T02:28:36Z</time>
      </trkpt>
      <trkpt lat="43.57569000" lon="11.31769000">
        <ele>244.00000</ele>
        <time>2010-01-01T02:29:36Z</time>
      </trkpt>
      <trkpt lat="43.57284000" lon="11.31905000">
        <ele>257.00000</ele>
        <time>2010-01-01T02:31:37Z</time>
      </trkpt>
      <trkpt lat="43.57115000" lon="11.32000000">
        <ele>254.00000</ele>
        <time>2010-01-01T02:32:50Z</time>
      </trkpt>
      <trkpt lat="43.56989000" lon="11.32047000">
        <ele>253.00000</ele>
        <time>2010-01-01T02:33:42Z</time>
      </trkpt>
      <trkpt lat="43.56955000" lon="11.32057000">
        <ele>256.00000</ele>
        <time>2010-01-01T02:33:56Z</time>
      </trkpt>
      <trkpt lat="43.56927000" lon="11.32074000">
        <ele>263.00000</ele>
        <time>2010-01-01T02:34:09Z</time>
      </trkpt>
      <trkpt lat="43.56917000" lon="11.32104000">
        <ele>267.00000</ele>
        <time>2010-01-01T02:34:18Z</time>
      </trkpt>
      <trkpt lat="43.56912000" lon="11.32152000">
        <ele>266.00000</ele>
        <time>2010-01-01T02:34:32Z</time>
      </trkpt>
      <trkpt lat="43.56906000" lon="11.32181000">
        <ele>266.00000</ele>
        <time>2010-01-01T02:34:41Z</time>
      </trkpt>
      <trkpt lat="43.56879000" lon="11.32229000">
        <ele>271.00000</ele>
        <time>2010-01-01T02:34:59Z</time>
      </trkpt>
      <trkpt lat="43.56859000" lon="11.32252000">
        <ele>273.00000</ele>
        <time>2010-01-01T02:35:09Z</time>
      </trkpt>
      <trkpt lat="43.56839000" lon="11.32261000">
        <ele>275.00000</ele>
        <time>2010-01-01T02:35:18Z</time>
      </trkpt>
      <trkpt lat="43.56764000" lon="11.32276000">
        <ele>278.00000</ele>
        <time>2010-01-01T02:35:48Z</time>
      </trkpt>
      <trkpt lat="43.56741000" lon="11.32277000">
        <ele>277.00000</ele>
        <time>2010-01-01T02:35:57Z</time>
      </trkpt>
      <trkpt lat="43.56719000" lon="11.32268000">
        <ele>279.00000</ele>
        <time>2010-01-01T02:36:06Z</time>
      </trkpt>
      <trkpt lat="43.56675000" lon="11.32244000">
        <ele>283.00000</ele>
        <time>2010-01-01T02:36:25Z</time>
      </trkpt>
      <trkpt lat="43.56627000" lon="11.32235000">
        <ele>284.00000</ele>
        <time>2010-01-01T02:36:45Z</time>
      </trkpt>
      <trkpt lat="43.56557000" lon="11.32252000">
        <ele>289.00000</ele>
        <time>2010-01-01T02:37:13Z</time>
      </trkpt>
      <trkpt lat="43.56509000" lon="11.32258000">
        <ele>292.00000</ele>
        <time>2010-01-01T02:37:32Z</time>
      </trkpt>
      <trkpt lat="43.56452980" lon="11.32305260">
        <ele>295.00000</ele>
        <time>2010-01-01T02:37:59Z</time>
      </trkpt>
      <trkpt lat="43.56376410" lon="11.32321890">
        <ele>304.00000</ele>
        <time>2010-01-01T02:38:30Z</time>
      </trkpt>
      <trkpt lat="43.56297500" lon="11.32376610">
        <ele>304.00000</ele>
        <time>2010-01-01T02:39:05Z</time>
      </trkpt>
      <trkpt lat="43.56253190" lon="11.32383580">
        <ele>309.00000</ele>
        <time>2010-01-01T02:39:23Z</time>
      </trkpt>
      <trkpt lat="43.56234920" lon="11.32390020">
        <ele>310.00000</ele>
        <time>2010-01-01T02:39:30Z</time>
      </trkpt>
      <trkpt lat="43.56197210" lon="11.32417380">
        <ele>311.00000</ele>
        <time>2010-01-01T02:39:47Z</time>
      </trkpt>
      <trkpt lat="43.56141230" lon="11.32436150">
        <ele>318.00000</ele>
        <time>2010-01-01T02:40:10Z</time>
      </trkpt>
      <trkpt lat="43.56092640" lon="11.32434010">
        <ele>320.00000</ele>
        <time>2010-01-01T02:40:30Z</time>
      </trkpt>
      <trkpt lat="43.56045220" lon="11.32413620">
        <ele>320.00000</ele>
        <time>2010-01-01T02:40:50Z</time>
      </trkpt>
      <trkpt lat="43.55955420" lon="11.32327250">
        <ele>323.00000</ele>
        <time>2010-01-01T02:41:34Z</time>
      </trkpt>
      <trkpt lat="43.55934820" lon="11.32276830">
        <ele>329.00000</ele>
        <time>2010-01-01T02:41:50Z</time>
      </trkpt>
      <trkpt lat="43.55919660" lon="11.32249470">
        <ele>333.00000</ele>
        <time>2010-01-01T02:42:00Z</time>
      </trkpt>
      <trkpt lat="43.55896720" lon="11.32241420">
        <ele>335.00000</ele>
        <time>2010-01-01T02:42:10Z</time>
      </trkpt>
      <trkpt lat="43.55735000" lon="11.32289170">
        <ele>343.00000</ele>
        <time>2010-01-01T02:43:16Z</time>
      </trkpt>
      <trkpt lat="43.55706620" lon="11.32325110">
        <ele>341.00000</ele>
        <time>2010-01-01T02:43:32Z</time>
      </trkpt>
      <trkpt lat="43.55559290" lon="11.32454930">
        <ele>351.00000</ele>
        <time>2010-01-01T02:44:42Z</time>
      </trkpt>
      <trkpt lat="43.55523910" lon="11.32465660">
        <ele>355.00000</ele>
        <time>2010-01-01T02:44:56Z</time>
      </trkpt>
      <trkpt lat="43.55490860" lon="11.32454930">
        <ele>360.00000</ele>
        <time>2010-01-01T02:45:10Z</time>
      </trkpt>
      <trkpt lat="43.55455480" lon="11.32453320">
        <ele>366.00000</ele>
        <time>2010-01-01T02:45:24Z</time>
      </trkpt>
      <trkpt lat="43.55422440" lon="11.32478530">
        <ele>368.00000</ele>
        <time>2010-01-01T02:45:39Z</time>
      </trkpt>
      <trkpt lat="43.55386670" lon="11.32525200">
        <ele>366.00000</ele>
        <time>2010-01-01T02:45:59Z</time>
      </trkpt>
      <trkpt lat="43.55364510" lon="11.32535930">
        <ele>365.00000</ele>
        <time>2010-01-01T02:46:08Z</time>
      </trkpt>
      <trkpt lat="43.55347790" lon="11.32532710">
        <ele>365.00000</ele>
        <time>2010-01-01T02:46:15Z</time>
      </trkpt>
      <trkpt lat="43.55336130" lon="11.32515540">
        <ele>367.00000</ele>
        <time>2010-01-01T02:46:22Z</time>
      </trkpt>
      <trkpt lat="43.55323300" lon="11.32457070">
        <ele>373.00000</ele>
        <time>2010-01-01T02:46:39Z</time>
      </trkpt>
      <trkpt lat="43.55309690" lon="11.32431860">
        <ele>375.00000</ele>
        <time>2010-01-01T02:46:48Z</time>
      </trkpt>
      <trkpt lat="43.55280540" lon="11.32416840">
        <ele>376.00000</ele>
        <time>2010-01-01T02:47:01Z</time>
      </trkpt>
      <trkpt lat="43.55187620" lon="11.32420060">
        <ele>379.00000</ele>
        <time>2010-01-01T02:47:38Z</time>
      </trkpt>
      <trkpt lat="43.55161570" lon="11.32415770">
        <ele>379.00000</ele>
        <time>2010-01-01T02:47:49Z</time>
      </trkpt>
      <trkpt lat="43.55079920" lon="11.32380900">
        <ele>384.00000</ele>
        <time>2010-01-01T02:48:23Z</time>
      </trkpt>
      <trkpt lat="43.55061260" lon="11.32366950">
        <ele>385.00000</ele>
        <time>2010-01-01T02:48:31Z</time>
      </trkpt>
      <trkpt lat="43.55010720" lon="11.32305260">
        <ele>388.00000</ele>
        <time>2010-01-01T02:48:58Z</time>
      </trkpt>
      <trkpt lat="43.54990890" lon="11.32296140">
        <ele>387.00000</ele>
        <time>2010-01-01T02:49:07Z</time>
      </trkpt>
      <trkpt lat="43.54963670" lon="11.32290240">
        <ele>387.00000</ele>
        <time>2010-01-01T02:49:18Z</time>
      </trkpt>
      <trkpt lat="43.54812040" lon="11.32325110">
        <ele>393.00000</ele>
        <time>2010-01-01T02:50:19Z</time>
      </trkpt>
      <trkpt lat="43.54639790" lon="11.32375000">
        <ele>400.00000</ele>
        <time>2010-01-01T02:51:30Z</time>
      </trkpt>
      <trkpt lat="43.54624240" lon="11.32396990">
        <ele>399.00000</ele>
        <time>2010-01-01T02:51:39Z</time>
      </trkpt>
      <trkpt lat="43.54556970" lon="11.32611030">
        <ele>409.00000</ele>
        <time>2010-01-01T02:52:46Z</time>
      </trkpt>
      <trkpt lat="43.54504870" lon="11.32698470">
        <ele>414.00000</ele>
        <time>2010-01-01T02:53:19Z</time>
      </trkpt>
      <trkpt lat="43.54484260" lon="11.32718320">
        <ele>416.00000</ele>
        <time>2010-01-01T02:53:29Z</time>
      </trkpt>
      <trkpt lat="43.54461710" lon="11.32715640">
        <ele>417.00000</ele>
        <time>2010-01-01T02:53:38Z</time>
      </trkpt>
      <trkpt lat="43.54443040" lon="11.32696860">
        <ele>418.00000</ele>
        <time>2010-01-01T02:53:48Z</time>
      </trkpt>
      <trkpt lat="43.54420100" lon="11.32568650">
        <ele>419.00000</ele>
        <time>2010-01-01T02:54:26Z</time>
      </trkpt>
      <trkpt lat="43.54415050" lon="11.32474240">
        <ele>425.00000</ele>
        <time>2010-01-01T02:54:53Z</time>
      </trkpt>
      <trkpt lat="43.54424380" lon="11.32447950">
        <ele>425.00000</ele>
        <time>2010-01-01T02:55:02Z</time>
      </trkpt>
      <trkpt lat="43.54453150" lon="11.32402890">
        <ele>424.00000</ele>
        <time>2010-01-01T02:55:19Z</time>
      </trkpt>
      <trkpt lat="43.54459380" lon="11.32371780">
        <ele>425.00000</ele>
        <time>2010-01-01T02:55:29Z</time>
      </trkpt>
      <trkpt lat="43.54455880" lon="11.32335300">
        <ele>427.00000</ele>
        <time>2010-01-01T02:55:39Z</time>
      </trkpt>
      <trkpt lat="43.54408440" lon="11.32203870">
        <ele>437.00000</ele>
        <time>2010-01-01T02:56:22Z</time>
      </trkpt>
      <trkpt lat="43.54404160" lon="11.32173830">
        <ele>439.00000</ele>
        <time>2010-01-01T02:56:31Z</time>
      </trkpt>
      <trkpt lat="43.54410770" lon="11.32143250">
        <ele>441.00000</ele>
        <time>2010-01-01T02:56:40Z</time>
      </trkpt>
      <trkpt lat="43.54432930" lon="11.32127160">
        <ele>444.00000</ele>
        <time>2010-01-01T02:56:50Z</time>
      </trkpt>
      <trkpt lat="43.54654960" lon="11.32126090">
        <ele>447.00000</ele>
        <time>2010-01-01T02:58:19Z</time>
      </trkpt>
      <trkpt lat="43.54685280" lon="11.32105170">
        <ele>453.00000</ele>
        <time>2010-01-01T02:58:32Z</time>
      </trkpt>
      <trkpt lat="43.54712110" lon="11.32094970">
        <ele>454.00000</ele>
        <time>2010-01-01T02:58:44Z</time>
      </trkpt>
      <trkpt lat="43.54737770" lon="11.32091760">
        <ele>451.00000</ele>
        <time>2010-01-01T02:58:54Z</time>
      </trkpt>
      <trkpt lat="43.54754490" lon="11.32076740">
        <ele>451.00000</ele>
        <time>2010-01-01T02:59:02Z</time>
      </trkpt>
      <trkpt lat="43.54761000" lon="11.32040000">
        <ele>454.00000</ele>
        <time>2010-01-01T02:59:13Z</time>
      </trkpt>
      <trkpt lat="43.54757000" lon="11.32023000">
        <ele>456.00000</ele>
        <time>2010-01-01T02:59:18Z</time>
      </trkpt>
      <trkpt lat="43.54745000" lon="11.32004000">
        <ele>457.00000</ele>
        <time>2010-01-01T02:59:25Z</time>
      </trkpt>
      <trkpt lat="43.54694000" lon="11.31959000">
        <ele>463.00000</ele>
        <time>2010-01-01T02:59:50Z</time>
      </trkpt>
      <trkpt lat="43.54670000" lon="11.31935000">
        <ele>465.00000</ele>
        <time>2010-01-01T03:00:01Z</time>
      </trkpt>
      <trkpt lat="43.54660000" lon="11.31917000">
        <ele>465.00000</ele>
        <time>2010-01-01T03:00:08Z</time>
      </trkpt>
      <trkpt lat="43.54651000" lon="11.31896000">
        <ele>465.00000</ele>
        <time>2010-01-01T03:00:15Z</time>
      </trkpt>
      <trkpt lat="43.54648000" lon="11.31873000">
        <ele>465.00000</ele>
        <time>2010-01-01T03:00:22Z</time>
      </trkpt>
      <trkpt lat="43.54649000" lon="11.31824000">
        <ele>467.00000</ele>
        <time>2010-01-01T03:00:36Z</time>
      </trkpt>
      <trkpt lat="43.54638000" lon="11.31792000">
        <ele>468.00000</ele>
        <time>2010-01-01T03:00:46Z</time>
      </trkpt>
      <trkpt lat="43.54613000" lon="11.31778000">
        <ele>471.00000</ele>
        <time>2010-01-01T03:00:57Z</time>
      </trkpt>
      <trkpt lat="43.54556000" lon="11.31767000">
        <ele>476.00000</ele>
        <time>2010-01-01T03:01:20Z</time>
      </trkpt>
      <trkpt lat="43.54536000" lon="11.31756000">
        <ele>478.00000</ele>
        <time>2010-01-01T03:01:29Z</time>
      </trkpt>
      <trkpt lat="43.54521000" lon="11.31738000">
        <ele>479.00000</ele>
        <time>2010-01-01T03:01:37Z</time>
      </trkpt>
      <trkpt lat="43.54512000" lon="11.31716000">
        <ele>478.00000</ele>
        <time>2010-01-01T03:01:44Z</time>
      </trkpt>
      <trkpt lat="43.54509000" lon="11.31687000">
        <ele>477.00000</ele>
        <time>2010-01-01T03:01:53Z</time>
      </trkpt>
      <trkpt lat="43.54509000" lon="11.31628000">
        <ele>476.00000</ele>
        <time>2010-01-01T03:02:10Z</time>
      </trkpt>
      <trkpt lat="43.54506000" lon="11.31618000">
        <ele>476.00000</ele>
        <time>2010-01-01T03:02:13Z</time>
      </trkpt>
      <trkpt lat="43.54485000" lon="11.31604000">
        <ele>477.00000</ele>
        <time>2010-01-01T03:02:22Z</time>
      </trkpt>
      <trkpt lat="43.54284000" lon="11.31659000">
        <ele>475.00000</ele>
        <time>2010-01-01T03:03:44Z</time>
      </trkpt>
      <trkpt lat="43.54270000" lon="11.31669000">
        <ele>474.00000</ele>
        <time>2010-01-01T03:03:51Z</time>
      </trkpt>
      <trkpt lat="43.54225000" lon="11.31713000">
        <ele>472.00000</ele>
        <time>2010-01-01T03:04:13Z</time>
      </trkpt>
      <trkpt lat="43.54208000" lon="11.31718000">
        <ele>472.00000</ele>
        <time>2010-01-01T03:04:20Z</time>
      </trkpt>
      <trkpt lat="43.54174000" lon="11.31715000">
        <ele>467.00000</ele>
        <time>2010-01-01T03:04:33Z</time>
      </trkpt>
      <trkpt lat="43.54090000" lon="11.31689000">
        <ele>459.00000</ele>
        <time>2010-01-01T03:05:08Z</time>
      </trkpt>
      <trkpt lat="43.54073000" lon="11.31690000">
        <ele>458.00000</ele>
        <time>2010-01-01T03:05:15Z</time>
      </trkpt>
      <trkpt lat="43.54055000" lon="11.31698000">
        <ele>458.00000</ele>
        <time>2010-01-01T03:05:22Z</time>
      </trkpt>
      <trkpt lat="43.54009000" lon="11.31725000">
        <ele>457.00000</ele>
        <time>2010-01-01T03:05:42Z</time>
      </trkpt>
      <trkpt lat="43.53985000" lon="11.31735000">
        <ele>457.00000</ele>
        <time>2010-01-01T03:05:52Z</time>
      </trkpt>
      <trkpt lat="43.53974000" lon="11.31735000">
        <ele>457.00000</ele>
        <time>2010-01-01T03:05:57Z</time>
      </trkpt>
      <trkpt lat="43.53773000" lon="11.31653000">
        <ele>446.00000</ele>
        <time>2010-01-01T03:07:20Z</time>
      </trkpt>
      <trkpt lat="43.53747000" lon="11.31628000">
        <ele>445.00000</ele>
        <time>2010-01-01T03:07:33Z</time>
      </trkpt>
      <trkpt lat="43.53728000" lon="11.31595000">
        <ele>443.00000</ele>
        <time>2010-01-01T03:07:45Z</time>
      </trkpt>
      <trkpt lat="43.53709000" lon="11.31555000">
        <ele>439.00000</ele>
        <time>2010-01-01T03:07:59Z</time>
      </trkpt>
      <trkpt lat="43.53655000" lon="11.31484000">
        <ele>439.00000</ele>
        <time>2010-01-01T03:08:29Z</time>
      </trkpt>
      <trkpt lat="43.53626000" lon="11.31413000">
        <ele>433.00000</ele>
        <time>2010-01-01T03:08:53Z</time>
      </trkpt>
      <trkpt lat="43.53568000" lon="11.31337000">
        <ele>430.00000</ele>
        <time>2010-01-01T03:09:25Z</time>
      </trkpt>
      <trkpt lat="43.53544000" lon="11.31301000">
        <ele>431.00000</ele>
        <time>2010-01-01T03:09:39Z</time>
      </trkpt>
      <trkpt lat="43.53469000" lon="11.31203000">
        <ele>430.00000</ele>
        <time>2010-01-01T03:10:20Z</time>
      </trkpt>
      <trkpt lat="43.53449000" lon="11.31160000">
        <ele>428.00000</ele>
        <time>2010-01-01T03:10:35Z</time>
      </trkpt>
      <trkpt lat="43.53440000" lon="11.31120000">
        <ele>427.00000</ele>
        <time>2010-01-01T03:10:47Z</time>
      </trkpt>
      <trkpt lat="43.53433000" lon="11.31061000">
        <ele>423.00000</ele>
        <time>2010-01-01T03:11:05Z</time>
      </trkpt>
      <trkpt lat="43.53424000" lon="11.31032000">
        <ele>421.00000</ele>
        <time>2010-01-01T03:11:14Z</time>
      </trkpt>
      <trkpt lat="43.53407000" lon="11.31008000">
        <ele>420.00000</ele>
        <time>2010-01-01T03:11:24Z</time>
      </trkpt>
      <trkpt lat="43.53275000" lon="11.30885000">
        <ele>418.00000</ele>
        <time>2010-01-01T03:12:27Z</time>
      </trkpt>
      <trkpt lat="43.53265000" lon="11.30873000">
        <ele>419.00000</ele>
        <time>2010-01-01T03:12:33Z</time>
      </trkpt>
      <trkpt lat="43.53260000" lon="11.30860000">
        <ele>418.00000</ele>
        <time>2010-01-01T03:12:37Z</time>
      </trkpt>
      <trkpt lat="43.53236000" lon="11.30759000">
        <ele>413.00000</ele>
        <time>2010-01-01T03:13:08Z</time>
      </trkpt>
      <trkpt lat="43.53224000" lon="11.30728000">
        <ele>413.00000</ele>
        <time>2010-01-01T03:13:18Z</time>
      </trkpt>
      <trkpt lat="43.53192000" lon="11.30665000">
        <ele>413.00000</ele>
        <time>2010-01-01T03:13:40Z</time>
      </trkpt>
      <trkpt lat="43.53184000" lon="11.30644000">
        <ele>415.00000</ele>
        <time>2010-01-01T03:13:47Z</time>
      </trkpt>
      <trkpt lat="43.53181000" lon="11.30622000">
        <ele>415.00000</ele>
        <time>2010-01-01T03:13:54Z</time>
      </trkpt>
      <trkpt lat="43.53184000" lon="11.30508000">
        <ele>413.00000</ele>
        <time>2010-01-01T03:14:27Z</time>
      </trkpt>
      <trkpt lat="43.53183000" lon="11.30484000">
        <ele>410.00000</ele>
        <time>2010-01-01T03:14:34Z</time>
      </trkpt>
      <trkpt lat="43.53178000" lon="11.30466000">
        <ele>408.00000</ele>
        <time>2010-01-01T03:14:39Z</time>
      </trkpt>
      <trkpt lat="43.53168000" lon="11.30451000">
        <ele>407.00000</ele>
        <time>2010-01-01T03:14:45Z</time>
      </trkpt>
      <trkpt lat="43.53120000" lon="11.30406000">
        <ele>404.00000</ele>
        <time>2010-01-01T03:15:08Z</time>
      </trkpt>
      <trkpt lat="43.53086000" lon="11.30390000">
        <ele>405.00000</ele>
        <time>2010-01-01T03:15:23Z</time>
      </trkpt>
      <trkpt lat="43.53034000" lon="11.30383000">
        <ele>403.00000</ele>
        <time>2010-01-01T03:15:44Z</time>
      </trkpt>
      <trkpt lat="43.53001000" lon="11.30384000">
        <ele>401.00000</ele>
        <time>2010-01-01T03:15:57Z</time>
      </trkpt>
      <trkpt lat="43.52980000" lon="11.30390000">
        <ele>400.00000</ele>
        <time>2010-01-01T03:16:06Z</time>
      </trkpt>
      <trkpt lat="43.52960000" lon="11.30392000">
        <ele>400.00000</ele>
        <time>2010-01-01T03:16:14Z</time>
      </trkpt>
      <trkpt lat="43.52871000" lon="11.30382000">
        <ele>394.00000</ele>
        <time>2010-01-01T03:16:49Z</time>
      </trkpt>
      <trkpt lat="43.52839000" lon="11.30397000">
        <ele>394.00000</ele>
        <time>2010-01-01T03:17:03Z</time>
      </trkpt>
      <trkpt lat="43.52831000" lon="11.30399000">
        <ele>393.00000</ele>
        <time>2010-01-01T03:17:06Z</time>
      </trkpt>
      <trkpt lat="43.52816000" lon="11.30394000">
        <ele>393.00000</ele>
        <time>2010-01-01T03:17:12Z</time>
      </trkpt>
      <trkpt lat="43.52807000" lon="11.30383000">
        <ele>393.00000</ele>
        <time>2010-01-01T03:17:17Z</time>
      </trkpt>
      <trkpt lat="43.52782000" lon="11.30336000">
        <ele>389.00000</ele>
        <time>2010-01-01T03:17:34Z</time>
      </trkpt>
      <trkpt lat="43.52773000" lon="11.30326000">
        <ele>388.00000</ele>
        <time>2010-01-01T03:17:39Z</time>
      </trkpt>
      <trkpt lat="43.52761000" lon="11.30320000">
        <ele>388.00000</ele>
        <time>2010-01-01T03:17:44Z</time>
      </trkpt>
      <trkpt lat="43.52739000" lon="11.30313000">
        <ele>387.00000</ele>
        <time>2010-01-01T03:17:53Z</time>
      </trkpt>
      <trkpt lat="43.52725000" lon="11.30302000">
        <ele>385.00000</ele>
        <time>2010-01-01T03:17:59Z</time>
      </trkpt>
      <trkpt lat="43.52670000" lon="11.30222000">
        <ele>378.00000</ele>
        <time>2010-01-01T03:18:31Z</time>
      </trkpt>
      <trkpt lat="43.52664000" lon="11.30201000">
        <ele>378.00000</ele>
        <time>2010-01-01T03:18:38Z</time>
      </trkpt>
      <trkpt lat="43.52661000" lon="11.30175000">
        <ele>376.00000</ele>
        <time>2010-01-01T03:18:45Z</time>
      </trkpt>
      <trkpt lat="43.52660000" lon="11.30132000">
        <ele>376.00000</ele>
        <time>2010-01-01T03:18:58Z</time>
      </trkpt>
      <trkpt lat="43.52654000" lon="11.30087000">
        <ele>377.00000</ele>
        <time>2010-01-01T03:19:11Z</time>
      </trkpt>
      <trkpt lat="43.52646000" lon="11.30058000">
        <ele>377.00000</ele>
        <time>2010-01-01T03:19:20Z</time>
      </trkpt>
      <trkpt lat="43.52625000" lon="11.30004000">
        <ele>372.00000</ele>
        <time>2010-01-01T03:19:38Z</time>
      </trkpt>
      <trkpt lat="43.52605000" lon="11.29980000">
        <ele>369.00000</ele>
        <time>2010-01-01T03:19:49Z</time>
      </trkpt>
      <trkpt lat="43.52559000" lon="11.29971000">
        <ele>366.00000</ele>
        <time>2010-01-01T03:20:07Z</time>
      </trkpt>
      <trkpt lat="43.52534000" lon="11.29972000">
        <ele>366.00000</ele>
        <time>2010-01-01T03:20:17Z</time>
      </trkpt>
      <trkpt lat="43.52521000" lon="11.29976000">
        <ele>366.00000</ele>
        <time>2010-01-01T03:20:23Z</time>
      </trkpt>
      <trkpt lat="43.52510000" lon="11.29988000">
        <ele>366.00000</ele>
        <time>2010-01-01T03:20:28Z</time>
      </trkpt>
      <trkpt lat="43.52504000" lon="11.30006000">
        <ele>366.00000</ele>
        <time>2010-01-01T03:20:34Z</time>
      </trkpt>
      <trkpt lat="43.52486000" lon="11.30080000">
        <ele>360.00000</ele>
        <time>2010-01-01T03:20:57Z</time>
      </trkpt>
      <trkpt lat="43.52485000" lon="11.30102000">
        <ele>360.00000</ele>
        <time>2010-01-01T03:21:03Z</time>
      </trkpt>
      <trkpt lat="43.52491000" lon="11.30122000">
        <ele>361.00000</ele>
        <time>2010-01-01T03:21:09Z</time>
      </trkpt>
      <trkpt lat="43.52503000" lon="11.30140000">
        <ele>363.00000</ele>
        <time>2010-01-01T03:21:16Z</time>
      </trkpt>
      <trkpt lat="43.52548000" lon="11.30190000">
        <ele>362.00000</ele>
        <time>2010-01-01T03:21:39Z</time>
      </trkpt>
      <trkpt lat="43.52558000" lon="11.30207000">
        <ele>361.00000</ele>
        <time>2010-01-01T03:21:46Z</time>
      </trkpt>
      <trkpt lat="43.52563000" lon="11.30230000">
        <ele>362.00000</ele>
        <time>2010-01-01T03:21:53Z</time>
      </trkpt>
      <trkpt lat="43.52560000" lon="11.30249000">
        <ele>361.00000</ele>
        <time>2010-01-01T03:21:58Z</time>
      </trkpt>
      <trkpt lat="43.52553000" lon="11.30259000">
        <ele>361.00000</ele>
        <time>2010-01-01T03:22:02Z</time>
      </trkpt>
      <trkpt lat="43.52543000" lon="11.30260000">
        <ele>360.00000</ele>
        <time>2010-01-01T03:22:07Z</time>
      </trkpt>
      <trkpt lat="43.52538000" lon="11.30257000">
        <ele>359.00000</ele>
        <time>2010-01-01T03:22:09Z</time>
      </trkpt>
      <trkpt lat="43.52523000" lon="11.30245000">
        <ele>357.00000</ele>
        <time>2010-01-01T03:22:16Z</time>
      </trkpt>
      <trkpt lat="43.52415000" lon="11.30129000">
        <ele>347.00000</ele>
        <time>2010-01-01T03:23:10Z</time>
      </trkpt>
      <trkpt lat="43.52411000" lon="11.30117000">
        <ele>347.00000</ele>
        <time>2010-01-01T03:23:14Z</time>
      </trkpt>
      <trkpt lat="43.52411000" lon="11.30103000">
        <ele>348.00000</ele>
        <time>2010-01-01T03:23:18Z</time>
      </trkpt>
      <trkpt lat="43.52422000" lon="11.30051000">
        <ele>348.00000</ele>
        <time>2010-01-01T03:23:34Z</time>
      </trkpt>
      <trkpt lat="43.52421000" lon="11.30032000">
        <ele>348.00000</ele>
        <time>2010-01-01T03:23:40Z</time>
      </trkpt>
      <trkpt lat="43.52417000" lon="11.30016000">
        <ele>348.00000</ele>
        <time>2010-01-01T03:23:44Z</time>
      </trkpt>
      <trkpt lat="43.52411000" lon="11.30003000">
        <ele>347.00000</ele>
        <time>2010-01-01T03:23:49Z</time>
      </trkpt>
      <trkpt lat="43.52397000" lon="11.29986000">
        <ele>345.00000</ele>
        <time>2010-01-01T03:23:56Z</time>
      </trkpt>
      <trkpt lat="43.52240000" lon="11.29851000">
        <ele>329.00000</ele>
        <time>2010-01-01T03:25:10Z</time>
      </trkpt>
      <trkpt lat="43.52188000" lon="11.29814000">
        <ele>331.00000</ele>
        <time>2010-01-01T03:25:34Z</time>
      </trkpt>
      <trkpt lat="43.52164000" lon="11.29806000">
        <ele>328.00000</ele>
        <time>2010-01-01T03:25:44Z</time>
      </trkpt>
      <trkpt lat="43.52116000" lon="11.29801000">
        <ele>319.00000</ele>
        <time>2010-01-01T03:26:03Z</time>
      </trkpt>
      <trkpt lat="43.52089000" lon="11.29780000">
        <ele>317.00000</ele>
        <time>2010-01-01T03:26:15Z</time>
      </trkpt>
      <trkpt lat="43.51963000" lon="11.29588000">
        <ele>301.00000</ele>
        <time>2010-01-01T03:27:31Z</time>
      </trkpt>
      <trkpt lat="43.51958000" lon="11.29543000">
        <ele>299.00000</ele>
        <time>2010-01-01T03:27:44Z</time>
      </trkpt>
      <trkpt lat="43.51974000" lon="11.29498000">
        <ele>301.00000</ele>
        <time>2010-01-01T03:27:58Z</time>
      </trkpt>
      <trkpt lat="43.51986000" lon="11.29484000">
        <ele>300.00000</ele>
        <time>2010-01-01T03:28:05Z</time>
      </trkpt>
      <trkpt lat="43.52030000" lon="11.29454000">
        <ele>295.00000</ele>
        <time>2010-01-01T03:28:24Z</time>
      </trkpt>
      <trkpt lat="43.52045000" lon="11.29455000">
        <ele>294.00000</ele>
        <time>2010-01-01T03:28:30Z</time>
      </trkpt>
      <trkpt lat="43.52083000" lon="11.29474000">
        <ele>297.00000</ele>
        <time>2010-01-01T03:28:47Z</time>
      </trkpt>
      <trkpt lat="43.52105000" lon="11.29480000">
        <ele>297.00000</ele>
        <time>2010-01-01T03:28:56Z</time>
      </trkpt>
      <trkpt lat="43.52132000" lon="11.29484000">
        <ele>296.00000</ele>
        <time>2010-01-01T03:29:06Z</time>
      </trkpt>
      <trkpt lat="43.52144000" lon="11.29480000">
        <ele>294.00000</ele>
        <time>2010-01-01T03:29:11Z</time>
      </trkpt>
      <trkpt lat="43.52153000" lon="11.29468000">
        <ele>291.00000</ele>
        <time>2010-01-01T03:29:16Z</time>
      </trkpt>
      <trkpt lat="43.52153000" lon="11.29455000">
        <ele>288.00000</ele>
        <time>2010-01-01T03:29:20Z</time>
      </trkpt>
      <trkpt lat="43.52149000" lon="11.29441000">
        <ele>286.00000</ele>
        <time>2010-01-01T03:29:24Z</time>
      </trkpt>
      <trkpt lat="43.52110000" lon="11.29420000">
        <ele>285.00000</ele>
        <time>2010-01-01T03:29:41Z</time>
      </trkpt>
      <trkpt lat="43.52029000" lon="11.29392000">
        <ele>278.00000</ele>
        <time>2010-01-01T03:30:15Z</time>
      </trkpt>
      <trkpt lat="43.51997000" lon="11.29379000">
        <ele>276.00000</ele>
        <time>2010-01-01T03:30:28Z</time>
      </trkpt>
      <trkpt lat="43.51993000" lon="11.29366000">
        <ele>274.00000</ele>
        <time>2010-01-01T03:30:32Z</time>
      </trkpt>
      <trkpt lat="43.51995000" lon="11.29351000">
        <ele>273.00000</ele>
        <time>2010-01-01T03:30:37Z</time>
      </trkpt>
      <trkpt lat="43.52017000" lon="11.29309000">
        <ele>273.00000</ele>
        <time>2010-01-01T03:30:52Z</time>
      </trkpt>
      <trkpt lat="43.52019000" lon="11.29282000">
        <ele>271.00000</ele>
        <time>2010-01-01T03:30:59Z</time>
      </trkpt>
      <trkpt lat="43.52015840" lon="11.29252910">
        <ele>270.00000</ele>
        <time>2010-01-01T03:31:08Z</time>
      </trkpt>
      <trkpt lat="43.52004000" lon="11.29179000">
        <ele>277.00000</ele>
        <time>2010-01-01T03:31:30Z</time>
      </trkpt>
      <trkpt lat="43.51985000" lon="11.29181000">
        <ele>277.00000</ele>
        <time>2010-01-01T03:31:38Z</time>
      </trkpt>
      <trkpt lat="43.51866000" lon="11.29276000">
        <ele>272.00000</ele>
        <time>2010-01-01T03:32:33Z</time>
      </trkpt>
      <trkpt lat="43.51828000" lon="11.29347000">
        <ele>273.00000</ele>
        <time>2010-01-01T03:32:58Z</time>
      </trkpt>
      <trkpt lat="43.51816000" lon="11.29366000">
        <ele>272.00000</ele>
        <time>2010-01-01T03:33:06Z</time>
      </trkpt>
      <trkpt lat="43.51803000" lon="11.29374000">
        <ele>273.00000</ele>
        <time>2010-01-01T03:33:11Z</time>
      </trkpt>
      <trkpt lat="43.51788000" lon="11.29372000">
        <ele>273.00000</ele>
        <time>2010-01-01T03:33:17Z</time>
      </trkpt>
      <trkpt lat="43.51778000" lon="11.29361000">
        <ele>274.00000</ele>
        <time>2010-01-01T03:33:22Z</time>
      </trkpt>
      <trkpt lat="43.51695000" lon="11.29224000">
        <ele>275.00000</ele>
        <time>2010-01-01T03:34:14Z</time>
      </trkpt>
      <trkpt lat="43.51682000" lon="11.29212000">
        <ele>275.00000</ele>
        <time>2010-01-01T03:34:21Z</time>
      </trkpt>
      <trkpt lat="43.51671000" lon="11.29206000">
        <ele>275.00000</ele>
        <time>2010-01-01T03:34:25Z</time>
      </trkpt>
      <trkpt lat="43.51660000" lon="11.29209000">
        <ele>275.00000</ele>
        <time>2010-01-01T03:34:30Z</time>
      </trkpt>
      <trkpt lat="43.51615000" lon="11.29225000">
        <ele>281.00000</ele>
        <time>2010-01-01T03:34:48Z</time>
      </trkpt>
      <trkpt lat="43.51606000" lon="11.29223000">
        <ele>283.00000</ele>
        <time>2010-01-01T03:34:52Z</time>
      </trkpt>
      <trkpt lat="43.51597000" lon="11.29214000">
        <ele>286.00000</ele>
        <time>2010-01-01T03:34:56Z</time>
      </trkpt>
      <trkpt lat="43.51583000" lon="11.29183000">
        <ele>286.00000</ele>
        <time>2010-01-01T03:35:07Z</time>
      </trkpt>
      <trkpt lat="43.51570000" lon="11.29163000">
        <ele>285.00000</ele>
        <time>2010-01-01T03:35:15Z</time>
      </trkpt>
      <trkpt lat="43.51552000" lon="11.29147000">
        <ele>286.00000</ele>
        <time>2010-01-01T03:35:23Z</time>
      </trkpt>
      <trkpt lat="43.51530000" lon="11.29137000">
        <ele>286.00000</ele>
        <time>2010-01-01T03:35:33Z</time>
      </trkpt>
      <trkpt lat="43.51433000" lon="11.29126000">
        <ele>294.00000</ele>
        <time>2010-01-01T03:36:12Z</time>
      </trkpt>
      <trkpt lat="43.51412000" lon="11.29117000">
        <ele>295.00000</ele>
        <time>2010-01-01T03:36:20Z</time>
      </trkpt>
      <trkpt lat="43.51394000" lon="11.29104000">
        <ele>295.00000</ele>
        <time>2010-01-01T03:36:29Z</time>
      </trkpt>
      <trkpt lat="43.51381000" lon="11.29097000">
        <ele>296.00000</ele>
        <time>2010-01-01T03:36:34Z</time>
      </trkpt>
      <trkpt lat="43.51364000" lon="11.29094000">
        <ele>297.00000</ele>
        <time>2010-01-01T03:36:41Z</time>
      </trkpt>
      <trkpt lat="43.51352000" lon="11.29100000">
        <ele>298.00000</ele>
        <time>2010-01-01T03:36:46Z</time>
      </trkpt>
      <trkpt lat="43.51256000" lon="11.29184000">
        <ele>310.00000</ele>
        <time>2010-01-01T03:37:32Z</time>
      </trkpt>
      <trkpt lat="43.51245000" lon="11.29189000">
        <ele>311.00000</ele>
        <time>2010-01-01T03:37:36Z</time>
      </trkpt>
      <trkpt lat="43.51237000" lon="11.29190000">
        <ele>312.00000</ele>
        <time>2010-01-01T03:37:39Z</time>
      </trkpt>
      <trkpt lat="43.51229000" lon="11.29186000">
        <ele>312.00000</ele>
        <time>2010-01-01T03:37:43Z</time>
      </trkpt>
      <trkpt lat="43.51219000" lon="11.29176000">
        <ele>313.00000</ele>
        <time>2010-01-01T03:37:48Z</time>
      </trkpt>
      <trkpt lat="43.51156000" lon="11.29095000">
        <ele>313.00000</ele>
        <time>2010-01-01T03:38:22Z</time>
      </trkpt>
      <trkpt lat="43.51141000" lon="11.29086000">
        <ele>314.00000</ele>
        <time>2010-01-01T03:38:29Z</time>
      </trkpt>
      <trkpt lat="43.51132000" lon="11.29083000">
        <ele>315.00000</ele>
        <time>2010-01-01T03:38:33Z</time>
      </trkpt>
      <trkpt lat="43.51098000" lon="11.29080000">
        <ele>320.00000</ele>
        <time>2010-01-01T03:38:46Z</time>
      </trkpt>
      <trkpt lat="43.51046000" lon="11.29034000">
        <ele>320.00000</ele>
        <time>2010-01-01T03:39:11Z</time>
      </trkpt>
      <trkpt lat="43.51038000" lon="11.29031000">
        <ele>320.00000</ele>
        <time>2010-01-01T03:39:14Z</time>
      </trkpt>
      <trkpt lat="43.51031000" lon="11.29035000">
        <ele>321.00000</ele>
        <time>2010-01-01T03:39:17Z</time>
      </trkpt>
      <trkpt lat="43.51025000" lon="11.29044000">
        <ele>322.00000</ele>
        <time>2010-01-01T03:39:21Z</time>
      </trkpt>
      <trkpt lat="43.51023000" lon="11.29055000">
        <ele>323.00000</ele>
        <time>2010-01-01T03:39:24Z</time>
      </trkpt>
      <trkpt lat="43.51026000" lon="11.29071000">
        <ele>324.00000</ele>
        <time>2010-01-01T03:39:29Z</time>
      </trkpt>
      <trkpt lat="43.51050000" lon="11.29136000">
        <ele>331.00000</ele>
        <time>2010-01-01T03:39:50Z</time>
      </trkpt>
      <trkpt lat="43.51072000" lon="11.29268000">
        <ele>336.00000</ele>
        <time>2010-01-01T03:40:29Z</time>
      </trkpt>
      <trkpt lat="43.51070000" lon="11.29280000">
        <ele>338.00000</ele>
        <time>2010-01-01T03:40:33Z</time>
      </trkpt>
      <trkpt lat="43.51064000" lon="11.29286000">
        <ele>339.00000</ele>
        <time>2010-01-01T03:40:36Z</time>
      </trkpt>
      <trkpt lat="43.51057000" lon="11.29285000">
        <ele>339.00000</ele>
        <time>2010-01-01T03:40:39Z</time>
      </trkpt>
      <trkpt lat="43.51034000" lon="11.29259000">
        <ele>341.00000</ele>
        <time>2010-01-01T03:40:51Z</time>
      </trkpt>
      <trkpt lat="43.51006000" lon="11.29232000">
        <ele>344.00000</ele>
        <time>2010-01-01T03:41:04Z</time>
      </trkpt>
      <trkpt lat="43.50995000" lon="11.29229000">
        <ele>345.00000</ele>
        <time>2010-01-01T03:41:09Z</time>
      </trkpt>
      <trkpt lat="43.50984000" lon="11.29234000">
        <ele>348.00000</ele>
        <time>2010-01-01T03:41:14Z</time>
      </trkpt>
      <trkpt lat="43.50970000" lon="11.29244000">
        <ele>351.00000</ele>
        <time>2010-01-01T03:41:20Z</time>
      </trkpt>
      <trkpt lat="43.50962000" lon="11.29251000">
        <ele>352.00000</ele>
        <time>2010-01-01T03:41:24Z</time>
      </trkpt>
      <trkpt lat="43.50949000" lon="11.29263000">
        <ele>353.00000</ele>
        <time>2010-01-01T03:41:30Z</time>
      </trkpt>
      <trkpt lat="43.50936000" lon="11.29273000">
        <ele>354.00000</ele>
        <time>2010-01-01T03:41:36Z</time>
      </trkpt>
      <trkpt lat="43.50926000" lon="11.29277000">
        <ele>354.00000</ele>
        <time>2010-01-01T03:41:40Z</time>
      </trkpt>
      <trkpt lat="43.50912000" lon="11.29277000">
        <ele>355.00000</ele>
        <time>2010-01-01T03:41:46Z</time>
      </trkpt>
      <trkpt lat="43.50875000" lon="11.29253000">
        <ele>359.00000</ele>
        <time>2010-01-01T03:42:02Z</time>
      </trkpt>
      <trkpt lat="43.50833000" lon="11.29214000">
        <ele>361.00000</ele>
        <time>2010-01-01T03:42:22Z</time>
      </trkpt>
      <trkpt lat="43.50818000" lon="11.29208000">
        <ele>361.00000</ele>
        <time>2010-01-01T03:42:28Z</time>
      </trkpt>
      <trkpt lat="43.50802000" lon="11.29209000">
        <ele>363.00000</ele>
        <time>2010-01-01T03:42:35Z</time>
      </trkpt>
      <trkpt lat="43.50787000" lon="11.29216000">
        <ele>364.00000</ele>
        <time>2010-01-01T03:42:41Z</time>
      </trkpt>
      <trkpt lat="43.50766000" lon="11.29242000">
        <ele>371.00000</ele>
        <time>2010-01-01T03:42:53Z</time>
      </trkpt>
      <trkpt lat="43.50757000" lon="11.29247000">
        <ele>373.00000</ele>
        <time>2010-01-01T03:42:56Z</time>
      </trkpt>
      <trkpt lat="43.50746000" lon="11.29247000">
        <ele>375.00000</ele>
        <time>2010-01-01T03:43:01Z</time>
      </trkpt>
      <trkpt lat="43.50734000" lon="11.29239000">
        <ele>376.00000</ele>
        <time>2010-01-01T03:43:06Z</time>
      </trkpt>
      <trkpt lat="43.50714000" lon="11.29219000">
        <ele>375.00000</ele>
        <time>2010-01-01T03:43:16Z</time>
      </trkpt>
      <trkpt lat="43.50697000" lon="11.29205000">
        <ele>373.00000</ele>
        <time>2010-01-01T03:43:24Z</time>
      </trkpt>
      <trkpt lat="43.50686000" lon="11.29202000">
        <ele>373.00000</ele>
        <time>2010-01-01T03:43:28Z</time>
      </trkpt>
      <trkpt lat="43.50673000" lon="11.29204000">
        <ele>373.00000</ele>
        <time>2010-01-01T03:43:34Z</time>
      </trkpt>
      <trkpt lat="43.50660000" lon="11.29210000">
        <ele>374.00000</ele>
        <time>2010-01-01T03:43:39Z</time>
      </trkpt>
      <trkpt lat="43.50617000" lon="11.29251000">
        <ele>382.00000</ele>
        <time>2010-01-01T03:44:00Z</time>
      </trkpt>
      <trkpt lat="43.50593000" lon="11.29253000">
        <ele>381.00000</ele>
        <time>2010-01-01T03:44:10Z</time>
      </trkpt>
      <trkpt lat="43.50517000" lon="11.29241000">
        <ele>386.00000</ele>
        <time>2010-01-01T03:44:40Z</time>
      </trkpt>
      <trkpt lat="43.50504000" lon="11.29241000">
        <ele>385.00000</ele>
        <time>2010-01-01T03:44:46Z</time>
      </trkpt>
      <trkpt lat="43.50495000" lon="11.29247000">
        <ele>385.00000</ele>
        <time>2010-01-01T03:44:50Z</time>
      </trkpt>
      <trkpt lat="43.50489000" lon="11.29255000">
        <ele>385.00000</ele>
        <time>2010-01-01T03:44:53Z</time>
      </trkpt>
      <trkpt lat="43.50486000" lon="11.29266000">
        <ele>386.00000</ele>
        <time>2010-01-01T03:44:56Z</time>
      </trkpt>
      <trkpt lat="43.50488000" lon="11.29288000">
        <ele>390.00000</ele>
        <time>2010-01-01T03:45:03Z</time>
      </trkpt>
      <trkpt lat="43.50486000" lon="11.29298000">
        <ele>392.00000</ele>
        <time>2010-01-01T03:45:06Z</time>
      </trkpt>
      <trkpt lat="43.50481000" lon="11.29309000">
        <ele>393.00000</ele>
        <time>2010-01-01T03:45:10Z</time>
      </trkpt>
      <trkpt lat="43.50471000" lon="11.29320000">
        <ele>394.00000</ele>
        <time>2010-01-01T03:45:15Z</time>
      </trkpt>
      <trkpt lat="43.50451000" lon="11.29334000">
        <ele>392.00000</ele>
        <time>2010-01-01T03:45:24Z</time>
      </trkpt>
      <trkpt lat="43.50440000" lon="11.29345000">
        <ele>392.00000</ele>
        <time>2010-01-01T03:45:29Z</time>
      </trkpt>
      <trkpt lat="43.50432000" lon="11.29356000">
        <ele>392.00000</ele>
        <time>2010-01-01T03:45:34Z</time>
      </trkpt>
      <trkpt lat="43.50425000" lon="11.29372000">
        <ele>392.00000</ele>
        <time>2010-01-01T03:45:39Z</time>
      </trkpt>
      <trkpt lat="43.50419000" lon="11.29399000">
        <ele>394.00000</ele>
        <time>2010-01-01T03:45:47Z</time>
      </trkpt>
      <trkpt lat="43.50412000" lon="11.29420000">
        <ele>396.00000</ele>
        <time>2010-01-01T03:45:54Z</time>
      </trkpt>
      <trkpt lat="43.50404000" lon="11.29438000">
        <ele>398.00000</ele>
        <time>2010-01-01T03:46:00Z</time>
      </trkpt>
      <trkpt lat="43.50390000" lon="11.29457000">
        <ele>399.00000</ele>
        <time>2010-01-01T03:46:08Z</time>
      </trkpt>
      <trkpt lat="43.50355000" lon="11.29488000">
        <ele>396.00000</ele>
        <time>2010-01-01T03:46:25Z</time>
      </trkpt>
      <trkpt lat="43.50346000" lon="11.29503000">
        <ele>397.00000</ele>
        <time>2010-01-01T03:46:30Z</time>
      </trkpt>
      <trkpt lat="43.50341000" lon="11.29518000">
        <ele>400.00000</ele>
        <time>2010-01-01T03:46:35Z</time>
      </trkpt>
      <trkpt lat="43.50335000" lon="11.29569000">
        <ele>406.00000</ele>
        <time>2010-01-01T03:46:50Z</time>
      </trkpt>
      <trkpt lat="43.50342000" lon="11.29634000">
        <ele>411.00000</ele>
        <time>2010-01-01T03:47:09Z</time>
      </trkpt>
      <trkpt lat="43.50342000" lon="11.29658000">
        <ele>412.00000</ele>
        <time>2010-01-01T03:47:16Z</time>
      </trkpt>
      <trkpt lat="43.50340000" lon="11.29672000">
        <ele>413.00000</ele>
        <time>2010-01-01T03:47:20Z</time>
      </trkpt>
      <trkpt lat="43.50333000" lon="11.29689000">
        <ele>412.00000</ele>
        <time>2010-01-01T03:47:26Z</time>
      </trkpt>
      <trkpt lat="43.50324000" lon="11.29708000">
        <ele>411.00000</ele>
        <time>2010-01-01T03:47:32Z</time>
      </trkpt>
      <trkpt lat="43.50317000" lon="11.29737000">
        <ele>411.00000</ele>
        <time>2010-01-01T03:47:41Z</time>
      </trkpt>
      <trkpt lat="43.50317000" lon="11.29759000">
        <ele>414.00000</ele>
        <time>2010-01-01T03:47:48Z</time>
      </trkpt>
      <trkpt lat="43.50323000" lon="11.29808000">
        <ele>421.00000</ele>
        <time>2010-01-01T03:48:02Z</time>
      </trkpt>
      <trkpt lat="43.50324000" lon="11.29821000">
        <ele>423.00000</ele>
        <time>2010-01-01T03:48:06Z</time>
      </trkpt>
      <trkpt lat="43.50320000" lon="11.29833000">
        <ele>423.00000</ele>
        <time>2010-01-01T03:48:10Z</time>
      </trkpt>
      <trkpt lat="43.50314000" lon="11.29843000">
        <ele>422.00000</ele>
        <time>2010-01-01T03:48:14Z</time>
      </trkpt>
      <trkpt lat="43.50282000" lon="11.29870000">
        <ele>421.00000</ele>
        <time>2010-01-01T03:48:29Z</time>
      </trkpt>
      <trkpt lat="43.50251000" lon="11.29927000">
        <ele>427.00000</ele>
        <time>2010-01-01T03:48:49Z</time>
      </trkpt>
      <trkpt lat="43.50233000" lon="11.29946000">
        <ele>429.00000</ele>
        <time>2010-01-01T03:48:58Z</time>
      </trkpt>
      <trkpt lat="43.50197000" lon="11.29960000">
        <ele>428.00000</ele>
        <time>2010-01-01T03:49:13Z</time>
      </trkpt>
      <trkpt lat="43.50187000" lon="11.29969000">
        <ele>429.00000</ele>
        <time>2010-01-01T03:49:18Z</time>
      </trkpt>
      <trkpt lat="43.50168000" lon="11.29983000">
        <ele>432.00000</ele>
        <time>2010-01-01T03:49:27Z</time>
      </trkpt>
      <trkpt lat="43.50131000" lon="11.29991000">
        <ele>431.00000</ele>
        <time>2010-01-01T03:49:42Z</time>
      </trkpt>
      <trkpt lat="43.50112000" lon="11.29998000">
        <ele>430.00000</ele>
        <time>2010-01-01T03:49:50Z</time>
      </trkpt>
      <trkpt lat="43.50091000" lon="11.30017000">
        <ele>436.00000</ele>
        <time>2010-01-01T03:50:00Z</time>
      </trkpt>
      <trkpt lat="43.50075000" lon="11.30024000">
        <ele>438.00000</ele>
        <time>2010-01-01T03:50:06Z</time>
      </trkpt>
      <trkpt lat="43.50034000" lon="11.30029000">
        <ele>437.00000</ele>
        <time>2010-01-01T03:50:23Z</time>
      </trkpt>
      <trkpt lat="43.50005000" lon="11.30040000">
        <ele>440.00000</ele>
        <time>2010-01-01T03:50:35Z</time>
      </trkpt>
      <trkpt lat="43.49988000" lon="11.30044000">
        <ele>441.00000</ele>
        <time>2010-01-01T03:50:42Z</time>
      </trkpt>
      <trkpt lat="43.49955000" lon="11.30042000">
        <ele>445.00000</ele>
        <time>2010-01-01T03:50:55Z</time>
      </trkpt>
      <trkpt lat="43.49928000" lon="11.30049000">
        <ele>447.00000</ele>
        <time>2010-01-01T03:51:06Z</time>
      </trkpt>
      <trkpt lat="43.49860000" lon="11.30083000">
        <ele>452.00000</ele>
        <time>2010-01-01T03:51:35Z</time>
      </trkpt>
      <trkpt lat="43.49838000" lon="11.30103000">
        <ele>454.00000</ele>
        <time>2010-01-01T03:51:46Z</time>
      </trkpt>
      <trkpt lat="43.49815000" lon="11.30116000">
        <ele>454.00000</ele>
        <time>2010-01-01T03:51:55Z</time>
      </trkpt>
      <trkpt lat="43.49795000" lon="11.30117000">
        <ele>456.00000</ele>
        <time>2010-01-01T03:52:03Z</time>
      </trkpt>
      <trkpt lat="43.49783000" lon="11.30111000">
        <ele>458.00000</ele>
        <time>2010-01-01T03:52:09Z</time>
      </trkpt>
      <trkpt lat="43.49769000" lon="11.30097000">
        <ele>461.00000</ele>
        <time>2010-01-01T03:52:16Z</time>
      </trkpt>
      <trkpt lat="43.49760000" lon="11.30079000">
        <ele>463.00000</ele>
        <time>2010-01-01T03:52:22Z</time>
      </trkpt>
      <trkpt lat="43.49760000" lon="11.30062000">
        <ele>463.00000</ele>
        <time>2010-01-01T03:52:27Z</time>
      </trkpt>
      <trkpt lat="43.49766000" lon="11.30048000">
        <ele>463.00000</ele>
        <time>2010-01-01T03:52:32Z</time>
      </trkpt>
      <trkpt lat="43.49789000" lon="11.30023000">
        <ele>463.00000</ele>
        <time>2010-01-01T03:52:43Z</time>
      </trkpt>
      <trkpt lat="43.49813000" lon="11.29982000">
        <ele>465.00000</ele>
        <time>2010-01-01T03:52:59Z</time>
      </trkpt>
      <trkpt lat="43.49854000" lon="11.29890000">
        <ele>465.00000</ele>
        <time>2010-01-01T03:53:30Z</time>
      </trkpt>
      <trkpt lat="43.49863000" lon="11.29868000">
        <ele>465.00000</ele>
        <time>2010-01-01T03:53:37Z</time>
      </trkpt>
      <trkpt lat="43.49864000" lon="11.29851000">
        <ele>466.00000</ele>
        <time>2010-01-01T03:53:42Z</time>
      </trkpt>
      <trkpt lat="43.49863000" lon="11.29828000">
        <ele>466.00000</ele>
        <time>2010-01-01T03:53:49Z</time>
      </trkpt>
      <trkpt lat="43.49849000" lon="11.29804000">
        <ele>465.00000</ele>
        <time>2010-01-01T03:53:58Z</time>
      </trkpt>
      <trkpt lat="43.49830090" lon="11.29796860">
        <ele>465.00000</ele>
        <time>2010-01-01T03:54:06Z</time>
      </trkpt>
      <trkpt lat="43.49813000" lon="11.29802000">
        <ele>467.00000</ele>
        <time>2010-01-01T03:54:13Z</time>
      </trkpt>
      <trkpt lat="43.49789000" lon="11.29827000">
        <ele>470.00000</ele>
        <time>2010-01-01T03:54:25Z</time>
      </trkpt>
      <trkpt lat="43.49759000" lon="11.29865000">
        <ele>475.00000</ele>
        <time>2010-01-01T03:54:41Z</time>
      </trkpt>
      <trkpt lat="43.49711000" lon="11.29910000">
        <ele>480.00000</ele>
        <time>2010-01-01T03:55:04Z</time>
      </trkpt>
      <trkpt lat="43.49679000" lon="11.29928000">
        <ele>484.00000</ele>
        <time>2010-01-01T03:55:18Z</time>
      </trkpt>
      <trkpt lat="43.49639000" lon="11.29944000">
        <ele>491.00000</ele>
        <time>2010-01-01T03:55:35Z</time>
      </trkpt>
      <trkpt lat="43.49521000" lon="11.29966000">
        <ele>504.00000</ele>
        <time>2010-01-01T03:56:22Z</time>
      </trkpt>
      <trkpt lat="43.49353000" lon="11.29992000">
        <ele>512.00000</ele>
        <time>2010-01-01T03:57:30Z</time>
      </trkpt>
      <trkpt lat="43.49211000" lon="11.30015000">
        <ele>520.00000</ele>
        <time>2010-01-01T03:58:27Z</time>
      </trkpt>
      <trkpt lat="43.49132000" lon="11.30027000">
        <ele>523.00000</ele>
        <time>2010-01-01T03:58:59Z</time>
      </trkpt>
      <trkpt lat="43.49094000" lon="11.30023000">
        <ele>523.00000</ele>
        <time>2010-01-01T03:59:14Z</time>
      </trkpt>
      <trkpt lat="43.49024000" lon="11.30005000">
        <ele>523.00000</ele>
        <time>2010-01-01T03:59:43Z</time>
      </trkpt>
      <trkpt lat="43.48700000" lon="11.29916000">
        <ele>528.00000</ele>
        <time>2010-01-01T04:01:55Z</time>
      </trkpt>
      <trkpt lat="43.48374000" lon="11.29822000">
        <ele>542.00000</ele>
        <time>2010-01-01T04:04:08Z</time>
      </trkpt>
      <trkpt lat="43.48285000" lon="11.29793000">
        <ele>546.00000</ele>
        <time>2010-01-01T04:04:45Z</time>
      </trkpt>
      <trkpt lat="43.48221000" lon="11.29782000">
        <ele>548.00000</ele>
        <time>2010-01-01T04:05:11Z</time>
      </trkpt>
      <trkpt lat="43.48008000" lon="11.29785000">
        <ele>550.00000</ele>
        <time>2010-01-01T04:06:36Z</time>
      </trkpt>
      <trkpt lat="43.47907000" lon="11.29791000">
        <ele>562.00000</ele>
        <time>2010-01-01T04:07:17Z</time>
      </trkpt>
      <trkpt lat="43.47867000" lon="11.29788000">
        <ele>566.00000</ele>
        <time>2010-01-01T04:07:33Z</time>
      </trkpt>
      <trkpt lat="43.47827000" lon="11.29775000">
        <ele>570.00000</ele>
        <time>2010-01-01T04:07:49Z</time>
      </trkpt>
      <trkpt lat="43.47734000" lon="11.29732000">
        <ele>576.00000</ele>
        <time>2010-01-01T04:08:28Z</time>
      </trkpt>
      <trkpt lat="43.47585000" lon="11.29664000">
        <ele>563.00000</ele>
        <time>2010-01-01T04:09:31Z</time>
      </trkpt>
      <trkpt lat="43.47562000" lon="11.29646000">
        <ele>560.00000</ele>
        <time>2010-01-01T04:09:42Z</time>
      </trkpt>
      <trkpt lat="43.47538000" lon="11.29614000">
        <ele>557.00000</ele>
        <time>2010-01-01T04:09:55Z</time>
      </trkpt>
      <trkpt lat="43.47527000" lon="11.29588000">
        <ele>556.00000</ele>
        <time>2010-01-01T04:10:04Z</time>
      </trkpt>
      <trkpt lat="43.47520000" lon="11.29562000">
        <ele>555.00000</ele>
        <time>2010-01-01T04:10:12Z</time>
      </trkpt>
      <trkpt lat="43.47516000" lon="11.29524000">
        <ele>554.00000</ele>
        <time>2010-01-01T04:10:23Z</time>
      </trkpt>
      <trkpt lat="43.47533000" lon="11.29296000">
        <ele>550.00000</ele>
        <time>2010-01-01T04:11:30Z</time>
      </trkpt>
      <trkpt lat="43.47541000" lon="11.29248000">
        <ele>549.00000</ele>
        <time>2010-01-01T04:11:44Z</time>
      </trkpt>
      <trkpt lat="43.47562000" lon="11.29199000">
        <ele>547.00000</ele>
        <time>2010-01-01T04:12:01Z</time>
      </trkpt>
      <trkpt lat="43.47588000" lon="11.29156000">
        <ele>544.00000</ele>
        <time>2010-01-01T04:12:17Z</time>
      </trkpt>
      <trkpt lat="43.47603000" lon="11.29140000">
        <ele>542.00000</ele>
        <time>2010-01-01T04:12:24Z</time>
      </trkpt>
      <trkpt lat="43.47643000" lon="11.29116000">
        <ele>543.00000</ele>
        <time>2010-01-01T04:12:42Z</time>
      </trkpt>
      <trkpt lat="43.47649000" lon="11.29108000">
        <ele>543.00000</ele>
        <time>2010-01-01T04:12:45Z</time>
      </trkpt>
      <trkpt lat="43.47650000" lon="11.29096000">
        <ele>542.00000</ele>
        <time>2010-01-01T04:12:49Z</time>
      </trkpt>
      <trkpt lat="43.47648000" lon="11.29075000">
        <ele>540.00000</ele>
        <time>2010-01-01T04:12:55Z</time>
      </trkpt>
      <trkpt lat="43.47631000" lon="11.28985000">
        <ele>538.00000</ele>
        <time>2010-01-01T04:13:22Z</time>
      </trkpt>
      <trkpt lat="43.47615000" lon="11.28912000">
        <ele>536.00000</ele>
        <time>2010-01-01T04:13:44Z</time>
      </trkpt>
      <trkpt lat="43.47606000" lon="11.28893000">
        <ele>537.00000</ele>
        <time>2010-01-01T04:13:51Z</time>
      </trkpt>
      <trkpt lat="43.47583000" lon="11.28870000">
        <ele>541.00000</ele>
        <time>2010-01-01T04:14:02Z</time>
      </trkpt>
      <trkpt lat="43.47577000" lon="11.28867000">
        <ele>542.00000</ele>
        <time>2010-01-01T04:14:05Z</time>
      </trkpt>
      <trkpt lat="43.47540000" lon="11.28855000">
        <ele>545.00000</ele>
        <time>2010-01-01T04:14:20Z</time>
      </trkpt>
      <trkpt lat="43.47511000" lon="11.28840000">
        <ele>547.00000</ele>
        <time>2010-01-01T04:14:32Z</time>
      </trkpt>
      <trkpt lat="43.47499000" lon="11.28821000">
        <ele>548.00000</ele>
        <time>2010-01-01T04:14:40Z</time>
      </trkpt>
      <trkpt lat="43.47490000" lon="11.28801000">
        <ele>550.00000</ele>
        <time>2010-01-01T04:14:46Z</time>
      </trkpt>
      <trkpt lat="43.47467000" lon="11.28678000">
        <ele>556.00000</ele>
        <time>2010-01-01T04:15:23Z</time>
      </trkpt>
      <trkpt lat="43.47462000" lon="11.28628000">
        <ele>555.00000</ele>
        <time>2010-01-01T04:15:38Z</time>
      </trkpt>
      <trkpt lat="43.47457000" lon="11.28606000">
        <ele>555.00000</ele>
        <time>2010-01-01T04:15:45Z</time>
      </trkpt>
      <trkpt lat="43.47446000" lon="11.28591000">
        <ele>554.00000</ele>
        <time>2010-01-01T04:15:51Z</time>
      </trkpt>
      <trkpt lat="43.47434000" lon="11.28587000">
        <ele>553.00000</ele>
        <time>2010-01-01T04:15:56Z</time>
      </trkpt>
      <trkpt lat="43.47421000" lon="11.28591000">
        <ele>553.00000</ele>
        <time>2010-01-01T04:16:01Z</time>
      </trkpt>
      <trkpt lat="43.47410000" lon="11.28604000">
        <ele>555.00000</ele>
        <time>2010-01-01T04:16:07Z</time>
      </trkpt>
      <trkpt lat="43.47402000" lon="11.28624000">
        <ele>556.00000</ele>
        <time>2010-01-01T04:16:14Z</time>
      </trkpt>
      <trkpt lat="43.47378000" lon="11.28779000">
        <ele>562.00000</ele>
        <time>2010-01-01T04:17:00Z</time>
      </trkpt>
      <trkpt lat="43.47348470" lon="11.28864520">
        <ele>565.00000</ele>
        <time>2010-01-01T04:17:27Z</time>
      </trkpt>
      <trkpt lat="43.47324000" lon="11.28881000">
        <ele>567.00000</ele>
        <time>2010-01-01T04:17:38Z</time>
      </trkpt>
      <trkpt lat="43.47312000" lon="11.28877000">
        <ele>567.00000</ele>
        <time>2010-01-01T04:17:43Z</time>
      </trkpt>
      <trkpt lat="43.47301000" lon="11.28860000">
        <ele>566.00000</ele>
        <time>2010-01-01T04:17:50Z</time>
      </trkpt>
      <trkpt lat="43.47297000" lon="11.28847000">
        <ele>566.00000</ele>
        <time>2010-01-01T04:17:54Z</time>
      </trkpt>
      <trkpt lat="43.47296000" lon="11.28837000">
        <ele>566.00000</ele>
        <time>2010-01-01T04:17:57Z</time>
      </trkpt>
      <trkpt lat="43.47298000" lon="11.28820000">
        <ele>568.00000</ele>
        <time>2010-01-01T04:18:02Z</time>
      </trkpt>
      <trkpt lat="43.47298000" lon="11.28814000">
        <ele>568.00000</ele>
        <time>2010-01-01T04:18:03Z</time>
      </trkpt>
      <trkpt lat="43.47310000" lon="11.28713000">
        <ele>574.00000</ele>
        <time>2010-01-01T04:18:33Z</time>
      </trkpt>
      <trkpt lat="43.47311000" lon="11.28689000">
        <ele>574.00000</ele>
        <time>2010-01-01T04:18:40Z</time>
      </trkpt>
      <trkpt lat="43.47308000" lon="11.28659000">
        <ele>575.00000</ele>
        <time>2010-01-01T04:18:49Z</time>
      </trkpt>
      <trkpt lat="43.47300000" lon="11.28634000">
        <ele>576.00000</ele>
        <time>2010-01-01T04:18:57Z</time>
      </trkpt>
      <trkpt lat="43.47290000" lon="11.28613000">
        <ele>577.00000</ele>
        <time>2010-01-01T04:19:04Z</time>
      </trkpt>
      <trkpt lat="43.47273000" lon="11.28586000">
        <ele>580.00000</ele>
        <time>2010-01-01T04:19:14Z</time>
      </trkpt>
      <trkpt lat="43.47160000" lon="11.28552000">
        <ele>573.00000</ele>
        <time>2010-01-01T04:20:01Z</time>
      </trkpt>
      <trkpt lat="43.47133000" lon="11.28542000">
        <ele>572.00000</ele>
        <time>2010-01-01T04:20:12Z</time>
      </trkpt>
      <trkpt lat="43.47135000" lon="11.28514000">
        <ele>572.00000</ele>
        <time>2010-01-01T04:20:20Z</time>
      </trkpt>
      <trkpt lat="43.47129000" lon="11.28466000">
        <ele>571.00000</ele>
        <time>2010-01-01T04:20:34Z</time>
      </trkpt>
      <trkpt lat="43.47146000" lon="11.28345000">
        <ele>575.00000</ele>
        <time>2010-01-01T04:21:10Z</time>
      </trkpt>
      <trkpt lat="43.47147000" lon="11.28329000">
        <ele>576.00000</ele>
        <time>2010-01-01T04:21:15Z</time>
      </trkpt>
      <trkpt lat="43.47145000" lon="11.28313000">
        <ele>576.00000</ele>
        <time>2010-01-01T04:21:19Z</time>
      </trkpt>
      <trkpt lat="43.47139000" lon="11.28301000">
        <ele>576.00000</ele>
        <time>2010-01-01T04:21:24Z</time>
      </trkpt>
      <trkpt lat="43.47098000" lon="11.28266000">
        <ele>570.00000</ele>
        <time>2010-01-01T04:21:43Z</time>
      </trkpt>
      <trkpt lat="43.47090000" lon="11.28255000">
        <ele>569.00000</ele>
        <time>2010-01-01T04:21:47Z</time>
      </trkpt>
      <trkpt lat="43.47084000" lon="11.28242000">
        <ele>569.00000</ele>
        <time>2010-01-01T04:21:52Z</time>
      </trkpt>
      <trkpt lat="43.47082000" lon="11.28228000">
        <ele>570.00000</ele>
        <time>2010-01-01T04:21:56Z</time>
      </trkpt>
      <trkpt lat="43.47082000" lon="11.28212000">
        <ele>571.00000</ele>
        <time>2010-01-01T04:22:01Z</time>
      </trkpt>
      <trkpt lat="43.47094000" lon="11.28166000">
        <ele>573.00000</ele>
        <time>2010-01-01T04:22:15Z</time>
      </trkpt>
      <trkpt lat="43.47097000" lon="11.28125000">
        <ele>572.00000</ele>
        <time>2010-01-01T04:22:27Z</time>
      </trkpt>
      <trkpt lat="43.47093000" lon="11.28055000">
        <ele>569.00000</ele>
        <time>2010-01-01T04:22:47Z</time>
      </trkpt>
      <trkpt lat="43.47096000" lon="11.28037000">
        <ele>568.00000</ele>
        <time>2010-01-01T04:22:53Z</time>
      </trkpt>
      <trkpt lat="43.47105000" lon="11.28027000">
        <ele>569.00000</ele>
        <time>2010-01-01T04:22:57Z</time>
      </trkpt>
      <trkpt lat="43.47116000" lon="11.28021000">
        <ele>569.00000</ele>
        <time>2010-01-01T04:23:02Z</time>
      </trkpt>
      <trkpt lat="43.47129000" lon="11.28020000">
        <ele>570.00000</ele>
        <time>2010-01-01T04:23:07Z</time>
      </trkpt>
      <trkpt lat="43.47171000" lon="11.28026000">
        <ele>572.00000</ele>
        <time>2010-01-01T04:23:24Z</time>
      </trkpt>
      <trkpt lat="43.47184000" lon="11.28022000">
        <ele>573.00000</ele>
        <time>2010-01-01T04:23:30Z</time>
      </trkpt>
      <trkpt lat="43.47196000" lon="11.28013000">
        <ele>573.00000</ele>
        <time>2010-01-01T04:23:35Z</time>
      </trkpt>
      <trkpt lat="43.47206000" lon="11.28000000">
        <ele>574.00000</ele>
        <time>2010-01-01T04:23:40Z</time>
      </trkpt>
      <trkpt lat="43.47212000" lon="11.27984000">
        <ele>573.00000</ele>
        <time>2010-01-01T04:23:46Z</time>
      </trkpt>
      <trkpt lat="43.47214000" lon="11.27967000">
        <ele>573.00000</ele>
        <time>2010-01-01T04:23:51Z</time>
      </trkpt>
      <trkpt lat="43.47212000" lon="11.27951000">
        <ele>574.00000</ele>
        <time>2010-01-01T04:23:55Z</time>
      </trkpt>
      <trkpt lat="43.47206000" lon="11.27934000">
        <ele>574.00000</ele>
        <time>2010-01-01T04:24:01Z</time>
      </trkpt>
      <trkpt lat="43.47197000" lon="11.27919000">
        <ele>573.00000</ele>
        <time>2010-01-01T04:24:07Z</time>
      </trkpt>
      <trkpt lat="43.47174000" lon="11.27890000">
        <ele>573.00000</ele>
        <time>2010-01-01T04:24:19Z</time>
      </trkpt>
      <trkpt lat="43.47152000" lon="11.27867000">
        <ele>571.00000</ele>
        <time>2010-01-01T04:24:30Z</time>
      </trkpt>
      <trkpt lat="43.47143000" lon="11.27855000">
        <ele>569.00000</ele>
        <time>2010-01-01T04:24:35Z</time>
      </trkpt>
      <trkpt lat="43.47140000" lon="11.27843000">
        <ele>569.00000</ele>
        <time>2010-01-01T04:24:39Z</time>
      </trkpt>
      <trkpt lat="43.47141000" lon="11.27815000">
        <ele>568.00000</ele>
        <time>2010-01-01T04:24:47Z</time>
      </trkpt>
      <trkpt lat="43.47146000" lon="11.27801000">
        <ele>569.00000</ele>
        <time>2010-01-01T04:24:51Z</time>
      </trkpt>
      <trkpt lat="43.47152000" lon="11.27787000">
        <ele>570.00000</ele>
        <time>2010-01-01T04:24:56Z</time>
      </trkpt>
      <trkpt lat="43.47197000" lon="11.27724000">
        <ele>573.00000</ele>
        <time>2010-01-01T04:25:22Z</time>
      </trkpt>
      <trkpt lat="43.47204000" lon="11.27709000">
        <ele>574.00000</ele>
        <time>2010-01-01T04:25:27Z</time>
      </trkpt>
      <trkpt lat="43.47206000" lon="11.27694000">
        <ele>573.00000</ele>
        <time>2010-01-01T04:25:32Z</time>
      </trkpt>
      <trkpt lat="43.47204000" lon="11.27679000">
        <ele>573.00000</ele>
        <time>2010-01-01T04:25:36Z</time>
      </trkpt>
      <trkpt lat="43.47198000" lon="11.27663000">
        <ele>572.00000</ele>
        <time>2010-01-01T04:25:41Z</time>
      </trkpt>
      <trkpt lat="43.47183000" lon="11.27633000">
        <ele>571.00000</ele>
        <time>2010-01-01T04:25:52Z</time>
      </trkpt>
      <trkpt lat="43.47176000" lon="11.27602000">
        <ele>573.00000</ele>
        <time>2010-01-01T04:26:01Z</time>
      </trkpt>
      <trkpt lat="43.47162000" lon="11.27599000">
        <ele>571.00000</ele>
        <time>2010-01-01T04:26:07Z</time>
      </trkpt>
      <trkpt lat="43.47114000" lon="11.27578000">
        <ele>562.00000</ele>
        <time>2010-01-01T04:26:27Z</time>
      </trkpt>
      <trkpt lat="43.47094000" lon="11.27553000">
        <ele>561.00000</ele>
        <time>2010-01-01T04:26:38Z</time>
      </trkpt>
      <trkpt lat="43.47086000" lon="11.27536000">
        <ele>559.00000</ele>
        <time>2010-01-01T04:26:44Z</time>
      </trkpt>
      <trkpt lat="43.47076000" lon="11.27527000">
        <ele>558.00000</ele>
        <time>2010-01-01T04:26:48Z</time>
      </trkpt>
      <trkpt lat="43.47025740" lon="11.27512690">
        <ele>554.00000</ele>
        <time>2010-01-01T04:27:09Z</time>
      </trkpt>
      <trkpt lat="43.46988000" lon="11.27465000">
        <ele>548.00000</ele>
        <time>2010-01-01T04:27:30Z</time>
      </trkpt>
      <trkpt lat="43.46945000" lon="11.27437000">
        <ele>543.00000</ele>
        <time>2010-01-01T04:27:49Z</time>
      </trkpt>
      <trkpt lat="43.46929000" lon="11.27421000">
        <ele>539.00000</ele>
        <time>2010-01-01T04:27:56Z</time>
      </trkpt>
      <trkpt lat="43.46874000" lon="11.27316000">
        <ele>521.00000</ele>
        <time>2010-01-01T04:28:34Z</time>
      </trkpt>
      <trkpt lat="43.46857000" lon="11.27298000">
        <ele>518.00000</ele>
        <time>2010-01-01T04:28:43Z</time>
      </trkpt>
      <trkpt lat="43.46820000" lon="11.27271000">
        <ele>512.00000</ele>
        <time>2010-01-01T04:28:59Z</time>
      </trkpt>
      <trkpt lat="43.46805000" lon="11.27263000">
        <ele>511.00000</ele>
        <time>2010-01-01T04:29:06Z</time>
      </trkpt>
      <trkpt lat="43.46740000" lon="11.27243000">
        <ele>507.00000</ele>
        <time>2010-01-01T04:29:33Z</time>
      </trkpt>
      <trkpt lat="43.46722000" lon="11.27232000">
        <ele>506.00000</ele>
        <time>2010-01-01T04:29:40Z</time>
      </trkpt>
      <trkpt lat="43.46624000" lon="11.27104000">
        <ele>504.00000</ele>
        <time>2010-01-01T04:30:34Z</time>
      </trkpt>
      <trkpt lat="43.46609000" lon="11.27091000">
        <ele>504.00000</ele>
        <time>2010-01-01T04:30:42Z</time>
      </trkpt>
      <trkpt lat="43.46537000" lon="11.27061000">
        <ele>497.00000</ele>
        <time>2010-01-01T04:31:12Z</time>
      </trkpt>
      <trkpt lat="43.46516000" lon="11.27062000">
        <ele>495.00000</ele>
        <time>2010-01-01T04:31:20Z</time>
      </trkpt>
      <trkpt lat="43.46506000" lon="11.27070000">
        <ele>495.00000</ele>
        <time>2010-01-01T04:31:25Z</time>
      </trkpt>
      <trkpt lat="43.46490000" lon="11.27068000">
        <ele>493.00000</ele>
        <time>2010-01-01T04:31:31Z</time>
      </trkpt>
      <trkpt lat="43.46477000" lon="11.27054000">
        <ele>491.00000</ele>
        <time>2010-01-01T04:31:38Z</time>
      </trkpt>
      <trkpt lat="43.46470000" lon="11.27039000">
        <ele>490.00000</ele>
        <time>2010-01-01T04:31:43Z</time>
      </trkpt>
      <trkpt lat="43.46460000" lon="11.26999000">
        <ele>487.00000</ele>
        <time>2010-01-01T04:31:55Z</time>
      </trkpt>
      <trkpt lat="43.46431000" lon="11.26966000">
        <ele>483.00000</ele>
        <time>2010-01-01T04:32:10Z</time>
      </trkpt>
      <trkpt lat="43.46384000" lon="11.26929000">
        <ele>484.00000</ele>
        <time>2010-01-01T04:32:32Z</time>
      </trkpt>
      <trkpt lat="43.46296000" lon="11.26807000">
        <ele>485.00000</ele>
        <time>2010-01-01T04:33:22Z</time>
      </trkpt>
      <trkpt lat="43.46256000" lon="11.26746000">
        <ele>482.00000</ele>
        <time>2010-01-01T04:33:46Z</time>
      </trkpt>
      <trkpt lat="43.46246000" lon="11.26702000">
        <ele>477.00000</ele>
        <time>2010-01-01T04:33:59Z</time>
      </trkpt>
      <trkpt lat="43.46249000" lon="11.26651000">
        <ele>473.00000</ele>
        <time>2010-01-01T04:34:14Z</time>
      </trkpt>
      <trkpt lat="43.46259000" lon="11.26599000">
        <ele>469.00000</ele>
        <time>2010-01-01T04:34:30Z</time>
      </trkpt>
      <trkpt lat="43.46253000" lon="11.26537000">
        <ele>462.00000</ele>
        <time>2010-01-01T04:34:48Z</time>
      </trkpt>
      <trkpt lat="43.46255000" lon="11.26471000">
        <ele>458.00000</ele>
        <time>2010-01-01T04:35:07Z</time>
      </trkpt>
      <trkpt lat="43.46246000" lon="11.26436000">
        <ele>455.00000</ele>
        <time>2010-01-01T04:35:18Z</time>
      </trkpt>
      <trkpt lat="43.46208000" lon="11.26389000">
        <ele>449.00000</ele>
        <time>2010-01-01T04:35:38Z</time>
      </trkpt>
      <trkpt lat="43.46180000" lon="11.26343000">
        <ele>445.00000</ele>
        <time>2010-01-01T04:35:56Z</time>
      </trkpt>
      <trkpt lat="43.46153000" lon="11.26294000">
        <ele>440.00000</ele>
        <time>2010-01-01T04:36:14Z</time>
      </trkpt>
      <trkpt lat="43.46133000" lon="11.26204000">
        <ele>433.00000</ele>
        <time>2010-01-01T04:36:41Z</time>
      </trkpt>
      <trkpt lat="43.46139000" lon="11.26169000">
        <ele>432.00000</ele>
        <time>2010-01-01T04:36:51Z</time>
      </trkpt>
      <trkpt lat="43.46148000" lon="11.26152000">
        <ele>431.00000</ele>
        <time>2010-01-01T04:36:58Z</time>
      </trkpt>
      <trkpt lat="43.46224000" lon="11.26139000">
        <ele>427.00000</ele>
        <time>2010-01-01T04:37:28Z</time>
      </trkpt>
      <trkpt lat="43.46255000" lon="11.26125000">
        <ele>425.00000</ele>
        <time>2010-01-01T04:37:41Z</time>
      </trkpt>
      <trkpt lat="43.46266000" lon="11.26081000">
        <ele>420.00000</ele>
        <time>2010-01-01T04:37:55Z</time>
      </trkpt>
      <trkpt lat="43.46263000" lon="11.26043000">
        <ele>416.00000</ele>
        <time>2010-01-01T04:38:06Z</time>
      </trkpt>
      <trkpt lat="43.46224000" lon="11.25919000">
        <ele>403.00000</ele>
        <time>2010-01-01T04:38:45Z</time>
      </trkpt>
      <trkpt lat="43.46224000" lon="11.25894000">
        <ele>405.00000</ele>
        <time>2010-01-01T04:38:52Z</time>
      </trkpt>
      <trkpt lat="43.46229000" lon="11.25873000">
        <ele>406.00000</ele>
        <time>2010-01-01T04:38:59Z</time>
      </trkpt>
      <trkpt lat="43.46238110" lon="11.25858840">
        <ele>406.00000</ele>
        <time>2010-01-01T04:39:04Z</time>
      </trkpt>
      <trkpt lat="43.46248000" lon="11.25840000">
        <ele>406.00000</ele>
        <time>2010-01-01T04:39:11Z</time>
      </trkpt>
      <trkpt lat="43.46252000" lon="11.25795000">
        <ele>408.00000</ele>
        <time>2010-01-01T04:39:24Z</time>
      </trkpt>
      <trkpt lat="43.46266000" lon="11.25735000">
        <ele>403.00000</ele>
        <time>2010-01-01T04:39:43Z</time>
      </trkpt>
      <trkpt lat="43.46308000" lon="11.25635000">
        <ele>388.00000</ele>
        <time>2010-01-01T04:40:16Z</time>
      </trkpt>
      <trkpt lat="43.46318000" lon="11.25520000">
        <ele>372.00000</ele>
        <time>2010-01-01T04:40:50Z</time>
      </trkpt>
      <trkpt lat="43.46321000" lon="11.25397000">
        <ele>362.00000</ele>
        <time>2010-01-01T04:41:26Z</time>
      </trkpt>
      <trkpt lat="43.46308000" lon="11.25357000">
        <ele>356.00000</ele>
        <time>2010-01-01T04:41:38Z</time>
      </trkpt>
      <trkpt lat="43.46287000" lon="11.25331000">
        <ele>356.00000</ele>
        <time>2010-01-01T04:41:50Z</time>
      </trkpt>
      <trkpt lat="43.46278000" lon="11.25306000">
        <ele>355.00000</ele>
        <time>2010-01-01T04:41:58Z</time>
      </trkpt>
      <trkpt lat="43.46296000" lon="11.25252000">
        <ele>348.00000</ele>
        <time>2010-01-01T04:42:15Z</time>
      </trkpt>
      <trkpt lat="43.46297000" lon="11.25186000">
        <ele>350.00000</ele>
        <time>2010-01-01T04:42:34Z</time>
      </trkpt>
      <trkpt lat="43.46288000" lon="11.25155000">
        <ele>351.00000</ele>
        <time>2010-01-01T04:42:44Z</time>
      </trkpt>
      <trkpt lat="43.46264000" lon="11.25109000">
        <ele>351.00000</ele>
        <time>2010-01-01T04:43:00Z</time>
      </trkpt>
      <trkpt lat="43.46211000" lon="11.25044000">
        <ele>347.00000</ele>
        <time>2010-01-01T04:43:29Z</time>
      </trkpt>
      <trkpt lat="43.46180000" lon="11.25015000">
        <ele>346.00000</ele>
        <time>2010-01-01T04:43:44Z</time>
      </trkpt>
      <trkpt lat="43.46136000" lon="11.24991000">
        <ele>346.00000</ele>
        <time>2010-01-01T04:44:03Z</time>
      </trkpt>
      <trkpt lat="43.46102000" lon="11.24959000">
        <ele>342.00000</ele>
        <time>2010-01-01T04:44:19Z</time>
      </trkpt>
      <trkpt lat="43.46039000" lon="11.24847000">
        <ele>333.00000</ele>
        <time>2010-01-01T04:45:00Z</time>
      </trkpt>
      <trkpt lat="43.46006000" lon="11.24752000">
        <ele>336.00000</ele>
        <time>2010-01-01T04:45:31Z</time>
      </trkpt>
      <trkpt lat="43.46003000" lon="11.24709000">
        <ele>332.00000</ele>
        <time>2010-01-01T04:45:43Z</time>
      </trkpt>
      <trkpt lat="43.45980000" lon="11.24633000">
        <ele>328.00000</ele>
        <time>2010-01-01T04:46:07Z</time>
      </trkpt>
      <trkpt lat="43.45961000" lon="11.24605000">
        <ele>326.00000</ele>
        <time>2010-01-01T04:46:19Z</time>
      </trkpt>
      <trkpt lat="43.45941000" lon="11.24587000">
        <ele>326.00000</ele>
        <time>2010-01-01T04:46:28Z</time>
      </trkpt>
      <trkpt lat="43.45891000" lon="11.24466000">
        <ele>313.00000</ele>
        <time>2010-01-01T04:47:09Z</time>
      </trkpt>
      <trkpt lat="43.45866000" lon="11.24437000">
        <ele>310.00000</ele>
        <time>2010-01-01T04:47:22Z</time>
      </trkpt>
      <trkpt lat="43.45842000" lon="11.24402000">
        <ele>305.00000</ele>
        <time>2010-01-01T04:47:36Z</time>
      </trkpt>
      <trkpt lat="43.45805000" lon="11.24282000">
        <ele>307.00000</ele>
        <time>2010-01-01T04:48:13Z</time>
      </trkpt>
      <trkpt lat="43.45813000" lon="11.24225000">
        <ele>307.00000</ele>
        <time>2010-01-01T04:48:30Z</time>
      </trkpt>
      <trkpt lat="43.45823000" lon="11.24208000">
        <ele>304.00000</ele>
        <time>2010-01-01T04:48:37Z</time>
      </trkpt>
      <trkpt lat="43.45838000" lon="11.24211000">
        <ele>301.00000</ele>
        <time>2010-01-01T04:48:43Z</time>
      </trkpt>
      <trkpt lat="43.45870000" lon="11.24247000">
        <ele>294.00000</ele>
        <time>2010-01-01T04:48:59Z</time>
      </trkpt>
      <trkpt lat="43.45882000" lon="11.24244000">
        <ele>291.00000</ele>
        <time>2010-01-01T04:49:04Z</time>
      </trkpt>
      <trkpt lat="43.45888000" lon="11.24232000">
        <ele>290.00000</ele>
        <time>2010-01-01T04:49:08Z</time>
      </trkpt>
      <trkpt lat="43.45891000" lon="11.24207000">
        <ele>288.00000</ele>
        <time>2010-01-01T04:49:16Z</time>
      </trkpt>
      <trkpt lat="43.45904000" lon="11.24194000">
        <ele>282.00000</ele>
        <time>2010-01-01T04:49:22Z</time>
      </trkpt>
      <trkpt lat="43.45914000" lon="11.24195000">
        <ele>279.00000</ele>
        <time>2010-01-01T04:49:26Z</time>
      </trkpt>
      <trkpt lat="43.45943000" lon="11.24220000">
        <ele>275.00000</ele>
        <time>2010-01-01T04:49:40Z</time>
      </trkpt>
      <trkpt lat="43.45973000" lon="11.24225000">
        <ele>267.00000</ele>
        <time>2010-01-01T04:49:52Z</time>
      </trkpt>
      <trkpt lat="43.45996000" lon="11.24230000">
        <ele>264.00000</ele>
        <time>2010-01-01T04:50:01Z</time>
      </trkpt>
      <trkpt lat="43.46012000" lon="11.24248000">
        <ele>263.00000</ele>
        <time>2010-01-01T04:50:10Z</time>
      </trkpt>
      <trkpt lat="43.46019000" lon="11.24247000">
        <ele>262.00000</ele>
        <time>2010-01-01T04:50:12Z</time>
      </trkpt>
      <trkpt lat="43.46025000" lon="11.24229000">
        <ele>259.00000</ele>
        <time>2010-01-01T04:50:18Z</time>
      </trkpt>
      <trkpt lat="43.46024000" lon="11.24186000">
        <ele>256.00000</ele>
        <time>2010-01-01T04:50:31Z</time>
      </trkpt>
      <trkpt lat="43.46027000" lon="11.24159000">
        <ele>254.00000</ele>
        <time>2010-01-01T04:50:39Z</time>
      </trkpt>
      <trkpt lat="43.46045000" lon="11.24130000">
        <ele>252.00000</ele>
        <time>2010-01-01T04:50:50Z</time>
      </trkpt>
      <trkpt lat="43.46069000" lon="11.24072000">
        <ele>251.00000</ele>
        <time>2010-01-01T04:51:09Z</time>
      </trkpt>
      <trkpt lat="43.46065000" lon="11.24054000">
        <ele>252.00000</ele>
        <time>2010-01-01T04:51:15Z</time>
      </trkpt>
      <trkpt lat="43.46026000" lon="11.23989000">
        <ele>259.00000</ele>
        <time>2010-01-01T04:51:39Z</time>
      </trkpt>
      <trkpt lat="43.45996000" lon="11.23966000">
        <ele>261.00000</ele>
        <time>2010-01-01T04:51:53Z</time>
      </trkpt>
      <trkpt lat="43.45959000" lon="11.23901000">
        <ele>271.00000</ele>
        <time>2010-01-01T04:52:17Z</time>
      </trkpt>
      <trkpt lat="43.45943000" lon="11.23860000">
        <ele>272.00000</ele>
        <time>2010-01-01T04:52:30Z</time>
      </trkpt>
      <trkpt lat="43.45944000" lon="11.23827000">
        <ele>273.00000</ele>
        <time>2010-01-01T04:52:40Z</time>
      </trkpt>
      <trkpt lat="43.45957000" lon="11.23797000">
        <ele>275.00000</ele>
        <time>2010-01-01T04:52:50Z</time>
      </trkpt>
      <trkpt lat="43.45969000" lon="11.23790000">
        <ele>277.00000</ele>
        <time>2010-01-01T04:52:55Z</time>
      </trkpt>
      <trkpt lat="43.46024000" lon="11.23797000">
        <ele>281.00000</ele>
        <time>2010-01-01T04:53:17Z</time>
      </trkpt>
      <trkpt lat="43.46154000" lon="11.23686000">
        <ele>293.00000</ele>
        <time>2010-01-01T04:54:19Z</time>
      </trkpt>
      <trkpt lat="43.46167000" lon="11.23664000">
        <ele>296.00000</ele>
        <time>2010-01-01T04:54:27Z</time>
      </trkpt>
      <trkpt lat="43.46190000" lon="11.23511000">
        <ele>296.00000</ele>
        <time>2010-01-01T04:55:12Z</time>
      </trkpt>
      <trkpt lat="43.46187000" lon="11.23479000">
        <ele>294.00000</ele>
        <time>2010-01-01T04:55:22Z</time>
      </trkpt>
      <trkpt lat="43.46145000" lon="11.23423000">
        <ele>289.00000</ele>
        <time>2010-01-01T04:55:45Z</time>
      </trkpt>
      <trkpt lat="43.46118000" lon="11.23367000">
        <ele>286.00000</ele>
        <time>2010-01-01T04:56:05Z</time>
      </trkpt>
      <trkpt lat="43.46013440" lon="11.22933620">
        <ele>271.00000</ele>
        <time>2010-01-01T04:58:17Z</time>
      </trkpt>
      <trkpt lat="43.46000000" lon="11.22811000">
        <ele>274.00000</ele>
        <time>2010-01-01T04:58:53Z</time>
      </trkpt>
      <trkpt lat="43.45993000" lon="11.22774000">
        <ele>277.00000</ele>
        <time>2010-01-01T04:59:04Z</time>
      </trkpt>
      <trkpt lat="43.45985000" lon="11.22759000">
        <ele>278.00000</ele>
        <time>2010-01-01T04:59:10Z</time>
      </trkpt>
      <trkpt lat="43.45975000" lon="11.22748000">
        <ele>279.00000</ele>
        <time>2010-01-01T04:59:15Z</time>
      </trkpt>
      <trkpt lat="43.45970000" lon="11.22734000">
        <ele>280.00000</ele>
        <time>2010-01-01T04:59:20Z</time>
      </trkpt>
      <trkpt lat="43.45974000" lon="11.22679000">
        <ele>280.00000</ele>
        <time>2010-01-01T04:59:36Z</time>
      </trkpt>
      <trkpt lat="43.45971000" lon="11.22647000">
        <ele>281.00000</ele>
        <time>2010-01-01T04:59:45Z</time>
      </trkpt>
      <trkpt lat="43.45923000" lon="11.22529000">
        <ele>274.00000</ele>
        <time>2010-01-01T05:00:24Z</time>
      </trkpt>
      <trkpt lat="43.45898000" lon="11.22443000">
        <ele>269.00000</ele>
        <time>2010-01-01T05:00:51Z</time>
      </trkpt>
      <trkpt lat="43.45758000" lon="11.22151000">
        <ele>266.00000</ele>
        <time>2010-01-01T05:02:33Z</time>
      </trkpt>
      <trkpt lat="43.45714000" lon="11.22016000">
        <ele>263.00000</ele>
        <time>2010-01-01T05:03:16Z</time>
      </trkpt>
      <trkpt lat="43.45695000" lon="11.21974000">
        <ele>260.00000</ele>
        <time>2010-01-01T05:03:30Z</time>
      </trkpt>
      <trkpt lat="43.45589000" lon="11.21879000">
        <ele>261.00000</ele>
        <time>2010-01-01T05:04:21Z</time>
      </trkpt>
      <trkpt lat="43.45547000" lon="11.21860000">
        <ele>266.00000</ele>
        <time>2010-01-01T05:04:39Z</time>
      </trkpt>
      <trkpt lat="43.45521000" lon="11.21837000">
        <ele>266.00000</ele>
        <time>2010-01-01T05:04:51Z</time>
      </trkpt>
      <trkpt lat="43.45456000" lon="11.21761000">
        <ele>258.00000</ele>
        <time>2010-01-01T05:05:25Z</time>
      </trkpt>
      <trkpt lat="43.45436000" lon="11.21741000">
        <ele>255.00000</ele>
        <time>2010-01-01T05:05:35Z</time>
      </trkpt>
      <trkpt lat="43.45385350" lon="11.21741650">
        <ele>250.00000</ele>
        <time>2010-01-01T05:05:55Z</time>
      </trkpt>
      <trkpt lat="43.45301000" lon="11.21687000">
        <ele>242.00000</ele>
        <time>2010-01-01T05:06:33Z</time>
      </trkpt>
      <trkpt lat="43.45286000" lon="11.21671000">
        <ele>241.00000</ele>
        <time>2010-01-01T05:06:40Z</time>
      </trkpt>
      <trkpt lat="43.45250000" lon="11.21604000">
        <ele>239.00000</ele>
        <time>2010-01-01T05:07:04Z</time>
      </trkpt>
      <trkpt lat="43.45221000" lon="11.21534000">
        <ele>237.00000</ele>
        <time>2010-01-01T05:07:28Z</time>
      </trkpt>
      <trkpt lat="43.45211000" lon="11.21478000">
        <ele>234.00000</ele>
        <time>2010-01-01T05:07:45Z</time>
      </trkpt>
      <trkpt lat="43.45205000" lon="11.21335000">
        <ele>224.00000</ele>
        <time>2010-01-01T05:08:26Z</time>
      </trkpt>
      <trkpt lat="43.45197000" lon="11.21252000">
        <ele>222.00000</ele>
        <time>2010-01-01T05:08:50Z</time>
      </trkpt>
      <trkpt lat="43.45162000" lon="11.21127000">
        <ele>213.00000</ele>
        <time>2010-01-01T05:09:29Z</time>
      </trkpt>
      <trkpt lat="43.45159000" lon="11.21107000">
        <ele>211.00000</ele>
        <time>2010-01-01T05:09:35Z</time>
      </trkpt>
      <trkpt lat="43.45159000" lon="11.21085000">
        <ele>211.00000</ele>
        <time>2010-01-01T05:09:42Z</time>
      </trkpt>
      <trkpt lat="43.45154000" lon="11.21056000">
        <ele>209.00000</ele>
        <time>2010-01-01T05:09:50Z</time>
      </trkpt>
      <trkpt lat="43.45136000" lon="11.20970000">
        <ele>201.00000</ele>
        <time>2010-01-01T05:10:16Z</time>
      </trkpt>
      <trkpt lat="43.45138000" lon="11.20932000">
        <ele>201.00000</ele>
        <time>2010-01-01T05:10:27Z</time>
      </trkpt>
      <trkpt lat="43.45144000" lon="11.20902000">
        <ele>202.00000</ele>
        <time>2010-01-01T05:10:37Z</time>
      </trkpt>
      <trkpt lat="43.45145000" lon="11.20852000">
        <ele>197.00000</ele>
        <time>2010-01-01T05:10:51Z</time>
      </trkpt>
      <trkpt lat="43.45136000" lon="11.20785000">
        <ele>190.00000</ele>
        <time>2010-01-01T05:11:11Z</time>
      </trkpt>
      <trkpt lat="43.45130000" lon="11.20761000">
        <ele>187.00000</ele>
        <time>2010-01-01T05:11:18Z</time>
      </trkpt>
      <trkpt lat="43.45097000" lon="11.20667000">
        <ele>179.00000</ele>
        <time>2010-01-01T05:11:49Z</time>
      </trkpt>
      <trkpt lat="43.45091000" lon="11.20642000">
        <ele>177.00000</ele>
        <time>2010-01-01T05:11:56Z</time>
      </trkpt>
      <trkpt lat="43.45084000" lon="11.20599000">
        <ele>174.00000</ele>
        <time>2010-01-01T05:12:09Z</time>
      </trkpt>
      <trkpt lat="43.45053000" lon="11.20538000">
        <ele>169.00000</ele>
        <time>2010-01-01T05:12:31Z</time>
      </trkpt>
      <trkpt lat="43.45051000" lon="11.20527000">
        <ele>168.00000</ele>
        <time>2010-01-01T05:12:34Z</time>
      </trkpt>
      <trkpt lat="43.45053000" lon="11.20518000">
        <ele>168.00000</ele>
        <time>2010-01-01T05:12:37Z</time>
      </trkpt>
      <trkpt lat="43.45099000" lon="11.20371000">
        <ele>162.00000</ele>
        <time>2010-01-01T05:13:23Z</time>
      </trkpt>
      <trkpt lat="43.45100000" lon="11.20348000">
        <ele>161.00000</ele>
        <time>2010-01-01T05:13:30Z</time>
      </trkpt>
      <trkpt lat="43.45096000" lon="11.20315000">
        <ele>159.00000</ele>
        <time>2010-01-01T05:13:40Z</time>
      </trkpt>
      <trkpt lat="43.45097000" lon="11.20299000">
        <ele>159.00000</ele>
        <time>2010-01-01T05:13:44Z</time>
      </trkpt>
      <trkpt lat="43.45109000" lon="11.20258000">
        <ele>158.00000</ele>
        <time>2010-01-01T05:13:57Z</time>
      </trkpt>
      <trkpt lat="43.45110000" lon="11.20231000">
        <ele>159.00000</ele>
        <time>2010-01-01T05:14:05Z</time>
      </trkpt>
      <trkpt lat="43.45107000" lon="11.20210000">
        <ele>160.00000</ele>
        <time>2010-01-01T05:14:11Z</time>
      </trkpt>
      <trkpt lat="43.45093000" lon="11.20175000">
        <ele>160.00000</ele>
        <time>2010-01-01T05:14:23Z</time>
      </trkpt>
      <trkpt lat="43.45086000" lon="11.20150000">
        <ele>160.00000</ele>
        <time>2010-01-01T05:14:31Z</time>
      </trkpt>
      <trkpt lat="43.45081000" lon="11.20122000">
        <ele>161.00000</ele>
        <time>2010-01-01T05:14:39Z</time>
      </trkpt>
      <trkpt lat="43.45081000" lon="11.20101000">
        <ele>162.00000</ele>
        <time>2010-01-01T05:14:45Z</time>
      </trkpt>
      <trkpt lat="43.45077000" lon="11.20083000">
        <ele>163.00000</ele>
        <time>2010-01-01T05:14:51Z</time>
      </trkpt>
      <trkpt lat="43.45055000" lon="11.20045000">
        <ele>161.00000</ele>
        <time>2010-01-01T05:15:05Z</time>
      </trkpt>
      <trkpt lat="43.45032000" lon="11.20024000">
        <ele>160.00000</ele>
        <time>2010-01-01T05:15:16Z</time>
      </trkpt>
      <trkpt lat="43.45012000" lon="11.19996000">
        <ele>159.00000</ele>
        <time>2010-01-01T05:15:27Z</time>
      </trkpt>
      <trkpt lat="43.44982000" lon="11.19936000">
        <ele>155.00000</ele>
        <time>2010-01-01T05:15:48Z</time>
      </trkpt>
      <trkpt lat="43.44976000" lon="11.19922000">
        <ele>154.00000</ele>
        <time>2010-01-01T05:15:53Z</time>
      </trkpt>
      <trkpt lat="43.44973000" lon="11.19907000">
        <ele>154.00000</ele>
        <time>2010-01-01T05:15:58Z</time>
      </trkpt>
      <trkpt lat="43.44971000" lon="11.19892000">
        <ele>153.00000</ele>
        <time>2010-01-01T05:16:02Z</time>
      </trkpt>
      <trkpt lat="43.44975000" lon="11.19859000">
        <ele>154.00000</ele>
        <time>2010-01-01T05:16:12Z</time>
      </trkpt>
      <trkpt lat="43.44980000" lon="11.19810000">
        <ele>153.00000</ele>
        <time>2010-01-01T05:16:26Z</time>
      </trkpt>
      <trkpt lat="43.44983000" lon="11.19794000">
        <ele>153.00000</ele>
        <time>2010-01-01T05:16:31Z</time>
      </trkpt>
      <trkpt lat="43.44992000" lon="11.19767000">
        <ele>154.00000</ele>
        <time>2010-01-01T05:16:40Z</time>
      </trkpt>
      <trkpt lat="43.45009000" lon="11.19727000">
        <ele>155.00000</ele>
        <time>2010-01-01T05:16:53Z</time>
      </trkpt>
      <trkpt lat="43.45011000" lon="11.19713000">
        <ele>156.00000</ele>
        <time>2010-01-01T05:16:57Z</time>
      </trkpt>
      <trkpt lat="43.45008000" lon="11.19674000">
        <ele>154.00000</ele>
        <time>2010-01-01T05:17:09Z</time>
      </trkpt>
      <trkpt lat="43.45010000" lon="11.19657000">
        <ele>153.00000</ele>
        <time>2010-01-01T05:17:14Z</time>
      </trkpt>
      <trkpt lat="43.45012000" lon="11.19645000">
        <ele>153.00000</ele>
        <time>2010-01-01T05:17:17Z</time>
      </trkpt>
      <trkpt lat="43.45020000" lon="11.19624000">
        <ele>151.00000</ele>
        <time>2010-01-01T05:17:24Z</time>
      </trkpt>
      <trkpt lat="43.45041000" lon="11.19591000">
        <ele>150.00000</ele>
        <time>2010-01-01T05:17:37Z</time>
      </trkpt>
      <trkpt lat="43.45046000" lon="11.19575000">
        <ele>150.00000</ele>
        <time>2010-01-01T05:17:42Z</time>
      </trkpt>
      <trkpt lat="43.45048000" lon="11.19554000">
        <ele>149.00000</ele>
        <time>2010-01-01T05:17:48Z</time>
      </trkpt>
      <trkpt lat="43.45045000" lon="11.19479000">
        <ele>147.00000</ele>
        <time>2010-01-01T05:18:10Z</time>
      </trkpt>
      <trkpt lat="43.45041000" lon="11.19386000">
        <ele>144.00000</ele>
        <time>2010-01-01T05:18:37Z</time>
      </trkpt>
      <trkpt lat="43.45049000" lon="11.19258000">
        <ele>143.00000</ele>
        <time>2010-01-01T05:19:14Z</time>
      </trkpt>
      <trkpt lat="43.45040000" lon="11.19204000">
        <ele>142.00000</ele>
        <time>2010-01-01T05:19:30Z</time>
      </trkpt>
      <trkpt lat="43.45015000" lon="11.19125000">
        <ele>142.00000</ele>
        <time>2010-01-01T05:19:55Z</time>
      </trkpt>
      <trkpt lat="43.45001000" lon="11.19067000">
        <ele>141.00000</ele>
        <time>2010-01-01T05:20:13Z</time>
      </trkpt>
      <trkpt lat="43.44999000" lon="11.19044000">
        <ele>141.00000</ele>
        <time>2010-01-01T05:20:20Z</time>
      </trkpt>
      <trkpt lat="43.45000000" lon="11.19043000">
        <ele>142.00000</ele>
        <time>2010-01-01T05:20:20Z</time>
      </trkpt>
      <trkpt lat="43.45006000" lon="11.19019000">
        <ele>142.00000</ele>
        <time>2010-01-01T05:20:28Z</time>
      </trkpt>
      <trkpt lat="43.45020000" lon="11.18962000">
        <ele>146.00000</ele>
        <time>2010-01-01T05:20:45Z</time>
      </trkpt>
      <trkpt lat="43.45020000" lon="11.18929000">
        <ele>147.00000</ele>
        <time>2010-01-01T05:20:55Z</time>
      </trkpt>
      <trkpt lat="43.45022000" lon="11.18915000">
        <ele>148.00000</ele>
        <time>2010-01-01T05:20:59Z</time>
      </trkpt>
      <trkpt lat="43.45039000" lon="11.18866000">
        <ele>150.00000</ele>
        <time>2010-01-01T05:21:15Z</time>
      </trkpt>
      <trkpt lat="43.45049000" lon="11.18826000">
        <ele>151.00000</ele>
        <time>2010-01-01T05:21:27Z</time>
      </trkpt>
      <trkpt lat="43.45073000" lon="11.18770000">
        <ele>155.00000</ele>
        <time>2010-01-01T05:21:46Z</time>
      </trkpt>
      <trkpt lat="43.45083000" lon="11.18738000">
        <ele>155.00000</ele>
        <time>2010-01-01T05:21:56Z</time>
      </trkpt>
      <trkpt lat="43.45091000" lon="11.18657000">
        <ele>152.00000</ele>
        <time>2010-01-01T05:22:20Z</time>
      </trkpt>
      <trkpt lat="43.45069000" lon="11.18529000">
        <ele>147.00000</ele>
        <time>2010-01-01T05:22:58Z</time>
      </trkpt>
      <trkpt lat="43.45066000" lon="11.18475000">
        <ele>145.00000</ele>
        <time>2010-01-01T05:23:14Z</time>
      </trkpt>
      <trkpt lat="43.45070000" lon="11.18418000">
        <ele>144.00000</ele>
        <time>2010-01-01T05:23:30Z</time>
      </trkpt>
      <trkpt lat="43.45065000" lon="11.18352000">
        <ele>144.00000</ele>
        <time>2010-01-01T05:23:50Z</time>
      </trkpt>
      <trkpt lat="43.45049000" lon="11.18226000">
        <ele>140.00000</ele>
        <time>2010-01-01T05:24:27Z</time>
      </trkpt>
      <trkpt lat="43.45052000" lon="11.18108000">
        <ele>136.00000</ele>
        <time>2010-01-01T05:25:01Z</time>
      </trkpt>
      <trkpt lat="43.45052000" lon="11.17993000">
        <ele>135.00000</ele>
        <time>2010-01-01T05:25:35Z</time>
      </trkpt>
      <trkpt lat="43.45068000" lon="11.17913000">
        <ele>131.00000</ele>
        <time>2010-01-01T05:25:59Z</time>
      </trkpt>
      <trkpt lat="43.45087000" lon="11.17865000">
        <ele>130.00000</ele>
        <time>2010-01-01T05:26:15Z</time>
      </trkpt>
      <trkpt lat="43.44992000" lon="11.17942000">
        <ele>126.00000</ele>
        <time>2010-01-01T05:26:59Z</time>
      </trkpt>
      <trkpt lat="43.44941000" lon="11.17950000">
        <ele>125.00000</ele>
        <time>2010-01-01T05:27:19Z</time>
      </trkpt>
      <trkpt lat="43.44925000" lon="11.17958000">
        <ele>125.00000</ele>
        <time>2010-01-01T05:27:26Z</time>
      </trkpt>
      <trkpt lat="43.44879000" lon="11.17999000">
        <ele>127.00000</ele>
        <time>2010-01-01T05:27:48Z</time>
      </trkpt>
      <trkpt lat="43.44825000" lon="11.18036000">
        <ele>128.00000</ele>
        <time>2010-01-01T05:28:12Z</time>
      </trkpt>
      <trkpt lat="43.44741000" lon="11.18125000">
        <ele>126.00000</ele>
        <time>2010-01-01T05:28:55Z</time>
      </trkpt>
      <trkpt lat="43.44679000" lon="11.18197000">
        <ele>130.00000</ele>
        <time>2010-01-01T05:29:27Z</time>
      </trkpt>
      <trkpt lat="43.44642000" lon="11.18234000">
        <ele>134.00000</ele>
        <time>2010-01-01T05:29:45Z</time>
      </trkpt>
      <trkpt lat="43.44633000" lon="11.18261000">
        <ele>137.00000</ele>
        <time>2010-01-01T05:29:54Z</time>
      </trkpt>
      <trkpt lat="43.44625000" lon="11.18260000">
        <ele>136.00000</ele>
        <time>2010-01-01T05:29:57Z</time>
      </trkpt>
      <trkpt lat="43.44608000" lon="11.18251000">
        <ele>134.00000</ele>
        <time>2010-01-01T05:30:05Z</time>
      </trkpt>
      <trkpt lat="43.44573000" lon="11.18213000">
        <ele>133.00000</ele>
        <time>2010-01-01T05:30:22Z</time>
      </trkpt>
      <trkpt lat="43.44559000" lon="11.18207000">
        <ele>133.00000</ele>
        <time>2010-01-01T05:30:28Z</time>
      </trkpt>
      <trkpt lat="43.44548000" lon="11.18210000">
        <ele>134.00000</ele>
        <time>2010-01-01T05:30:33Z</time>
      </trkpt>
      <trkpt lat="43.44483000" lon="11.18287000">
        <ele>141.00000</ele>
        <time>2010-01-01T05:31:07Z</time>
      </trkpt>
      <trkpt lat="43.44471000" lon="11.18289000">
        <ele>145.00000</ele>
        <time>2010-01-01T05:31:12Z</time>
      </trkpt>
      <trkpt lat="43.44450000" lon="11.18278000">
        <ele>149.00000</ele>
        <time>2010-01-01T05:31:21Z</time>
      </trkpt>
      <trkpt lat="43.44440000" lon="11.18257000">
        <ele>150.00000</ele>
        <time>2010-01-01T05:31:28Z</time>
      </trkpt>
      <trkpt lat="43.44431000" lon="11.18216000">
        <ele>151.00000</ele>
        <time>2010-01-01T05:31:41Z</time>
      </trkpt>
      <trkpt lat="43.44403000" lon="11.18182000">
        <ele>154.00000</ele>
        <time>2010-01-01T05:31:56Z</time>
      </trkpt>
      <trkpt lat="43.44396000" lon="11.18164000">
        <ele>155.00000</ele>
        <time>2010-01-01T05:32:02Z</time>
      </trkpt>
      <trkpt lat="43.44393000" lon="11.18124000">
        <ele>158.00000</ele>
        <time>2010-01-01T05:32:13Z</time>
      </trkpt>
      <trkpt lat="43.44390000" lon="11.18101000">
        <ele>160.00000</ele>
        <time>2010-01-01T05:32:20Z</time>
      </trkpt>
      <trkpt lat="43.44340000" lon="11.17979000">
        <ele>174.00000</ele>
        <time>2010-01-01T05:33:01Z</time>
      </trkpt>
      <trkpt lat="43.44332000" lon="11.17921000">
        <ele>181.00000</ele>
        <time>2010-01-01T05:33:18Z</time>
      </trkpt>
      <trkpt lat="43.44326000" lon="11.17912000">
        <ele>182.00000</ele>
        <time>2010-01-01T05:33:21Z</time>
      </trkpt>
      <trkpt lat="43.44319000" lon="11.17910000">
        <ele>184.00000</ele>
        <time>2010-01-01T05:33:24Z</time>
      </trkpt>
      <trkpt lat="43.44300000" lon="11.17924000">
        <ele>186.00000</ele>
        <time>2010-01-01T05:33:33Z</time>
      </trkpt>
      <trkpt lat="43.44294000" lon="11.17923000">
        <ele>185.00000</ele>
        <time>2010-01-01T05:33:35Z</time>
      </trkpt>
      <trkpt lat="43.44288000" lon="11.17913000">
        <ele>185.00000</ele>
        <time>2010-01-01T05:33:39Z</time>
      </trkpt>
      <trkpt lat="43.44282000" lon="11.17951000">
        <ele>183.00000</ele>
        <time>2010-01-01T05:33:50Z</time>
      </trkpt>
      <trkpt lat="43.44245000" lon="11.17999000">
        <ele>179.00000</ele>
        <time>2010-01-01T05:34:11Z</time>
      </trkpt>
      <trkpt lat="43.44126000" lon="11.18141000">
        <ele>182.00000</ele>
        <time>2010-01-01T05:35:14Z</time>
      </trkpt>
      <trkpt lat="43.43935000" lon="11.18481000">
        <ele>192.00000</ele>
        <time>2010-01-01T05:37:19Z</time>
      </trkpt>
      <trkpt lat="43.43877000" lon="11.18559000">
        <ele>199.00000</ele>
        <time>2010-01-01T05:37:51Z</time>
      </trkpt>
      <trkpt lat="43.43772000" lon="11.18576000">
        <ele>208.00000</ele>
        <time>2010-01-01T05:38:33Z</time>
      </trkpt>
      <trkpt lat="43.43742000" lon="11.18568000">
        <ele>205.00000</ele>
        <time>2010-01-01T05:38:46Z</time>
      </trkpt>
      <trkpt lat="43.43644000" lon="11.18521000">
        <ele>189.00000</ele>
        <time>2010-01-01T05:39:27Z</time>
      </trkpt>
      <trkpt lat="43.43562590" lon="11.18507980">
        <ele>185.00000</ele>
        <time>2010-01-01T05:40:00Z</time>
      </trkpt>
      <trkpt lat="43.43484000" lon="11.18492000">
        <ele>181.00000</ele>
        <time>2010-01-01T05:40:32Z</time>
      </trkpt>
      <trkpt lat="43.43221000" lon="11.18385000">
        <ele>166.00000</ele>
        <time>2010-01-01T05:42:22Z</time>
      </trkpt>
      <trkpt lat="43.43135000" lon="11.18364000">
        <ele>155.00000</ele>
        <time>2010-01-01T05:42:57Z</time>
      </trkpt>
      <trkpt lat="43.43120000" lon="11.18347000">
        <ele>156.00000</ele>
        <time>2010-01-01T05:43:04Z</time>
      </trkpt>
      <trkpt lat="43.43111000" lon="11.18326000">
        <ele>157.00000</ele>
        <time>2010-01-01T05:43:11Z</time>
      </trkpt>
      <trkpt lat="43.43097000" lon="11.18250000">
        <ele>166.00000</ele>
        <time>2010-01-01T05:43:34Z</time>
      </trkpt>
      <trkpt lat="43.43093000" lon="11.18185000">
        <ele>167.00000</ele>
        <time>2010-01-01T05:43:53Z</time>
      </trkpt>
      <trkpt lat="43.43086000" lon="11.18165000">
        <ele>168.00000</ele>
        <time>2010-01-01T05:44:00Z</time>
      </trkpt>
      <trkpt lat="43.43021000" lon="11.18088000">
        <ele>165.00000</ele>
        <time>2010-01-01T05:44:34Z</time>
      </trkpt>
      <trkpt lat="43.43006000" lon="11.18085000">
        <ele>164.00000</ele>
        <time>2010-01-01T05:44:40Z</time>
      </trkpt>
      <trkpt lat="43.42966000" lon="11.18105000">
        <ele>166.00000</ele>
        <time>2010-01-01T05:44:57Z</time>
      </trkpt>
      <trkpt lat="43.42936000" lon="11.18110000">
        <ele>164.00000</ele>
        <time>2010-01-01T05:45:09Z</time>
      </trkpt>
      <trkpt lat="43.42916000" lon="11.18102000">
        <ele>161.00000</ele>
        <time>2010-01-01T05:45:18Z</time>
      </trkpt>
      <trkpt lat="43.42890000" lon="11.18063000">
        <ele>156.00000</ele>
        <time>2010-01-01T05:45:33Z</time>
      </trkpt>
      <trkpt lat="43.42873850" lon="11.18052540">
        <ele>155.00000</ele>
        <time>2010-01-01T05:45:40Z</time>
      </trkpt>
      <trkpt lat="43.42860000" lon="11.18061000">
        <ele>155.00000</ele>
        <time>2010-01-01T05:45:46Z</time>
      </trkpt>
      <trkpt lat="43.42805000" lon="11.18171000">
        <ele>153.00000</ele>
        <time>2010-01-01T05:46:25Z</time>
      </trkpt>
      <trkpt lat="43.42790000" lon="11.18178000">
        <ele>151.00000</ele>
        <time>2010-01-01T05:46:31Z</time>
      </trkpt>
      <trkpt lat="43.42759000" lon="11.18162000">
        <ele>148.00000</ele>
        <time>2010-01-01T05:46:45Z</time>
      </trkpt>
      <trkpt lat="43.42743000" lon="11.18165000">
        <ele>147.00000</ele>
        <time>2010-01-01T05:46:51Z</time>
      </trkpt>
      <trkpt lat="43.42715000" lon="11.18186000">
        <ele>147.00000</ele>
        <time>2010-01-01T05:47:04Z</time>
      </trkpt>
      <trkpt lat="43.42655000" lon="11.18208000">
        <ele>144.00000</ele>
        <time>2010-01-01T05:47:29Z</time>
      </trkpt>
      <trkpt lat="43.42621000" lon="11.18210000">
        <ele>140.00000</ele>
        <time>2010-01-01T05:47:42Z</time>
      </trkpt>
      <trkpt lat="43.42596000" lon="11.18208000">
        <ele>141.00000</ele>
        <time>2010-01-01T05:47:52Z</time>
      </trkpt>
      <trkpt lat="43.42581000" lon="11.18216000">
        <ele>142.00000</ele>
        <time>2010-01-01T05:47:59Z</time>
      </trkpt>
      <trkpt lat="43.42529000" lon="11.18326000">
        <ele>149.00000</ele>
        <time>2010-01-01T05:48:37Z</time>
      </trkpt>
      <trkpt lat="43.42517000" lon="11.18333000">
        <ele>150.00000</ele>
        <time>2010-01-01T05:48:42Z</time>
      </trkpt>
      <trkpt lat="43.42476000" lon="11.18287000">
        <ele>162.00000</ele>
        <time>2010-01-01T05:49:03Z</time>
      </trkpt>
      <trkpt lat="43.42456210" lon="11.18244050">
        <ele>163.00000</ele>
        <time>2010-01-01T05:49:18Z</time>
      </trkpt>
      <trkpt lat="43.42392310" lon="11.18223660">
        <ele>167.00000</ele>
        <time>2010-01-01T05:49:44Z</time>
      </trkpt>
      <trkpt lat="43.42456000" lon="11.18119000">
        <ele>163.00000</ele>
        <time>2010-01-01T05:50:24Z</time>
      </trkpt>
      <trkpt lat="43.42436000" lon="11.18124000">
        <ele>164.00000</ele>
        <time>2010-01-01T05:50:32Z</time>
      </trkpt>
      <trkpt lat="43.42346000" lon="11.18133000">
        <ele>169.00000</ele>
        <time>2010-01-01T05:51:08Z</time>
      </trkpt>
      <trkpt lat="43.42328000" lon="11.18141000">
        <ele>170.00000</ele>
        <time>2010-01-01T05:51:16Z</time>
      </trkpt>
      <trkpt lat="43.42234000" lon="11.18160000">
        <ele>171.00000</ele>
        <time>2010-01-01T05:51:54Z</time>
      </trkpt>
      <trkpt lat="43.42201000" lon="11.18204000">
        <ele>173.00000</ele>
        <time>2010-01-01T05:52:12Z</time>
      </trkpt>
      <trkpt lat="43.42106000" lon="11.17951000">
        <ele>181.00000</ele>
        <time>2010-01-01T05:53:35Z</time>
      </trkpt>
      <trkpt lat="43.42099000" lon="11.17912000">
        <ele>183.00000</ele>
        <time>2010-01-01T05:53:47Z</time>
      </trkpt>
      <trkpt lat="43.42089000" lon="11.17686000">
        <ele>197.00000</ele>
        <time>2010-01-01T05:54:53Z</time>
      </trkpt>
      <trkpt lat="43.42074000" lon="11.17621000">
        <ele>205.00000</ele>
        <time>2010-01-01T05:55:12Z</time>
      </trkpt>
      <trkpt lat="43.42036000" lon="11.17515000">
        <ele>217.00000</ele>
        <time>2010-01-01T05:55:47Z</time>
      </trkpt>
      <trkpt lat="43.42019000" lon="11.17407000">
        <ele>228.00000</ele>
        <time>2010-01-01T05:56:19Z</time>
      </trkpt>
      <trkpt lat="43.42022000" lon="11.17251000">
        <ele>239.00000</ele>
        <time>2010-01-01T05:57:04Z</time>
      </trkpt>
      <trkpt lat="43.42017000" lon="11.17172000">
        <ele>242.00000</ele>
        <time>2010-01-01T05:57:27Z</time>
      </trkpt>
      <trkpt lat="43.41970000" lon="11.16868000">
        <ele>240.00000</ele>
        <time>2010-01-01T05:58:58Z</time>
      </trkpt>
      <trkpt lat="43.41946000" lon="11.16552000">
        <ele>240.00000</ele>
        <time>2010-01-01T06:00:30Z</time>
      </trkpt>
      <trkpt lat="43.41934000" lon="11.16424000">
        <ele>241.00000</ele>
        <time>2010-01-01T06:01:08Z</time>
      </trkpt>
      <trkpt lat="43.41896000" lon="11.16214000">
        <ele>242.00000</ele>
        <time>2010-01-01T06:02:11Z</time>
      </trkpt>
      <trkpt lat="43.41854630" lon="11.16051070">
        <ele>242.00000</ele>
        <time>2010-01-01T06:03:01Z</time>
      </trkpt>
      <trkpt lat="43.41784000" lon="11.15921000">
        <ele>242.00000</ele>
        <time>2010-01-01T06:03:48Z</time>
      </trkpt>
      <trkpt lat="43.41749000" lon="11.15896000">
        <ele>242.00000</ele>
        <time>2010-01-01T06:04:04Z</time>
      </trkpt>
      <trkpt lat="43.41702000" lon="11.15914000">
        <ele>237.00000</ele>
        <time>2010-01-01T06:04:23Z</time>
      </trkpt>
      <trkpt lat="43.41574850" lon="11.16030150">
        <ele>233.00000</ele>
        <time>2010-01-01T06:05:24Z</time>
      </trkpt>
      <trkpt lat="43.41523000" lon="11.16076000">
        <ele>232.00000</ele>
        <time>2010-01-01T06:05:49Z</time>
      </trkpt>
      <trkpt lat="43.41503000" lon="11.16084000">
        <ele>233.00000</ele>
        <time>2010-01-01T06:05:57Z</time>
      </trkpt>
      <trkpt lat="43.41483670" lon="11.16083260">
        <ele>232.00000</ele>
        <time>2010-01-01T06:06:05Z</time>
      </trkpt>
      <trkpt lat="43.41468000" lon="11.16068000">
        <ele>232.00000</ele>
        <time>2010-01-01T06:06:13Z</time>
      </trkpt>
      <trkpt lat="43.41357000" lon="11.15920000">
        <ele>228.00000</ele>
        <time>2010-01-01T06:07:15Z</time>
      </trkpt>
      <trkpt lat="43.41350000" lon="11.15895000">
        <ele>227.00000</ele>
        <time>2010-01-01T06:07:22Z</time>
      </trkpt>
      <trkpt lat="43.41360000" lon="11.15836000">
        <ele>227.00000</ele>
        <time>2010-01-01T06:07:40Z</time>
      </trkpt>
      <trkpt lat="43.41411000" lon="11.15769000">
        <ele>229.00000</ele>
        <time>2010-01-01T06:08:08Z</time>
      </trkpt>
      <trkpt lat="43.41454000" lon="11.15715000">
        <ele>231.00000</ele>
        <time>2010-01-01T06:08:32Z</time>
      </trkpt>
      <trkpt lat="43.41543000" lon="11.15515000">
        <ele>230.00000</ele>
        <time>2010-01-01T06:09:40Z</time>
      </trkpt>
      <trkpt lat="43.41666000" lon="11.15014000">
        <ele>226.00000</ele>
        <time>2010-01-01T06:12:14Z</time>
      </trkpt>
      <trkpt lat="43.41690000" lon="11.14910000">
        <ele>221.00000</ele>
        <time>2010-01-01T06:12:45Z</time>
      </trkpt>
      <trkpt lat="43.41691000" lon="11.14872000">
        <ele>219.00000</ele>
        <time>2010-01-01T06:12:56Z</time>
      </trkpt>
      <trkpt lat="43.41686000" lon="11.14835000">
        <ele>218.00000</ele>
        <time>2010-01-01T06:13:07Z</time>
      </trkpt>
      <trkpt lat="43.41627000" lon="11.14623000">
        <ele>214.00000</ele>
        <time>2010-01-01T06:14:13Z</time>
      </trkpt>
      <trkpt lat="43.41637000" lon="11.14536000">
        <ele>210.00000</ele>
        <time>2010-01-01T06:14:39Z</time>
      </trkpt>
      <trkpt lat="43.41633000" lon="11.14494000">
        <ele>207.00000</ele>
        <time>2010-01-01T06:14:51Z</time>
      </trkpt>
      <trkpt lat="43.41615000" lon="11.14437000">
        <ele>202.00000</ele>
        <time>2010-01-01T06:15:09Z</time>
      </trkpt>
      <trkpt lat="43.41627000" lon="11.14389000">
        <ele>205.00000</ele>
        <time>2010-01-01T06:15:24Z</time>
      </trkpt>
      <trkpt lat="43.41661000" lon="11.14372000">
        <ele>202.00000</ele>
        <time>2010-01-01T06:15:39Z</time>
      </trkpt>
      <trkpt lat="43.41805000" lon="11.14379000">
        <ele>192.00000</ele>
        <time>2010-01-01T06:16:36Z</time>
      </trkpt>
      <trkpt lat="43.41824000" lon="11.14366000">
        <ele>190.00000</ele>
        <time>2010-01-01T06:16:45Z</time>
      </trkpt>
      <trkpt lat="43.41841000" lon="11.14339000">
        <ele>188.00000</ele>
        <time>2010-01-01T06:16:55Z</time>
      </trkpt>
      <trkpt lat="43.41951000" lon="11.13878000">
        <ele>177.00000</ele>
        <time>2010-01-01T06:19:16Z</time>
      </trkpt>
      <trkpt lat="43.41983210" lon="11.13831280">
        <ele>176.00000</ele>
        <time>2010-01-01T06:19:35Z</time>
      </trkpt>
      <trkpt lat="43.41982820" lon="11.13764760">
        <ele>174.00000</ele>
        <time>2010-01-01T06:19:54Z</time>
      </trkpt>
      <trkpt lat="43.42032000" lon="11.13581000">
        <ele>172.00000</ele>
        <time>2010-01-01T06:20:51Z</time>
      </trkpt>
      <trkpt lat="43.42073000" lon="11.13429000">
        <ele>164.00000</ele>
        <time>2010-01-01T06:21:38Z</time>
      </trkpt>
      <trkpt lat="43.42124260" lon="11.13337750">
        <ele>164.00000</ele>
        <time>2010-01-01T06:22:12Z</time>
      </trkpt>
      <trkpt lat="43.42216000" lon="11.13227000">
        <ele>158.00000</ele>
        <time>2010-01-01T06:23:01Z</time>
      </trkpt>
      <trkpt lat="43.42244000" lon="11.13211000">
        <ele>157.00000</ele>
        <time>2010-01-01T06:23:13Z</time>
      </trkpt>
      <trkpt lat="43.42281000" lon="11.13213000">
        <ele>156.00000</ele>
        <time>2010-01-01T06:23:28Z</time>
      </trkpt>
      <trkpt lat="43.42338000" lon="11.13237000">
        <ele>152.00000</ele>
        <time>2010-01-01T06:23:52Z</time>
      </trkpt>
      <trkpt lat="43.42405000" lon="11.13236000">
        <ele>152.00000</ele>
        <time>2010-01-01T06:24:18Z</time>
      </trkpt>
      <trkpt lat="43.42430000" lon="11.13226000">
        <ele>151.00000</ele>
        <time>2010-01-01T06:24:29Z</time>
      </trkpt>
      <trkpt lat="43.42448000" lon="11.13197000">
        <ele>149.00000</ele>
        <time>2010-01-01T06:24:40Z</time>
      </trkpt>
      <trkpt lat="43.42446000" lon="11.13171000">
        <ele>148.00000</ele>
        <time>2010-01-01T06:24:47Z</time>
      </trkpt>
      <trkpt lat="43.42388810" lon="11.13111370">
        <ele>143.00000</ele>
        <time>2010-01-01T06:25:16Z</time>
      </trkpt>
      <trkpt lat="43.42294910" lon="11.12992820">
        <ele>132.00000</ele>
        <time>2010-01-01T06:26:07Z</time>
      </trkpt>
      <trkpt lat="43.42246000" lon="11.12945000">
        <ele>142.00000</ele>
        <time>2010-01-01T06:26:31Z</time>
      </trkpt>
      <trkpt lat="43.42246000" lon="11.12944000">
        <ele>142.00000</ele>
        <time>2010-01-01T06:26:31Z</time>
      </trkpt>
      <trkpt lat="43.42246000" lon="11.12945000">
        <ele>142.00000</ele>
        <time>2010-01-01T06:26:32Z</time>
      </trkpt>
      <trkpt lat="43.42330000" lon="11.12674000">
        <ele>142.00000</ele>
        <time>2010-01-01T06:27:57Z</time>
      </trkpt>
      <trkpt lat="43.42332000" lon="11.12655000">
        <ele>142.00000</ele>
        <time>2010-01-01T06:28:03Z</time>
      </trkpt>
      <trkpt lat="43.42388000" lon="11.12617000">
        <ele>139.00000</ele>
        <time>2010-01-01T06:28:28Z</time>
      </trkpt>
      <trkpt lat="43.42397000" lon="11.12599000">
        <ele>140.00000</ele>
        <time>2010-01-01T06:28:34Z</time>
      </trkpt>
      <trkpt lat="43.42397000" lon="11.12573000">
        <ele>142.00000</ele>
        <time>2010-01-01T06:28:42Z</time>
      </trkpt>
      <trkpt lat="43.42342000" lon="11.12583000">
        <ele>145.00000</ele>
        <time>2010-01-01T06:29:04Z</time>
      </trkpt>
      <trkpt lat="43.42301140" lon="11.12457990">
        <ele>159.00000</ele>
        <time>2010-01-01T06:29:44Z</time>
      </trkpt>
      <trkpt lat="43.42295690" lon="11.12421510">
        <ele>162.00000</ele>
        <time>2010-01-01T06:29:55Z</time>
      </trkpt>
      <trkpt lat="43.42293350" lon="11.12316370">
        <ele>184.00000</ele>
        <time>2010-01-01T06:30:25Z</time>
      </trkpt>
      <trkpt lat="43.42293740" lon="11.12292760">
        <ele>188.00000</ele>
        <time>2010-01-01T06:30:32Z</time>
      </trkpt>
      <trkpt lat="43.42304260" lon="11.12305640">
        <ele>189.00000</ele>
        <time>2010-01-01T06:30:38Z</time>
      </trkpt>
      <trkpt lat="43.42315170" lon="11.12334600">
        <ele>186.00000</ele>
        <time>2010-01-01T06:30:47Z</time>
      </trkpt>
      <trkpt lat="43.42308940" lon="11.12301340">
        <ele>190.00000</ele>
        <time>2010-01-01T06:30:57Z</time>
      </trkpt>
      <trkpt lat="43.42325690" lon="11.12284710">
        <ele>194.00000</ele>
        <time>2010-01-01T06:31:06Z</time>
      </trkpt>
      <trkpt lat="43.42308160" lon="11.12222490">
        <ele>203.00000</ele>
        <time>2010-01-01T06:31:25Z</time>
      </trkpt>
      <trkpt lat="43.42264910" lon="11.12107150">
        <ele>212.00000</ele>
        <time>2010-01-01T06:32:03Z</time>
      </trkpt>
      <trkpt lat="43.42155430" lon="11.11855030">
        <ele>200.00000</ele>
        <time>2010-01-01T06:33:28Z</time>
      </trkpt>
      <trkpt lat="43.42125810" lon="11.11752560">
        <ele>204.00000</ele>
        <time>2010-01-01T06:34:00Z</time>
      </trkpt>
      <trkpt lat="43.42111790" lon="11.11667810">
        <ele>208.00000</ele>
        <time>2010-01-01T06:34:26Z</time>
      </trkpt>
      <trkpt lat="43.42096980" lon="11.11634010">
        <ele>207.00000</ele>
        <time>2010-01-01T06:34:37Z</time>
      </trkpt>
      <trkpt lat="43.42096000" lon="11.11634000">
        <ele>207.00000</ele>
        <time>2010-01-01T06:34:37Z</time>
      </trkpt>
      <trkpt lat="43.42092000" lon="11.11644000">
        <ele>206.00000</ele>
        <time>2010-01-01T06:34:41Z</time>
      </trkpt>
      <trkpt lat="43.42099000" lon="11.11751000">
        <ele>196.00000</ele>
        <time>2010-01-01T06:35:12Z</time>
      </trkpt>
      <trkpt lat="43.42125000" lon="11.11854000">
        <ele>193.00000</ele>
        <time>2010-01-01T06:35:44Z</time>
      </trkpt>
      <trkpt lat="43.42132000" lon="11.11849000">
        <ele>196.00000</ele>
        <time>2010-01-01T06:35:47Z</time>
      </trkpt>
      <trkpt lat="43.42167000" lon="11.11825000">
        <ele>200.00000</ele>
        <time>2010-01-01T06:36:02Z</time>
      </trkpt>
      <trkpt lat="43.42170000" lon="11.11818000">
        <ele>199.00000</ele>
        <time>2010-01-01T06:36:05Z</time>
      </trkpt>
      <trkpt lat="43.42160000" lon="11.11787000">
        <ele>201.00000</ele>
        <time>2010-01-01T06:36:15Z</time>
      </trkpt>
      <trkpt lat="43.42162000" lon="11.11782000">
        <ele>200.00000</ele>
        <time>2010-01-01T06:36:16Z</time>
      </trkpt>
      <trkpt lat="43.42158000" lon="11.11738000">
        <ele>201.00000</ele>
        <time>2010-01-01T06:36:29Z</time>
      </trkpt>
      <trkpt lat="43.42160000" lon="11.11678000">
        <ele>198.00000</ele>
        <time>2010-01-01T06:36:47Z</time>
      </trkpt>
      <trkpt lat="43.42172000" lon="11.11656000">
        <ele>196.00000</ele>
        <time>2010-01-01T06:36:55Z</time>
      </trkpt>
      <trkpt lat="43.42205000" lon="11.11641000">
        <ele>200.00000</ele>
        <time>2010-01-01T06:37:09Z</time>
      </trkpt>
      <trkpt lat="43.42162000" lon="11.11516000">
        <ele>207.00000</ele>
        <time>2010-01-01T06:37:49Z</time>
      </trkpt>
      <trkpt lat="43.42160000" lon="11.11496000">
        <ele>210.00000</ele>
        <time>2010-01-01T06:37:55Z</time>
      </trkpt>
      <trkpt lat="43.42164000" lon="11.11476000">
        <ele>211.00000</ele>
        <time>2010-01-01T06:38:01Z</time>
      </trkpt>
      <trkpt lat="43.42179000" lon="11.11453000">
        <ele>214.00000</ele>
        <time>2010-01-01T06:38:10Z</time>
      </trkpt>
      <trkpt lat="43.42195000" lon="11.11456000">
        <ele>214.00000</ele>
        <time>2010-01-01T06:38:16Z</time>
      </trkpt>
      <trkpt lat="43.42203000" lon="11.11477000">
        <ele>214.00000</ele>
        <time>2010-01-01T06:38:23Z</time>
      </trkpt>
      <trkpt lat="43.42202000" lon="11.11491000">
        <ele>213.00000</ele>
        <time>2010-01-01T06:38:27Z</time>
      </trkpt>
      <trkpt lat="43.42196000" lon="11.11518000">
        <ele>210.00000</ele>
        <time>2010-01-01T06:38:35Z</time>
      </trkpt>
      <trkpt lat="43.42199000" lon="11.11553000">
        <ele>207.00000</ele>
        <time>2010-01-01T06:38:46Z</time>
      </trkpt>
      <trkpt lat="43.42212000" lon="11.11592000">
        <ele>207.00000</ele>
        <time>2010-01-01T06:38:58Z</time>
      </trkpt>
      <trkpt lat="43.42234000" lon="11.11626000">
        <ele>210.00000</ele>
        <time>2010-01-01T06:39:11Z</time>
      </trkpt>
      <trkpt lat="43.42256000" lon="11.11670000">
        <ele>208.00000</ele>
        <time>2010-01-01T06:39:27Z</time>
      </trkpt>
      <trkpt lat="43.42265000" lon="11.11677000">
        <ele>209.00000</ele>
        <time>2010-01-01T06:39:31Z</time>
      </trkpt>
      <trkpt lat="43.42282000" lon="11.11674000">
        <ele>213.00000</ele>
        <time>2010-01-01T06:39:38Z</time>
      </trkpt>
      <trkpt lat="43.42320000" lon="11.11654000">
        <ele>220.00000</ele>
        <time>2010-01-01T06:39:54Z</time>
      </trkpt>
      <trkpt lat="43.42327000" lon="11.11641000">
        <ele>221.00000</ele>
        <time>2010-01-01T06:39:59Z</time>
      </trkpt>
      <trkpt lat="43.42329000" lon="11.11609000">
        <ele>223.00000</ele>
        <time>2010-01-01T06:40:08Z</time>
      </trkpt>
      <trkpt lat="43.42329000" lon="11.11608000">
        <ele>223.00000</ele>
        <time>2010-01-01T06:40:08Z</time>
      </trkpt>
      <trkpt lat="43.42319000" lon="11.11408000">
        <ele>228.00000</ele>
        <time>2010-01-01T06:41:07Z</time>
      </trkpt>
      <trkpt lat="43.42303000" lon="11.11343000">
        <ele>228.00000</ele>
        <time>2010-01-01T06:41:27Z</time>
      </trkpt>
      <trkpt lat="43.42291000" lon="11.11323000">
        <ele>228.00000</ele>
        <time>2010-01-01T06:41:34Z</time>
      </trkpt>
      <trkpt lat="43.42164000" lon="11.11174000">
        <ele>232.00000</ele>
        <time>2010-01-01T06:42:41Z</time>
      </trkpt>
      <trkpt lat="43.42153000" lon="11.11149000">
        <ele>232.00000</ele>
        <time>2010-01-01T06:42:50Z</time>
      </trkpt>
      <trkpt lat="43.42182000" lon="11.10732000">
        <ele>238.00000</ele>
        <time>2010-01-01T06:44:51Z</time>
      </trkpt>
      <trkpt lat="43.42171000" lon="11.10672000">
        <ele>239.00000</ele>
        <time>2010-01-01T06:45:09Z</time>
      </trkpt>
      <trkpt lat="43.42043600" lon="11.10215660">
        <ele>240.00000</ele>
        <time>2010-01-01T06:47:31Z</time>
      </trkpt>
      <trkpt lat="43.42050000" lon="11.10188000">
        <ele>240.00000</ele>
        <time>2010-01-01T06:47:40Z</time>
      </trkpt>
      <trkpt lat="43.42031130" lon="11.10167380">
        <ele>243.00000</ele>
        <time>2010-01-01T06:47:50Z</time>
      </trkpt>
      <trkpt lat="43.41964000" lon="11.09931000">
        <ele>245.00000</ele>
        <time>2010-01-01T06:49:03Z</time>
      </trkpt>
      <trkpt lat="43.41941000" lon="11.09872000">
        <ele>245.00000</ele>
        <time>2010-01-01T06:49:23Z</time>
      </trkpt>
      <trkpt lat="43.41915000" lon="11.09744000">
        <ele>243.00000</ele>
        <time>2010-01-01T06:50:01Z</time>
      </trkpt>
      <trkpt lat="43.41915000" lon="11.09721000">
        <ele>243.00000</ele>
        <time>2010-01-01T06:50:08Z</time>
      </trkpt>
      <trkpt lat="43.41918000" lon="11.09702000">
        <ele>243.00000</ele>
        <time>2010-01-01T06:50:14Z</time>
      </trkpt>
      <trkpt lat="43.41928000" lon="11.09685000">
        <ele>243.00000</ele>
        <time>2010-01-01T06:50:20Z</time>
      </trkpt>
      <trkpt lat="43.41940000" lon="11.09676000">
        <ele>243.00000</ele>
        <time>2010-01-01T06:50:26Z</time>
      </trkpt>
      <trkpt lat="43.41973000" lon="11.09665000">
        <ele>243.00000</ele>
        <time>2010-01-01T06:50:39Z</time>
      </trkpt>
      <trkpt lat="43.42006000" lon="11.09645000">
        <ele>243.00000</ele>
        <time>2010-01-01T06:50:54Z</time>
      </trkpt>
      <trkpt lat="43.42167000" lon="11.09505000">
        <ele>246.00000</ele>
        <time>2010-01-01T06:52:10Z</time>
      </trkpt>
      <trkpt lat="43.42191000" lon="11.09482000">
        <ele>248.00000</ele>
        <time>2010-01-01T06:52:22Z</time>
      </trkpt>
      <trkpt lat="43.42267000" lon="11.09374000">
        <ele>249.00000</ele>
        <time>2010-01-01T06:53:05Z</time>
      </trkpt>
      <trkpt lat="43.42289000" lon="11.09351000">
        <ele>248.00000</ele>
        <time>2010-01-01T06:53:16Z</time>
      </trkpt>
      <trkpt lat="43.42421000" lon="11.09252000">
        <ele>250.00000</ele>
        <time>2010-01-01T06:54:17Z</time>
      </trkpt>
      <trkpt lat="43.42631000" lon="11.09157000">
        <ele>250.00000</ele>
        <time>2010-01-01T06:55:45Z</time>
      </trkpt>
      <trkpt lat="43.42810000" lon="11.09089000">
        <ele>249.00000</ele>
        <time>2010-01-01T06:56:59Z</time>
      </trkpt>
      <trkpt lat="43.43067000" lon="11.09068000">
        <ele>244.00000</ele>
        <time>2010-01-01T06:58:42Z</time>
      </trkpt>
      <trkpt lat="43.43112000" lon="11.09067000">
        <ele>242.00000</ele>
        <time>2010-01-01T06:59:00Z</time>
      </trkpt>
      <trkpt lat="43.43145000" lon="11.09085000">
        <ele>242.00000</ele>
        <time>2010-01-01T06:59:15Z</time>
      </trkpt>
      <trkpt lat="43.43216000" lon="11.09143000">
        <ele>241.00000</ele>
        <time>2010-01-01T06:59:48Z</time>
      </trkpt>
      <trkpt lat="43.43283000" lon="11.09223000">
        <ele>241.00000</ele>
        <time>2010-01-01T07:00:23Z</time>
      </trkpt>
      <trkpt lat="43.43438000" lon="11.09333000">
        <ele>236.00000</ele>
        <time>2010-01-01T07:01:33Z</time>
      </trkpt>
      <trkpt lat="43.43482000" lon="11.09354000">
        <ele>235.00000</ele>
        <time>2010-01-01T07:01:52Z</time>
      </trkpt>
      <trkpt lat="43.43640000" lon="11.09416000">
        <ele>231.00000</ele>
        <time>2010-01-01T07:02:57Z</time>
      </trkpt>
      <trkpt lat="43.43679000" lon="11.09423000">
        <ele>231.00000</ele>
        <time>2010-01-01T07:03:13Z</time>
      </trkpt>
      <trkpt lat="43.43835000" lon="11.09439000">
        <ele>228.00000</ele>
        <time>2010-01-01T07:04:16Z</time>
      </trkpt>
      <trkpt lat="43.43872000" lon="11.09460000">
        <ele>228.00000</ele>
        <time>2010-01-01T07:04:32Z</time>
      </trkpt>
      <trkpt lat="43.44042000" lon="11.09623000">
        <ele>224.00000</ele>
        <time>2010-01-01T07:05:55Z</time>
      </trkpt>
      <trkpt lat="43.44083000" lon="11.09653000">
        <ele>223.00000</ele>
        <time>2010-01-01T07:06:13Z</time>
      </trkpt>
      <trkpt lat="43.44159000" lon="11.09688000">
        <ele>222.00000</ele>
        <time>2010-01-01T07:06:45Z</time>
      </trkpt>
      <trkpt lat="43.44188540" lon="11.09711940">
        <ele>219.00000</ele>
        <time>2010-01-01T07:06:59Z</time>
      </trkpt>
      <trkpt lat="43.44280000" lon="11.09848000">
        <ele>217.00000</ele>
        <time>2010-01-01T07:07:53Z</time>
      </trkpt>
      <trkpt lat="43.44401000" lon="11.09990000">
        <ele>213.00000</ele>
        <time>2010-01-01T07:08:57Z</time>
      </trkpt>
      <trkpt lat="43.44433000" lon="11.10024000">
        <ele>215.00000</ele>
        <time>2010-01-01T07:09:13Z</time>
      </trkpt>
      <trkpt lat="43.44448000" lon="11.10032000">
        <ele>214.00000</ele>
        <time>2010-01-01T07:09:19Z</time>
      </trkpt>
      <trkpt lat="43.44466640" lon="11.10034880">
        <ele>212.00000</ele>
        <time>2010-01-01T07:09:27Z</time>
      </trkpt>
      <trkpt lat="43.44484940" lon="11.10022540">
        <ele>209.00000</ele>
        <time>2010-01-01T07:09:35Z</time>
      </trkpt>
      <trkpt lat="43.44499740" lon="11.09990890">
        <ele>207.00000</ele>
        <time>2010-01-01T07:09:46Z</time>
      </trkpt>
      <trkpt lat="43.44495000" lon="11.09948000">
        <ele>204.00000</ele>
        <time>2010-01-01T07:09:58Z</time>
      </trkpt>
      <trkpt lat="43.44430000" lon="11.09735000">
        <ele>194.00000</ele>
        <time>2010-01-01T07:11:06Z</time>
      </trkpt>
      <trkpt lat="43.44429000" lon="11.09705000">
        <ele>193.00000</ele>
        <time>2010-01-01T07:11:14Z</time>
      </trkpt>
      <trkpt lat="43.44432000" lon="11.09684000">
        <ele>193.00000</ele>
        <time>2010-01-01T07:11:21Z</time>
      </trkpt>
      <trkpt lat="43.44446000" lon="11.09656000">
        <ele>194.00000</ele>
        <time>2010-01-01T07:11:30Z</time>
      </trkpt>
      <trkpt lat="43.44611000" lon="11.09514000">
        <ele>178.00000</ele>
        <time>2010-01-01T07:12:48Z</time>
      </trkpt>
      <trkpt lat="43.44625000" lon="11.09495000">
        <ele>176.00000</ele>
        <time>2010-01-01T07:12:56Z</time>
      </trkpt>
      <trkpt lat="43.44655000" lon="11.09426000">
        <ele>176.00000</ele>
        <time>2010-01-01T07:13:20Z</time>
      </trkpt>
      <trkpt lat="43.44685000" lon="11.09403000">
        <ele>173.00000</ele>
        <time>2010-01-01T07:13:33Z</time>
      </trkpt>
      <trkpt lat="43.44704000" lon="11.09389000">
        <ele>170.00000</ele>
        <time>2010-01-01T07:13:42Z</time>
      </trkpt>
      <trkpt lat="43.44733000" lon="11.09349000">
        <ele>171.00000</ele>
        <time>2010-01-01T07:13:58Z</time>
      </trkpt>
      <trkpt lat="43.44748000" lon="11.09333000">
        <ele>172.00000</ele>
        <time>2010-01-01T07:14:06Z</time>
      </trkpt>
      <trkpt lat="43.44770000" lon="11.09324000">
        <ele>172.00000</ele>
        <time>2010-01-01T07:14:15Z</time>
      </trkpt>
      <trkpt lat="43.44875000" lon="11.09301000">
        <ele>166.00000</ele>
        <time>2010-01-01T07:14:58Z</time>
      </trkpt>
      <trkpt lat="43.44887000" lon="11.09296000">
        <ele>165.00000</ele>
        <time>2010-01-01T07:15:03Z</time>
      </trkpt>
      <trkpt lat="43.44896000" lon="11.09289000">
        <ele>164.00000</ele>
        <time>2010-01-01T07:15:07Z</time>
      </trkpt>
      <trkpt lat="43.44913000" lon="11.09263000">
        <ele>164.00000</ele>
        <time>2010-01-01T07:15:17Z</time>
      </trkpt>
      <trkpt lat="43.44940000" lon="11.09173000">
        <ele>160.00000</ele>
        <time>2010-01-01T07:15:45Z</time>
      </trkpt>
      <trkpt lat="43.44942000" lon="11.09132000">
        <ele>156.00000</ele>
        <time>2010-01-01T07:15:57Z</time>
      </trkpt>
      <trkpt lat="43.44927000" lon="11.09094000">
        <ele>153.00000</ele>
        <time>2010-01-01T07:16:10Z</time>
      </trkpt>
      <trkpt lat="43.44889000" lon="11.09065000">
        <ele>154.00000</ele>
        <time>2010-01-01T07:16:27Z</time>
      </trkpt>
      <trkpt lat="43.44863000" lon="11.09013000">
        <ele>149.00000</ele>
        <time>2010-01-01T07:16:46Z</time>
      </trkpt>
      <trkpt lat="43.44852000" lon="11.09000000">
        <ele>146.00000</ele>
        <time>2010-01-01T07:16:51Z</time>
      </trkpt>
      <trkpt lat="43.44830000" lon="11.08991000">
        <ele>142.00000</ele>
        <time>2010-01-01T07:17:01Z</time>
      </trkpt>
      <trkpt lat="43.44809000" lon="11.08996000">
        <ele>140.00000</ele>
        <time>2010-01-01T07:17:09Z</time>
      </trkpt>
      <trkpt lat="43.44774000" lon="11.09040000">
        <ele>141.00000</ele>
        <time>2010-01-01T07:17:28Z</time>
      </trkpt>
      <trkpt lat="43.44757000" lon="11.09049000">
        <ele>142.00000</ele>
        <time>2010-01-01T07:17:35Z</time>
      </trkpt>
      <trkpt lat="43.44736000" lon="11.09044000">
        <ele>144.00000</ele>
        <time>2010-01-01T07:17:44Z</time>
      </trkpt>
      <trkpt lat="43.44724000" lon="11.09030000">
        <ele>144.00000</ele>
        <time>2010-01-01T07:17:50Z</time>
      </trkpt>
      <trkpt lat="43.44717000" lon="11.09003000">
        <ele>142.00000</ele>
        <time>2010-01-01T07:17:59Z</time>
      </trkpt>
      <trkpt lat="43.44728000" lon="11.08969000">
        <ele>135.00000</ele>
        <time>2010-01-01T07:18:09Z</time>
      </trkpt>
      <trkpt lat="43.44741000" lon="11.08959000">
        <ele>132.00000</ele>
        <time>2010-01-01T07:18:15Z</time>
      </trkpt>
      <trkpt lat="43.44765000" lon="11.08951000">
        <ele>130.00000</ele>
        <time>2010-01-01T07:18:25Z</time>
      </trkpt>
      <trkpt lat="43.44838000" lon="11.08934000">
        <ele>126.00000</ele>
        <time>2010-01-01T07:18:55Z</time>
      </trkpt>
      <trkpt lat="43.44922000" lon="11.08932000">
        <ele>119.00000</ele>
        <time>2010-01-01T07:19:28Z</time>
      </trkpt>
      <trkpt lat="43.44969000" lon="11.08921000">
        <ele>114.00000</ele>
        <time>2010-01-01T07:19:48Z</time>
      </trkpt>
      <trkpt lat="43.45134000" lon="11.08866000">
        <ele>108.00000</ele>
        <time>2010-01-01T07:20:55Z</time>
      </trkpt>
      <trkpt lat="43.45165320" lon="11.08846120">
        <ele>107.00000</ele>
        <time>2010-01-01T07:21:09Z</time>
      </trkpt>
      <trkpt lat="43.45187520" lon="11.08805890">
        <ele>108.00000</ele>
        <time>2010-01-01T07:21:24Z</time>
      </trkpt>
      <trkpt lat="43.45204000" lon="11.08738000">
        <ele>108.00000</ele>
        <time>2010-01-01T07:21:45Z</time>
      </trkpt>
      <trkpt lat="43.45270000" lon="11.08404000">
        <ele>115.00000</ele>
        <time>2010-01-01T07:23:25Z</time>
      </trkpt>
      <trkpt lat="43.45300000" lon="11.08372000">
        <ele>119.00000</ele>
        <time>2010-01-01T07:23:41Z</time>
      </trkpt>
      <trkpt lat="43.45289000" lon="11.08292000">
        <ele>119.00000</ele>
        <time>2010-01-01T07:24:04Z</time>
      </trkpt>
      <trkpt lat="43.45369000" lon="11.07709000">
        <ele>124.00000</ele>
        <time>2010-01-01T07:26:57Z</time>
      </trkpt>
      <trkpt lat="43.45389000" lon="11.07575000">
        <ele>128.00000</ele>
        <time>2010-01-01T07:27:36Z</time>
      </trkpt>
      <trkpt lat="43.45409000" lon="11.07526000">
        <ele>128.00000</ele>
        <time>2010-01-01T07:27:53Z</time>
      </trkpt>
      <trkpt lat="43.45434000" lon="11.07498000">
        <ele>131.00000</ele>
        <time>2010-01-01T07:28:06Z</time>
      </trkpt>
      <trkpt lat="43.45524000" lon="11.07434000">
        <ele>130.00000</ele>
        <time>2010-01-01T07:28:46Z</time>
      </trkpt>
      <trkpt lat="43.45543000" lon="11.07413000">
        <ele>129.00000</ele>
        <time>2010-01-01T07:28:56Z</time>
      </trkpt>
      <trkpt lat="43.45686000" lon="11.07226000">
        <ele>130.00000</ele>
        <time>2010-01-01T07:30:15Z</time>
      </trkpt>
      <trkpt lat="43.45709000" lon="11.07190000">
        <ele>132.00000</ele>
        <time>2010-01-01T07:30:29Z</time>
      </trkpt>
      <trkpt lat="43.45840000" lon="11.06946000">
        <ele>137.00000</ele>
        <time>2010-01-01T07:31:57Z</time>
      </trkpt>
      <trkpt lat="43.45923000" lon="11.06775000">
        <ele>137.00000</ele>
        <time>2010-01-01T07:32:57Z</time>
      </trkpt>
      <trkpt lat="43.45966000" lon="11.06669000">
        <ele>136.00000</ele>
        <time>2010-01-01T07:33:32Z</time>
      </trkpt>
      <trkpt lat="43.45983000" lon="11.06619000">
        <ele>138.00000</ele>
        <time>2010-01-01T07:33:48Z</time>
      </trkpt>
      <trkpt lat="43.45987000" lon="11.06565000">
        <ele>142.00000</ele>
        <time>2010-01-01T07:34:04Z</time>
      </trkpt>
      <trkpt lat="43.45982000" lon="11.06470000">
        <ele>150.00000</ele>
        <time>2010-01-01T07:34:32Z</time>
      </trkpt>
      <trkpt lat="43.45970220" lon="11.06345230">
        <ele>155.00000</ele>
        <time>2010-01-01T07:35:08Z</time>
      </trkpt>
      <trkpt lat="43.45948000" lon="11.06305000">
        <ele>155.00000</ele>
        <time>2010-01-01T07:35:23Z</time>
      </trkpt>
      <trkpt lat="43.45901000" lon="11.06251000">
        <ele>161.00000</ele>
        <time>2010-01-01T07:35:47Z</time>
      </trkpt>
      <trkpt lat="43.45894000" lon="11.06232000">
        <ele>162.00000</ele>
        <time>2010-01-01T07:35:53Z</time>
      </trkpt>
      <trkpt lat="43.45891000" lon="11.06207000">
        <ele>165.00000</ele>
        <time>2010-01-01T07:36:01Z</time>
      </trkpt>
      <trkpt lat="43.45883390" lon="11.06117240">
        <ele>168.00000</ele>
        <time>2010-01-01T07:36:27Z</time>
      </trkpt>
      <trkpt lat="43.45895000" lon="11.06028000">
        <ele>171.00000</ele>
        <time>2010-01-01T07:36:53Z</time>
      </trkpt>
      <trkpt lat="43.45914000" lon="11.05874000">
        <ele>181.00000</ele>
        <time>2010-01-01T07:37:39Z</time>
      </trkpt>
      <trkpt lat="43.45916000" lon="11.05846000">
        <ele>183.00000</ele>
        <time>2010-01-01T07:37:47Z</time>
      </trkpt>
      <trkpt lat="43.45914000" lon="11.05814000">
        <ele>186.00000</ele>
        <time>2010-01-01T07:37:56Z</time>
      </trkpt>
      <trkpt lat="43.45909000" lon="11.05788000">
        <ele>189.00000</ele>
        <time>2010-01-01T07:38:04Z</time>
      </trkpt>
      <trkpt lat="43.45877000" lon="11.05705000">
        <ele>194.00000</ele>
        <time>2010-01-01T07:38:31Z</time>
      </trkpt>
      <trkpt lat="43.45867000" lon="11.05679000">
        <ele>194.00000</ele>
        <time>2010-01-01T07:38:40Z</time>
      </trkpt>
      <trkpt lat="43.45857000" lon="11.05635000">
        <ele>196.00000</ele>
        <time>2010-01-01T07:38:53Z</time>
      </trkpt>
      <trkpt lat="43.45861970" lon="11.05338330">
        <ele>217.00000</ele>
        <time>2010-01-01T07:40:20Z</time>
      </trkpt>
    </trkseg>
  </trk>
</gpx>

